
Distance (Route):
Temperature : 0°C
Humidity : 0%
Pressure : 0hPa| Receiver | Frames | First received | Last received |
|---|---|---|---|
| SQ6EMJ | 462 | 2026-09-03 14:03:01 | 2026-09-03 15:03:24 |
| SP6BVK | 153 | 2026-09-03 14:00:18 | 2026-09-03 15:02:50 |
| SONDE2-11 | 73 | 2026-09-03 14:09:58 | 2026-09-03 14:56:32 |
| EDDB2-12 | 68 | 2026-09-03 14:15:30 | 2026-09-03 14:57:55 |
| EDDB2-11 | 64 | 2026-09-03 14:13:41 | 2026-09-03 14:55:35 |
| POL1PZ | 52 | 2026-09-03 14:23:39 | 2026-09-03 14:59:19 |
| SP3BTT-10 | 38 | 2026-09-03 14:03:29 | 2026-09-03 14:55:24 |
| POL2MAQ | 18 | 2026-09-03 14:42:15 | 2026-09-03 14:49:54 |
| OK1SLM-15 | 13 | 2026-09-03 14:12:54 | 2026-09-03 14:49:58 |
| OE3JTB-15 | 11 | 2026-09-03 14:14:18 | 2026-09-03 14:49:48 |
| OK1ALN | 10 | 2026-09-03 14:25:50 | 2026-09-03 14:59:22 |
| PETON7-10 | 10 | 2026-09-03 14:47:21 | 2026-09-03 14:53:24 |
| Receiver | Date | Latitude | Longitude | Direction | Speed | Altitude | Climb | Temperature | Humidity | Pressure | Voltage | Killtimer | Uptime | BKT | XDATA |
|---|---|---|---|---|---|---|---|---|---|---|---|---|---|---|---|
| SQ6EMJ | 2026-09-03 15:03:24 | 50.65612 | 16.52015 | 80° | 47km/h | 1345m | -13.2m/s | 0°C | 0% | 0hPa | 0V | 00:00:00 | 00:00:00 | 00:00:00 | |
| SQ6EMJ | 2026-09-03 15:03:01 | 50.65570 | 16.51612 | 93° | 47km/h | 1650m | -13.2m/s | 0°C | 0% | 0hPa | 0V | 00:00:00 | 00:00:00 | 00:00:00 | |
| SQ6EMJ | 2026-09-03 15:02:50 | 50.65598 | 16.51451 | 89° | 46km/h | 1784m | -12.9m/s | 0°C | 0% | 0hPa | 0V | 00:00:00 | 00:00:00 | 00:00:00 | |
| SP6BVK | 2026-09-03 15:02:50 | 50.65598 | 16.51451 | 89° | 46km/h | 1784m | -12.9m/s | 0°C | 0% | 0hPa | 0V | 00:00:00 | 00:00:00 | 00:00:00 | |
| SQ6EMJ | 2026-09-03 15:02:38 | 50.65625 | 16.51263 | 94° | 44km/h | 1938m | -13.0m/s | 0°C | 0% | 0hPa | 0V | 00:00:00 | 00:00:00 | 00:00:00 | |
| SP6BVK | 2026-09-03 15:02:29 | 50.65645 | 16.51114 | 114° | 47km/h | 2053m | -13.2m/s | 0°C | 0% | 0hPa | 0V | 00:00:00 | 00:00:00 | 00:00:00 | |
| SQ6EMJ | 2026-09-03 15:02:23 | 50.65664 | 16.51013 | 99° | 49km/h | 2133m | -13.6m/s | 0°C | 0% | 0hPa | 0V | 00:00:00 | 00:00:00 | 00:00:00 | |
| SQ6EMJ | 2026-09-03 15:02:09 | 50.65706 | 16.50770 | 94° | 49km/h | 2319m | -13.6m/s | 0°C | 0% | 0hPa | 0V | 00:00:00 | 00:00:00 | 00:00:00 | |
| SP6BVK | 2026-09-03 15:02:08 | 50.65709 | 16.50750 | 106° | 53km/h | 2332m | -13.5m/s | 0°C | 0% | 0hPa | 0V | 00:00:00 | 00:00:00 | 00:00:00 | |
| SQ6EMJ | 2026-09-03 15:01:51 | 50.65759 | 16.50451 | 89° | 38km/h | 2571m | -13.1m/s | 0°C | 0% | 0hPa | 0V | 00:00:00 | 00:00:00 | 00:00:00 | |
| SQ6EMJ | 2026-09-03 15:01:43 | 50.65771 | 16.50320 | 102° | 49km/h | 2663m | -13.3m/s | 0°C | 0% | 0hPa | 0V | 00:00:00 | 00:00:00 | 00:00:00 | |
| SQ6EMJ | 2026-09-03 15:01:36 | 50.65791 | 16.50197 | 100° | 38km/h | 2758m | -13.1m/s | 0°C | 0% | 0hPa | 0V | 00:00:00 | 00:00:00 | 00:00:00 | |
| SQ6EMJ | 2026-09-03 15:01:16 | 50.65830 | 16.49848 | 109° | 46km/h | 3028m | -13.2m/s | 0°C | 0% | 0hPa | 0V | 00:00:00 | 00:00:00 | 00:00:00 | |
| SP6BVK | 2026-09-03 15:01:11 | 50.65851 | 16.49754 | 114° | 55km/h | 3096m | -13.2m/s | 0°C | 0% | 0hPa | 0V | 00:00:00 | 00:00:00 | 00:00:00 | |
| SQ6EMJ | 2026-09-03 15:01:10 | 50.65856 | 16.49737 | 122° | 44km/h | 3109m | -13.4m/s | 0°C | 0% | 0hPa | 0V | 00:00:00 | 00:00:00 | 00:00:00 | |
| SQ6EMJ | 2026-09-03 15:01:04 | 50.65888 | 16.49636 | 127° | 47km/h | 3190m | -13.4m/s | 0°C | 0% | 0hPa | 0V | 00:00:00 | 00:00:00 | 00:00:00 | |
| SQ6EMJ | 2026-09-03 15:00:57 | 50.65927 | 16.49528 | 129° | 42km/h | 3284m | -13.5m/s | 0°C | 0% | 0hPa | 0V | 00:00:00 | 00:00:00 | 00:00:00 | |
| SQ6EMJ | 2026-09-03 15:00:52 | 50.65960 | 16.49446 | 121° | 53km/h | 3350m | -13.3m/s | 0°C | 0% | 0hPa | 0V | 00:00:00 | 00:00:00 | 00:00:00 | |
| SP6BVK | 2026-09-03 15:00:50 | 50.65976 | 16.49415 | 134° | 44km/h | 3376m | -13.2m/s | 0°C | 0% | 0hPa | 0V | 00:00:00 | 00:00:00 | 00:00:00 | |
| SQ6EMJ | 2026-09-03 15:00:45 | 50.66014 | 16.49340 | 125° | 53km/h | 3443m | -13.4m/s | 0°C | 0% | 0hPa | 0V | 00:00:00 | 00:00:00 | 00:00:00 | |
| SQ6EMJ | 2026-09-03 15:00:39 | 50.66060 | 16.49249 | 131° | 47km/h | 3523m | -13.3m/s | 0°C | 0% | 0hPa | 0V | 00:00:00 | 00:00:00 | 00:00:00 | |
| SQ6EMJ | 2026-09-03 15:00:34 | 50.66101 | 16.49162 | 119° | 53km/h | 3590m | -13.2m/s | 0°C | 0% | 0hPa | 0V | 00:00:00 | 00:00:00 | 00:00:00 | |
| SQ6EMJ | 2026-09-03 15:00:28 | 50.66154 | 16.49047 | 128° | 68km/h | 3670m | -13.3m/s | 0°C | 0% | 0hPa | 0V | 00:00:00 | 00:00:00 | 00:00:00 | |
| SQ6EMJ | 2026-09-03 15:00:22 | 50.66212 | 16.48938 | 127° | 51km/h | 3750m | -13.2m/s | 0°C | 0% | 0hPa | 0V | 00:00:00 | 00:00:00 | 00:00:00 | |
| SQ6EMJ | 2026-09-03 15:00:16 | 50.66265 | 16.48819 | 121° | 68km/h | 3830m | -13.2m/s | 0°C | 0% | 0hPa | 0V | 00:00:00 | 00:00:00 | 00:00:00 | |
| SP6BVK | 2026-09-03 15:00:09 | 50.66335 | 16.48672 | 132° | 58km/h | 3923m | -13.3m/s | 0°C | 0% | 0hPa | 0V | 00:00:00 | 00:00:00 | 00:00:00 | |
| SQ6EMJ | 2026-09-03 15:00:04 | 50.66380 | 16.48569 | 118° | 58km/h | 3989m | -12.8m/s | 0°C | 0% | 0hPa | 0V | 00:00:00 | 00:00:00 | 00:00:00 | |
| SQ6EMJ | 2026-09-03 14:59:58 | 50.66435 | 16.48430 | 119° | 62km/h | 4068m | -13.1m/s | 0°C | 0% | 0hPa | 0V | 00:00:00 | 00:00:00 | 00:00:00 | |
| SQ6EMJ | 2026-09-03 14:59:52 | 50.66481 | 16.48295 | 116° | 73km/h | 4146m | -13.0m/s | 0°C | 0% | 0hPa | 0V | 00:00:00 | 00:00:00 | 00:00:00 | |
| SP6BVK | 2026-09-03 14:59:48 | 50.66516 | 16.48207 | 115° | 57km/h | 4198m | -12.8m/s | 0°C | 0% | 0hPa | 0V | 00:00:00 | 00:00:00 | 00:00:00 | |
| SQ6EMJ | 2026-09-03 14:59:46 | 50.66527 | 16.48159 | 111° | 71km/h | 4224m | -12.9m/s | 0°C | 0% | 0hPa | 0V | 00:00:00 | 00:00:00 | 00:00:00 | |
| SQ6EMJ | 2026-09-03 14:59:40 | 50.66574 | 16.48012 | 121° | 71km/h | 4303m | -13.2m/s | 0°C | 0% | 0hPa | 0V | 00:00:00 | 00:00:00 | 00:00:00 | |
| SQ6EMJ | 2026-09-03 14:59:35 | 50.66605 | 16.47893 | 113° | 73km/h | 4367m | -12.8m/s | 0°C | 0% | 0hPa | 0V | 00:00:00 | 00:00:00 | 00:00:00 | |
| SQ6EMJ | 2026-09-03 14:59:29 | 50.66640 | 16.47758 | 118° | 55km/h | 4446m | -13.1m/s | 0°C | 0% | 0hPa | 0V | 00:00:00 | 00:00:00 | 00:00:00 | |
| SP6BVK | 2026-09-03 14:59:28 | 50.66645 | 16.47739 | 106° | 49km/h | 4459m | -13.1m/s | 0°C | 0% | 0hPa | 0V | 00:00:00 | 00:00:00 | 00:00:00 | |
| SQ6EMJ | 2026-09-03 14:59:23 | 50.66666 | 16.47627 | 113° | 62km/h | 4525m | -13.0m/s | 0°C | 0% | 0hPa | 0V | 00:00:00 | 00:00:00 | 00:00:00 | |
| OK1ALN | 2026-09-03 14:59:22 | 50.66672 | 16.47606 | 113° | 55km/h | 4538m | -13.2m/s | 0°C | 0% | 0hPa | 0V | 00:00:00 | 00:00:00 | 00:00:00 | |
| POL1PZ | 2026-09-03 14:59:19 | 50.66685 | 16.47542 | 116° | 47km/h | 4577m | -12.9m/s | 0°C | 0% | 0hPa | 0V | 00:00:00 | 00:00:00 | 00:00:00 | |
| SQ6EMJ | 2026-09-03 14:59:18 | 50.66689 | 16.47525 | 105° | 42km/h | 4590m | -12.8m/s | 0°C | 0% | 0hPa | 0V | 00:00:00 | 00:00:00 | 00:00:00 | |
| SQ6EMJ | 2026-09-03 14:59:12 | 50.66703 | 16.47429 | 121° | 38km/h | 4668m | -12.9m/s | 0°C | 0% | 0hPa | 0V | 00:00:00 | 00:00:00 | 00:00:00 | |
| SP6BVK | 2026-09-03 14:59:07 | 50.66737 | 16.47348 | 121° | 60km/h | 4733m | -13.1m/s | 0°C | 0% | 0hPa | 0V | 00:00:00 | 00:00:00 | 00:00:00 | |
| SQ6EMJ | 2026-09-03 14:59:01 | 50.66763 | 16.47207 | 101° | 51km/h | 4812m | -13.2m/s | 0°C | 0% | 0hPa | 0V | 00:00:00 | 00:00:00 | 00:00:00 | |
| SQ6EMJ | 2026-09-03 14:58:56 | 50.66789 | 16.47116 | 119° | 64km/h | 4880m | -13.6m/s | 0°C | 0% | 0hPa | 0V | 00:00:00 | 00:00:00 | 00:00:00 | |
| SQ6EMJ | 2026-09-03 14:58:50 | 50.66820 | 16.46995 | 129° | 53km/h | 4962m | -13.9m/s | 0°C | 0% | 0hPa | 0V | 00:00:00 | 00:00:00 | 00:00:00 | |
| SP6BVK | 2026-09-03 14:58:46 | 50.66844 | 16.46923 | 122° | 40km/h | 5017m | -13.6m/s | 0°C | 0% | 0hPa | 0V | 00:00:00 | 00:00:00 | 00:00:00 | |
| SQ6EMJ | 2026-09-03 14:58:44 | 50.66858 | 16.46895 | 130° | 51km/h | 5044m | -13.9m/s | 0°C | 0% | 0hPa | 0V | 00:00:00 | 00:00:00 | 00:00:00 | |
| POL1PZ | 2026-09-03 14:58:43 | 50.66866 | 16.46877 | 121° | 57km/h | 5058m | -14.1m/s | 0°C | 0% | 0hPa | 0V | 00:00:00 | 00:00:00 | 00:00:00 | |
| SQ6EMJ | 2026-09-03 14:58:38 | 50.66894 | 16.46798 | 127° | 53km/h | 5128m | -14.0m/s | 0°C | 0% | 0hPa | 0V | 00:00:00 | 00:00:00 | 00:00:00 | |
| SQ6EMJ | 2026-09-03 14:58:27 | 50.66966 | 16.46640 | 119° | 42km/h | 5284m | -14.2m/s | 0°C | 0% | 0hPa | 0V | 00:00:00 | 00:00:00 | 00:00:00 | |
| SP6BVK | 2026-09-03 14:58:26 | 50.66970 | 16.46627 | 117° | 31km/h | 5299m | -13.8m/s | 0°C | 0% | 0hPa | 0V | 00:00:00 | 00:00:00 | 00:00:00 | |
| SQ6EMJ | 2026-09-03 14:58:21 | 50.67000 | 16.46586 | 148° | 46km/h | 5368m | -14.1m/s | 0°C | 0% | 0hPa | 0V | 00:00:00 | 00:00:00 | 00:00:00 | |
| POL1PZ | 2026-09-03 14:58:20 | 50.67010 | 16.46575 | 143° | 49km/h | 5382m | -13.8m/s | 0°C | 0% | 0hPa | 0V | 00:00:00 | 00:00:00 | 00:00:00 | |
| SQ6EMJ | 2026-09-03 14:58:16 | 50.67039 | 16.46513 | 115° | 42km/h | 5438m | -13.9m/s | 0°C | 0% | 0hPa | 0V | 00:00:00 | 00:00:00 | 00:00:00 | |
| SQ6EMJ | 2026-09-03 14:58:09 | 50.67082 | 16.46451 | 158° | 44km/h | 5535m | -14.0m/s | 0°C | 0% | 0hPa | 0V | 00:00:00 | 00:00:00 | 00:00:00 | |
| SP6BVK | 2026-09-03 14:58:05 | 50.67129 | 16.46421 | 157° | 49km/h | 5591m | -13.7m/s | 0°C | 0% | 0hPa | 0V | 00:00:00 | 00:00:00 | 00:00:00 | |
| SQ6EMJ | 2026-09-03 14:58:03 | 50.67154 | 16.46401 | 151° | 62km/h | 5619m | -14.1m/s | 0°C | 0% | 0hPa | 0V | 00:00:00 | 00:00:00 | 00:00:00 | |
| EDDB2-12 | 2026-09-03 14:57:55 | 50.67356 | 16.46136 | 138° | 60km/h | 5863m | -15.0m/s | 0°C | -1.0% | -1.0hPa | 0V | 00:00:00 | 00:00:00 | 00:00:00 | |
| SQ6EMJ | 2026-09-03 14:57:51 | 50.67311 | 16.46212 | 126° | 60km/h | 5789m | -14.4m/s | 0°C | 0% | 0hPa | 0V | 00:00:00 | 00:00:00 | 00:00:00 | |
| OK1ALN | 2026-09-03 14:57:48 | 50.67334 | 16.46163 | 138° | 47km/h | 5833m | -14.8m/s | 0°C | 0% | 0hPa | 0V | 00:00:00 | 00:00:00 | 00:00:00 | |
| SQ6EMJ | 2026-09-03 14:57:46 | 50.67356 | 16.46136 | 140° | 62km/h | 5863m | -15.0m/s | 0°C | 0% | 0hPa | 0V | 00:00:00 | 00:00:00 | 00:00:00 | |
| SQ6EMJ | 2026-09-03 14:57:40 | 50.67421 | 16.46051 | 136° | 66km/h | 5950m | -14.5m/s | 0°C | 0% | 0hPa | 0V | 00:00:00 | 00:00:00 | 00:00:00 | |
| SQ6EMJ | 2026-09-03 14:57:35 | 50.67488 | 16.45950 | 134° | 71km/h | 6038m | -14.6m/s | 0°C | 0% | 0hPa | 0V | 00:00:00 | 00:00:00 | 00:00:00 | |
| POL1PZ | 2026-09-03 14:57:32 | 50.67509 | 16.45909 | 126° | 60km/h | 6066m | -14.3m/s | 0°C | 0% | 0hPa | 0V | 00:00:00 | 00:00:00 | 00:00:00 | |
| SQ6EMJ | 2026-09-03 14:57:28 | 50.67543 | 16.45848 | 149° | 47km/h | 6124m | -14.3m/s | 0°C | 0% | 0hPa | 0V | 00:00:00 | 00:00:00 | 00:00:00 | |
| SP6BVK | 2026-09-03 14:57:24 | 50.67595 | 16.45801 | 147° | 73km/h | 6182m | -14.6m/s | 0°C | 0% | 0hPa | 0V | 00:00:00 | 00:00:00 | 00:00:00 | |
| SQ6EMJ | 2026-09-03 14:57:22 | 50.67624 | 16.45762 | 136° | 77km/h | 6211m | -14.2m/s | 0°C | 0% | 0hPa | 0V | 00:00:00 | 00:00:00 | 00:00:00 | |
| SQ6EMJ | 2026-09-03 14:57:17 | 50.67687 | 16.45651 | 127° | 68km/h | 6283m | -14.4m/s | 0°C | 0% | 0hPa | 0V | 00:00:00 | 00:00:00 | 00:00:00 | |
| SQ6EMJ | 2026-09-03 14:57:11 | 50.67739 | 16.45549 | 137° | 49km/h | 6370m | -14.7m/s | 0°C | 0% | 0hPa | 0V | 00:00:00 | 00:00:00 | 00:00:00 | |
| POL1PZ | 2026-09-03 14:57:10 | 50.67749 | 16.45536 | 145° | 51km/h | 6385m | -14.9m/s | 0°C | 0% | 0hPa | 0V | 00:00:00 | 00:00:00 | 00:00:00 | |
| SQ6EMJ | 2026-09-03 14:57:06 | 50.67803 | 16.45483 | 145° | 78km/h | 6445m | -15.2m/s | 0°C | 0% | 0hPa | 0V | 00:00:00 | 00:00:00 | 00:00:00 | |
| SP6BVK | 2026-09-03 14:57:04 | 50.67832 | 16.45440 | 132° | 78km/h | 6475m | -15.0m/s | 0°C | 0% | 0hPa | 0V | 00:00:00 | 00:00:00 | 00:00:00 | |
| SQ6EMJ | 2026-09-03 14:57:00 | 50.67878 | 16.45360 | 142° | 62km/h | 6535m | -14.9m/s | 0°C | 0% | 0hPa | 0V | 00:00:00 | 00:00:00 | 00:00:00 | |
| EDDB2-12 | 2026-09-03 14:56:53 | 50.68011 | 16.45129 | 129° | 66km/h | 6684m | -15.0m/s | 0°C | -1.0% | -1.0hPa | 0V | 00:00:00 | 00:00:00 | 00:00:00 | |
| POL1PZ | 2026-09-03 14:56:49 | 50.68023 | 16.45110 | 137° | 68km/h | 6700m | -15.0m/s | 0°C | 0% | 0hPa | 0V | 00:00:00 | 00:00:00 | 00:00:00 | |
| SQ6EMJ | 2026-09-03 14:56:47 | 50.68049 | 16.45073 | 139° | 71km/h | 6729m | -15.1m/s | 0°C | 0% | 0hPa | 0V | 00:00:00 | 00:00:00 | 00:00:00 | |
| SP6BVK | 2026-09-03 14:56:43 | 50.68105 | 16.44980 | 125° | 82km/h | 6791m | -15.7m/s | 0°C | 0% | 0hPa | 0V | 00:00:00 | 00:00:00 | 00:00:00 | |
| SQ6EMJ | 2026-09-03 14:56:39 | 50.68158 | 16.44890 | 138° | 89km/h | 6853m | -15.4m/s | 0°C | 0% | 0hPa | 0V | 00:00:00 | 00:00:00 | 00:00:00 | |
| SQ6EMJ | 2026-09-03 14:56:34 | 50.68224 | 16.44742 | 117° | 82km/h | 6928m | -14.7m/s | 0°C | 0% | 0hPa | 0V | 00:00:00 | 00:00:00 | 00:00:00 | |
| SONDE2-11 | 2026-09-03 14:56:32 | 50.68256 | 16.44636 | 114° | 71km/h | 6985m | -14.7m/s | 0°C | -1.0% | -1.0hPa | 0V | 00:00:00 | 00:00:00 | 00:00:00 | |
| POL1PZ | 2026-09-03 14:56:28 | 50.68271 | 16.44581 | 115° | 80km/h | 7015m | -14.6m/s | 0°C | 0% | 0hPa | 0V | 00:00:00 | 00:00:00 | 00:00:00 | |
| SP6BVK | 2026-09-03 14:56:23 | 50.68314 | 16.44427 | 113° | 86km/h | 7088m | -14.9m/s | 0°C | 0% | 0hPa | 0V | 00:00:00 | 00:00:00 | 00:00:00 | |
| EDDB2-12 | 2026-09-03 14:56:22 | 50.68332 | 16.44361 | 114° | 91km/h | 7118m | -14.7m/s | 0°C | -1.0% | -1.0hPa | 0V | 00:00:00 | 00:00:00 | 00:00:00 | |
| SQ6EMJ | 2026-09-03 14:56:17 | 50.68367 | 16.44226 | 114° | 97km/h | 7177m | -14.7m/s | 0°C | 0% | 0hPa | 0V | 00:00:00 | 00:00:00 | 00:00:00 | |
| SQ6EMJ | 2026-09-03 14:56:11 | 50.68430 | 16.44013 | 113° | 88km/h | 7268m | -15.5m/s | 0°C | 0% | 0hPa | 0V | 00:00:00 | 00:00:00 | 00:00:00 | |
| SQ6EMJ | 2026-09-03 14:56:06 | 50.68476 | 16.43878 | 131° | 82km/h | 7345m | -15.9m/s | 0°C | 0% | 0hPa | 0V | 00:00:00 | 00:00:00 | 00:00:00 | |
| SP6BVK | 2026-09-03 14:56:02 | 50.68524 | 16.43758 | 116° | 80km/h | 7408m | -15.8m/s | 0°C | 0% | 0hPa | 0V | 00:00:00 | 00:00:00 | 00:00:00 | |
| SQ6EMJ | 2026-09-03 14:56:00 | 50.68545 | 16.43703 | 126° | 86km/h | 7440m | -16.5m/s | 0°C | 0% | 0hPa | 0V | 00:00:00 | 00:00:00 | 00:00:00 | |
| EDDB2-12 | 2026-09-03 14:55:51 | 50.68675 | 16.43379 | 124° | 80km/h | 7619m | -16.7m/s | 0°C | -1.0% | -1.0hPa | 0V | 00:00:00 | 00:00:00 | 00:00:00 | |
| SQ6EMJ | 2026-09-03 14:55:49 | 50.68675 | 16.43379 | 126° | 82km/h | 7619m | -16.7m/s | 0°C | 0% | 0hPa | 0V | 00:00:00 | 00:00:00 | 00:00:00 | |
| SQ6EMJ | 2026-09-03 14:55:43 | 50.68747 | 16.43204 | 126° | 86km/h | 7717m | -16.7m/s | 0°C | 0% | 0hPa | 0V | 00:00:00 | 00:00:00 | 00:00:00 | |
| SP6BVK | 2026-09-03 14:55:42 | 50.68758 | 16.43175 | 120° | 86km/h | 7734m | -16.3m/s | 0°C | 0% | 0hPa | 0V | 00:00:00 | 00:00:00 | 00:00:00 | |
| SQ6EMJ | 2026-09-03 14:55:37 | 50.68817 | 16.43029 | 127° | 89km/h | 7816m | -16.6m/s | 0°C | 0% | 0hPa | 0V | 00:00:00 | 00:00:00 | 00:00:00 | |
| EDDB2-11 | 2026-09-03 14:55:35 | 50.68865 | 16.42912 | 124° | 80km/h | 7882m | -16.8m/s | 0°C | -1.0% | -1.0hPa | 0V | 00:00:00 | 00:00:00 | 00:00:00 | |
| POL1PZ | 2026-09-03 14:55:31 | 50.68892 | 16.42856 | 126° | 95km/h | 7915m | -16.6m/s | 0°C | 0% | 0hPa | 0V | 00:00:00 | 00:00:00 | 00:00:00 | |
| SONDE2-11 | 2026-09-03 14:55:30 | 50.68919 | 16.42798 | 132° | 89km/h | 7948m | -16.3m/s | 0°C | -1.0% | -1.0hPa | 0V | 00:00:00 | 00:00:00 | 00:00:00 | |
| SQ6EMJ | 2026-09-03 14:55:26 | 50.68977 | 16.42669 | 118° | 97km/h | 8013m | -16.2m/s | 0°C | 0% | 0hPa | 0V | 00:00:00 | 00:00:00 | 00:00:00 | |
| SP3BTT-10 | 2026-09-03 14:55:24 | 50.68988 | 16.42636 | 115° | 89km/h | 8029m | -16.2m/s | 0°C | 0% | 0hPa | 0V | 00:00:00 | 00:00:00 | 00:00:00 | |
| SP6BVK | 2026-09-03 14:55:21 | 50.69018 | 16.42553 | 129° | 78km/h | 8079m | -16.8m/s | 0°C | 0% | 0hPa | 0V | 00:00:00 | 00:00:00 | 00:00:00 | |
| EDDB2-12 | 2026-09-03 14:55:20 | 50.69045 | 16.42497 | 122° | 93km/h | 8113m | -16.6m/s | 0°C | -1.0% | -1.0hPa | 0V | 00:00:00 | 00:00:00 | 00:00:00 | |
| SQ6EMJ | 2026-09-03 14:55:19 | 50.69045 | 16.42497 | 124° | 93km/h | 8113m | -16.6m/s | 0°C | 0% | 0hPa | 0V | 00:00:00 | 00:00:00 | 00:00:00 | |
| SQ6EMJ | 2026-09-03 14:55:13 | 50.69107 | 16.42333 | 129° | 88km/h | 8211m | -16.8m/s | 0°C | 0% | 0hPa | 0V | 00:00:00 | 00:00:00 | 00:00:00 | |
| POL1PZ | 2026-09-03 14:55:10 | 50.69143 | 16.42245 | 126° | 82km/h | 8262m | -17.1m/s | 0°C | 0% | 0hPa | 0V | 00:00:00 | 00:00:00 | 00:00:00 | |
| SQ6EMJ | 2026-09-03 14:55:07 | 50.69182 | 16.42160 | 126° | 80km/h | 8314m | -17.0m/s | 0°C | 0% | 0hPa | 0V | 00:00:00 | 00:00:00 | 00:00:00 | |
| SQ6EMJ | 2026-09-03 14:55:03 | 50.69260 | 16.42034 | 131° | 84km/h | 8397m | -16.9m/s | 0°C | 0% | 0hPa | 0V | 00:00:00 | 00:00:00 | 00:00:00 | |
| SP6BVK | 2026-09-03 14:55:00 | 50.69282 | 16.41980 | 117° | 82km/h | 8430m | -16.0m/s | 0°C | 0% | 0hPa | 0V | 00:00:00 | 00:00:00 | 00:00:00 | |
| SONDE2-11 | 2026-09-03 14:54:59 | 50.69333 | 16.41830 | 125° | 82km/h | 8512m | -17.3m/s | 0°C | -1.0% | -1.0hPa | 0V | 00:00:00 | 00:00:00 | 00:00:00 | |
| SQ6EMJ | 2026-09-03 14:54:56 | 50.69321 | 16.41858 | 121° | 84km/h | 8496m | -16.9m/s | 0°C | 0% | 0hPa | 0V | 00:00:00 | 00:00:00 | 00:00:00 | |
| SQ6EMJ | 2026-09-03 14:54:51 | 50.69390 | 16.41714 | 124° | 89km/h | 8582m | -17.3m/s | 0°C | 0% | 0hPa | 0V | 00:00:00 | 00:00:00 | 00:00:00 | |
| SQ6EMJ | 2026-09-03 14:54:45 | 50.69482 | 16.41558 | 130° | 102km/h | 8685m | -17.7m/s | 0°C | 0% | 0hPa | 0V | 00:00:00 | 00:00:00 | 00:00:00 | |
| SP3BTT-10 | 2026-09-03 14:54:39 | 50.69584 | 16.41398 | 138° | 99km/h | 8787m | -16.8m/s | 0°C | 0% | 0hPa | 0V | 00:00:00 | 00:00:00 | 00:00:00 | |
| POL1PZ | 2026-09-03 14:54:37 | 50.69621 | 16.41340 | 131° | 108km/h | 8822m | -17.1m/s | 0°C | 0% | 0hPa | 0V | 00:00:00 | 00:00:00 | 00:00:00 | |
| EDDB2-11 | 2026-09-03 14:54:33 | 50.69694 | 16.41161 | 116° | 95km/h | 8906m | -16.8m/s | 0°C | -1.0% | -1.0hPa | 0V | 00:00:00 | 00:00:00 | 00:00:00 | |
| SONDE2-11 | 2026-09-03 14:54:28 | 50.69761 | 16.40990 | 127° | 102km/h | 8991m | -17.5m/s | 0°C | -1.0% | -1.0hPa | 0V | 00:00:00 | 00:00:00 | 00:00:00 | |
| SQ6EMJ | 2026-09-03 14:54:27 | 50.69760 | 16.40990 | 129° | 102km/h | 8992m | -17.5m/s | 0°C | 0% | 0hPa | 0V | 00:00:00 | 00:00:00 | 00:00:00 | |
| SQ6EMJ | 2026-09-03 14:54:21 | 50.69842 | 16.40803 | 126° | 97km/h | 9098m | -18.0m/s | 0°C | 0% | 0hPa | 0V | 00:00:00 | 00:00:00 | 00:00:00 | |
| EDDB2-12 | 2026-09-03 14:54:17 | 50.69899 | 16.40683 | 124° | 104km/h | 9170m | -18.0m/s | 0°C | -1.0% | -1.0hPa | 0V | 00:00:00 | 00:00:00 | 00:00:00 | |
| SP6BVK | 2026-09-03 14:54:16 | 50.69912 | 16.40648 | 121° | 100km/h | 9188m | -18.0m/s | 0°C | 0% | 0hPa | 0V | 00:00:00 | 00:00:00 | 00:00:00 | |
| SQ6EMJ | 2026-09-03 14:54:15 | 50.69925 | 16.40615 | 122° | 91km/h | 9206m | -18.1m/s | 0°C | 0% | 0hPa | 0V | 00:00:00 | 00:00:00 | 00:00:00 | |
| SQ6EMJ | 2026-09-03 14:54:09 | 50.69999 | 16.40422 | 122° | 100km/h | 9315m | -18.3m/s | 0°C | 0% | 0hPa | 0V | 00:00:00 | 00:00:00 | 00:00:00 | |
| POL1PZ | 2026-09-03 14:54:06 | 50.70036 | 16.40326 | 125° | 100km/h | 9369m | -18.3m/s | 0°C | 0% | 0hPa | 0V | 00:00:00 | 00:00:00 | 00:00:00 | |
| SQ6EMJ | 2026-09-03 14:54:03 | 50.70075 | 16.40227 | 122° | 102km/h | 9424m | -18.3m/s | 0°C | 0% | 0hPa | 0V | 00:00:00 | 00:00:00 | 00:00:00 | |
| EDDB2-11 | 2026-09-03 14:54:02 | 50.70100 | 16.40162 | 125° | 93km/h | 9460m | -18.4m/s | 0°C | -1.0% | -1.0hPa | 0V | 00:00:00 | 00:00:00 | 00:00:00 | |
| SONDE2-11 | 2026-09-03 14:53:57 | 50.70165 | 16.40002 | 122° | 91km/h | 9551m | -18.4m/s | 0°C | -1.0% | -1.0hPa | 0V | 00:00:00 | 00:00:00 | 00:00:00 | |
| EDDB2-12 | 2026-09-03 14:53:46 | 50.70304 | 16.39685 | 126° | 100km/h | 9736m | -18.5m/s | 0°C | -1.0% | -1.0hPa | 0V | 00:00:00 | 00:00:00 | 00:00:00 | |
| SQ6EMJ | 2026-09-03 14:53:42 | 50.70363 | 16.39559 | 126° | 102km/h | 9810m | -18.5m/s | 0°C | 0% | 0hPa | 0V | 00:00:00 | 00:00:00 | 00:00:00 | |
| POL1PZ | 2026-09-03 14:53:39 | 50.70407 | 16.39463 | 128° | 102km/h | 9865m | -18.7m/s | 0°C | 0% | 0hPa | 0V | 00:00:00 | 00:00:00 | 00:00:00 | |
| SQ6EMJ | 2026-09-03 14:53:36 | 50.70452 | 16.39365 | 128° | 100km/h | 9921m | -18.8m/s | 0°C | 0% | 0hPa | 0V | 00:00:00 | 00:00:00 | 00:00:00 | |
| SP6BVK | 2026-09-03 14:53:35 | 50.70467 | 16.39332 | 125° | 106km/h | 9940m | -18.8m/s | 0°C | 0% | 0hPa | 0V | 00:00:00 | 00:00:00 | 00:00:00 | |
| SQ6EMJ | 2026-09-03 14:53:30 | 50.70544 | 16.39161 | 127° | 111km/h | 10034m | -18.8m/s | 0°C | 0% | 0hPa | 0V | 00:00:00 | 00:00:00 | 00:00:00 | |
| SONDE2-11 | 2026-09-03 14:53:26 | 50.70626 | 16.38985 | 129° | 111km/h | 10128m | -18.9m/s | 0°C | -1.0% | -1.0hPa | 0V | 00:00:00 | 00:00:00 | 00:00:00 | |
| SQ6EMJ | 2026-09-03 14:53:25 | 50.70626 | 16.38985 | 130° | 111km/h | 10128m | -18.9m/s | 0°C | 0% | 0hPa | 0V | 00:00:00 | 00:00:00 | 00:00:00 | |
| PETON7-10 | 2026-09-03 14:53:24 | 50.70645 | 16.38949 | 129° | 111km/h | 10146m | -18.5m/s | 0°C | 0% | 0hPa | 0V | 00:00:00 | 00:00:00 | 00:00:00 | |
| SQ6EMJ | 2026-09-03 14:53:19 | 50.70731 | 16.38770 | 130° | 108km/h | 10240m | -18.7m/s | 0°C | 0% | 0hPa | 0V | 00:00:00 | 00:00:00 | 00:00:00 | |
| POL1PZ | 2026-09-03 14:53:18 | 50.70749 | 16.38736 | 130° | 115km/h | 10259m | -18.8m/s | 0°C | 0% | 0hPa | 0V | 00:00:00 | 00:00:00 | 00:00:00 | |
| EDDB2-12 | 2026-09-03 14:53:15 | 50.70802 | 16.38634 | 130° | 106km/h | 10315m | -19.0m/s | 0°C | -1.0% | -1.0hPa | 0V | 00:00:00 | 00:00:00 | 00:00:00 | |
| SP6BVK | 2026-09-03 14:53:14 | 50.70820 | 16.38601 | 131° | 113km/h | 10334m | -18.9m/s | 0°C | 0% | 0hPa | 0V | 00:00:00 | 00:00:00 | 00:00:00 | |
| SQ6EMJ | 2026-09-03 14:53:13 | 50.70838 | 16.38568 | 132° | 104km/h | 10353m | -18.8m/s | 0°C | 0% | 0hPa | 0V | 00:00:00 | 00:00:00 | 00:00:00 | |
| SP3BTT-10 | 2026-09-03 14:53:09 | 50.70907 | 16.38438 | 131° | 108km/h | 10429m | -19.3m/s | 0°C | 0% | 0hPa | 0V | 00:00:00 | 00:00:00 | 00:00:00 | |
| SQ6EMJ | 2026-09-03 14:53:08 | 50.70923 | 16.38406 | 127° | 106km/h | 10448m | -19.4m/s | 0°C | 0% | 0hPa | 0V | 00:00:00 | 00:00:00 | 00:00:00 | |
| PETON7-10 | 2026-09-03 14:53:06 | 50.70955 | 16.38342 | 127° | 106km/h | 10487m | -19.6m/s | 0°C | 0% | 0hPa | 0V | 00:00:00 | 00:00:00 | 00:00:00 | |
| SQ6EMJ | 2026-09-03 14:53:02 | 50.71022 | 16.38222 | 134° | 108km/h | 10567m | -19.8m/s | 0°C | 0% | 0hPa | 0V | 00:00:00 | 00:00:00 | 00:00:00 | |
| EDDB2-11 | 2026-09-03 14:52:59 | 50.71077 | 16.38133 | 133° | 104km/h | 10626m | -20.0m/s | 0°C | -1.0% | -1.0hPa | 0V | 00:00:00 | 00:00:00 | 00:00:00 | |
| SONDE2-11 | 2026-09-03 14:52:55 | 50.71168 | 16.37978 | 131° | 110km/h | 10724m | -19.4m/s | 0°C | -1.0% | -1.0hPa | 0V | 00:00:00 | 00:00:00 | 00:00:00 | |
| SP6BVK | 2026-09-03 14:52:53 | 50.71187 | 16.37945 | 135° | 113km/h | 10744m | -19.4m/s | 0°C | 0% | 0hPa | 0V | 00:00:00 | 00:00:00 | 00:00:00 | |
| PETON7-10 | 2026-09-03 14:52:51 | 50.71225 | 16.37879 | 132° | 122km/h | 10782m | -19.6m/s | 0°C | 0% | 0hPa | 0V | 00:00:00 | 00:00:00 | 00:00:00 | |
| SQ6EMJ | 2026-09-03 14:52:50 | 50.71245 | 16.37846 | 136° | 113km/h | 10802m | -19.8m/s | 0°C | 0% | 0hPa | 0V | 00:00:00 | 00:00:00 | 00:00:00 | |
| SQ6EMJ | 2026-09-03 14:52:44 | 50.71365 | 16.37638 | 133° | 122km/h | 10920m | -20.3m/s | 0°C | 0% | 0hPa | 0V | 00:00:00 | 00:00:00 | 00:00:00 | |
| SQ6EMJ | 2026-09-03 14:52:38 | 50.71498 | 16.37412 | 135° | 133km/h | 11042m | -20.2m/s | 0°C | 0% | 0hPa | 0V | 00:00:00 | 00:00:00 | 00:00:00 | |
| PETON7-10 | 2026-09-03 14:52:36 | 50.71543 | 16.37336 | 134° | 120km/h | 11082m | -20.1m/s | 0°C | 0% | 0hPa | 0V | 00:00:00 | 00:00:00 | 00:00:00 | |
| SP6BVK | 2026-09-03 14:52:33 | 50.71610 | 16.37227 | 136° | 126km/h | 11142m | -20.3m/s | 0°C | 0% | 0hPa | 0V | 00:00:00 | 00:00:00 | 00:00:00 | |
| SP3BTT-10 | 2026-09-03 14:52:32 | 50.71632 | 16.37192 | 136° | 108km/h | 11162m | -20.3m/s | 0°C | 0% | 0hPa | 0V | 00:00:00 | 00:00:00 | 00:00:00 | |
| POL1PZ | 2026-09-03 14:52:30 | 50.71675 | 16.37123 | 136° | 124km/h | 11203m | -21.0m/s | 0°C | 0% | 0hPa | 0V | 00:00:00 | 00:00:00 | 00:00:00 | |
| SQ6EMJ | 2026-09-03 14:52:28 | 50.71717 | 16.37053 | 133° | 122km/h | 11245m | -20.8m/s | 0°C | 0% | 0hPa | 0V | 00:00:00 | 00:00:00 | 00:00:00 | |
| SONDE2-11 | 2026-09-03 14:52:24 | 50.71822 | 16.36884 | 134° | 117km/h | 11347m | -20.4m/s | 0°C | -1.0% | -1.0hPa | 0V | 00:00:00 | 00:00:00 | 00:00:00 | |
| SQ6EMJ | 2026-09-03 14:52:22 | 50.71843 | 16.36851 | 136° | 117km/h | 11368m | -20.4m/s | 0°C | 0% | 0hPa | 0V | 00:00:00 | 00:00:00 | 00:00:00 | |
| PETON7-10 | 2026-09-03 14:52:17 | 50.71946 | 16.36688 | 136° | 106km/h | 11470m | -20.4m/s | 0°C | 0% | 0hPa | 0V | 00:00:00 | 00:00:00 | 00:00:00 | |
| SQ6EMJ | 2026-09-03 14:52:16 | 50.71968 | 16.36655 | 137° | 120km/h | 11490m | -20.5m/s | 0°C | 0% | 0hPa | 0V | 00:00:00 | 00:00:00 | 00:00:00 | |
| EDDB2-12 | 2026-09-03 14:52:13 | 50.72057 | 16.36522 | 137° | 119km/h | 11572m | -20.7m/s | 0°C | -1.0% | -1.0hPa | 0V | 00:00:00 | 00:00:00 | 00:00:00 | |
| SP6BVK | 2026-09-03 14:52:12 | 50.72057 | 16.36522 | 139° | 120km/h | 11572m | -20.7m/s | 0°C | 0% | 0hPa | 0V | 00:00:00 | 00:00:00 | 00:00:00 | |
| SQ6EMJ | 2026-09-03 14:52:10 | 50.72100 | 16.36456 | 137° | 122km/h | 11614m | -21.2m/s | 0°C | 0% | 0hPa | 0V | 00:00:00 | 00:00:00 | 00:00:00 | |
| SQ6EMJ | 2026-09-03 14:52:05 | 50.72207 | 16.36302 | 138° | 111km/h | 11720m | -21.1m/s | 0°C | 0% | 0hPa | 0V | 00:00:00 | 00:00:00 | 00:00:00 | |
| EDDB2-11 | 2026-09-03 14:51:57 | 50.72391 | 16.36033 | 138° | 111km/h | 11912m | -22.0m/s | 0°C | -1.0% | -1.0hPa | 0V | 00:00:00 | 00:00:00 | 00:00:00 | |
| SONDE2-11 | 2026-09-03 14:51:53 | 50.72471 | 16.35914 | 132° | 104km/h | 12000m | -22.6m/s | 0°C | -1.0% | -1.0hPa | 0V | 00:00:00 | 00:00:00 | 00:00:00 | |
| EDDB2-12 | 2026-09-03 14:51:42 | 50.72641 | 16.35611 | 133° | 97km/h | 12221m | -22.7m/s | 0°C | -1.0% | -1.0hPa | 0V | 00:00:00 | 00:00:00 | 00:00:00 | |
| SQ6EMJ | 2026-09-03 14:51:41 | 50.72658 | 16.35582 | 132° | 104km/h | 12244m | -22.8m/s | 0°C | 0% | 0hPa | 0V | 00:00:00 | 00:00:00 | 00:00:00 | |
| SP3BTT-10 | 2026-09-03 14:51:39 | 50.72692 | 16.35522 | 131° | 95km/h | 12289m | -22.7m/s | 0°C | 0% | 0hPa | 0V | 00:00:00 | 00:00:00 | 00:00:00 | |
| SQ6EMJ | 2026-09-03 14:51:36 | 50.72741 | 16.35434 | 134° | 97km/h | 12358m | -23.0m/s | 0°C | 0% | 0hPa | 0V | 00:00:00 | 00:00:00 | 00:00:00 | |
| SP6BVK | 2026-09-03 14:51:32 | 50.72805 | 16.35315 | 131° | 99km/h | 12444m | -19.0m/s | 0°C | 0% | 0hPa | 0V | 00:00:00 | 00:00:00 | 00:00:00 | |
| SQ6EMJ | 2026-09-03 14:51:31 | 50.72821 | 16.35285 | 130° | 97km/h | 12462m | -15.3m/s | 0°C | 0% | 0hPa | 0V | 00:00:00 | 00:00:00 | 00:00:00 | |
| POL1PZ | 2026-09-03 14:51:26 | 50.72898 | 16.35133 | 129° | 104km/h | 12473m | 2.2m/s | 0°C | 0% | 0hPa | 0V | 00:00:00 | 00:00:00 | 00:00:00 | |
| SQ6EMJ | 2026-09-03 14:51:25 | 50.72913 | 16.35104 | 132° | 82km/h | 12471m | 2.1m/s | 0°C | 0% | 0hPa | 0V | 00:00:00 | 00:00:00 | 00:00:00 | |
| SONDE2-11 | 2026-09-03 14:51:22 | 50.72976 | 16.34980 | 125° | 108km/h | 12457m | 1.9m/s | 0°C | -1.0% | -1.0hPa | 0V | 00:00:00 | 00:00:00 | 00:00:00 | |
| SQ6EMJ | 2026-09-03 14:51:20 | 50.72991 | 16.34949 | 134° | 86km/h | 12455m | 3.7m/s | 0°C | 0% | 0hPa | 0V | 00:00:00 | 00:00:00 | 00:00:00 | |
| SQ6EMJ | 2026-09-03 14:51:14 | 50.73084 | 16.34769 | 129° | 91km/h | 12431m | 3.0m/s | 0°C | 0% | 0hPa | 0V | 00:00:00 | 00:00:00 | 00:00:00 | |
| SP6BVK | 2026-09-03 14:51:11 | 50.73130 | 16.34684 | 131° | 97km/h | 12421m | 4.6m/s | 0°C | 0% | 0hPa | 0V | 00:00:00 | 00:00:00 | 00:00:00 | |
| SQ6EMJ | 2026-09-03 14:51:09 | 50.73160 | 16.34626 | 135° | 78km/h | 12416m | 3.3m/s | 0°C | 0% | 0hPa | 0V | 00:00:00 | 00:00:00 | 00:00:00 | |
| POL1PZ | 2026-09-03 14:51:06 | 50.73208 | 16.34542 | 131° | 84km/h | 12405m | 0.7m/s | 0°C | 0% | 0hPa | 0V | 00:00:00 | 00:00:00 | 00:00:00 | |
| SQ6EMJ | 2026-09-03 14:51:02 | 50.73272 | 16.34426 | 136° | 110km/h | 12392m | 0.0m/s | 0°C | 0% | 0hPa | 0V | 00:00:00 | 00:00:00 | 00:00:00 | |
| EDDB2-11 | 2026-09-03 14:50:55 | 50.73453 | 16.34115 | 136° | 97km/h | 12355m | 1.7m/s | 0°C | -1.0% | -1.0hPa | 0V | 00:00:00 | 00:00:00 | 00:00:00 | |
| SONDE2-11 | 2026-09-03 14:50:51 | 50.73469 | 16.34086 | 123° | 95km/h | 12353m | 2.6m/s | 0°C | -1.0% | -1.0hPa | 0V | 00:00:00 | 00:00:00 | 00:00:00 | |
| SP6BVK | 2026-09-03 14:50:50 | 50.73469 | 16.34086 | 125° | 97km/h | 12353m | 2.6m/s | 0°C | 0% | 0hPa | 0V | 00:00:00 | 00:00:00 | 00:00:00 | |
| SQ6EMJ | 2026-09-03 14:50:49 | 50.73486 | 16.34056 | 140° | 106km/h | 12350m | 4.0m/s | 0°C | 0% | 0hPa | 0V | 00:00:00 | 00:00:00 | 00:00:00 | |
| POL1PZ | 2026-09-03 14:50:42 | 50.73605 | 16.33853 | 127° | 93km/h | 12325m | 0.7m/s | 0°C | 0% | 0hPa | 0V | 00:00:00 | 00:00:00 | 00:00:00 | |
| EDDB2-12 | 2026-09-03 14:50:40 | 50.73659 | 16.33764 | 129° | 95km/h | 12315m | 1.1m/s | 0°C | -1.0% | -1.0hPa | 0V | 00:00:00 | 00:00:00 | 00:00:00 | |
| SP6BVK | 2026-09-03 14:50:29 | 50.73835 | 16.33464 | 133° | 106km/h | 12281m | 2.2m/s | 0°C | 0% | 0hPa | 0V | 00:00:00 | 00:00:00 | 00:00:00 | |
| EDDB2-11 | 2026-09-03 14:50:24 | 50.73937 | 16.33284 | 127° | 86km/h | 12262m | 2.1m/s | 0°C | 0% | -1.0hPa | 0V | 00:00:00 | 00:00:00 | 00:00:00 | |
| SQ6EMJ | 2026-09-03 14:50:23 | 50.73937 | 16.33284 | 129° | 86km/h | 12262m | 2.1m/s | 0°C | 0% | 0hPa | 0V | 00:00:00 | 00:00:00 | 00:00:00 | |
| POL1PZ | 2026-09-03 14:50:20 | 50.73988 | 16.33192 | 131° | 95km/h | 12250m | 1.9m/s | 0°C | 0% | 0hPa | 0V | 00:00:00 | 00:00:00 | 00:00:00 | |
| SONDE2-11 | 2026-09-03 14:50:19 | 50.74006 | 16.33161 | 134° | 119km/h | 12248m | 2.1m/s | 0°C | -1.0% | -1.0hPa | 0V | 00:00:00 | 00:00:00 | 00:00:00 | |
| SQ6EMJ | 2026-09-03 14:50:16 | 50.74059 | 16.33067 | 134° | 115km/h | 12237m | 2.0m/s | 0°C | 0% | 0hPa | 0V | 00:00:00 | 00:00:00 | 00:00:00 | |
| SP3BTT-10 | 2026-09-03 14:50:12 | 50.74128 | 16.32944 | 132° | 106km/h | 12223m | 1.8m/s | 0°C | 0% | 0hPa | 0V | 00:00:00 | 00:00:00 | 00:00:00 | |
| SQ6EMJ | 2026-09-03 14:50:11 | 50.74147 | 16.32912 | 134° | 120km/h | 12222m | 1.8m/s | 0°C | 0% | 0hPa | 0V | 00:00:00 | 00:00:00 | 00:00:00 | |
| SP6BVK | 2026-09-03 14:50:09 | 50.74182 | 16.32851 | 132° | 100km/h | 12213m | 3.7m/s | 0°C | 0% | 0hPa | 0V | 00:00:00 | 00:00:00 | 00:00:00 | |
| SQ6EMJ | 2026-09-03 14:50:06 | 50.74233 | 16.32762 | 136° | 113km/h | 12204m | 4.8m/s | 0°C | 0% | 0hPa | 0V | 00:00:00 | 00:00:00 | 00:00:00 | |
| OK1ALN | 2026-09-03 14:50:04 | 50.74269 | 16.32701 | 131° | 100km/h | 12195m | 2.5m/s | 0°C | 0% | 0hPa | 0V | 00:00:00 | 00:00:00 | 00:00:00 | |
| SQ6EMJ | 2026-09-03 14:50:00 | 50.74342 | 16.32580 | 136° | 108km/h | 12181m | 2.3m/s | 0°C | 0% | 0hPa | 0V | 00:00:00 | 00:00:00 | 00:00:00 | |
| OK1SLM-15 | 2026-09-03 14:49:58 | 50.74376 | 16.32520 | 139° | 113km/h | 12176m | 5.7m/s | 0°C | 0% | 0hPa | 0V | 00:00:00 | 00:00:00 | 00:00:00 | |
| SQ6EMJ | 2026-09-03 14:49:55 | 50.74432 | 16.32428 | 141° | 113km/h | 12166m | 4.6m/s | 0°C | 0% | 0hPa | 0V | 00:00:00 | 00:00:00 | 00:00:00 | |
| POL2MAQ | 2026-09-03 14:49:54 | 50.74453 | 16.32397 | 135° | 110km/h | 12162m | 3.3m/s | 0°C | 0% | 0hPa | 0V | 00:00:00 | 00:00:00 | 00:00:00 | |
| OK1SLM-15 | 2026-09-03 14:49:53 | 50.74470 | 16.32366 | 127° | 102km/h | 12159m | 1.7m/s | 0°C | 0% | 0hPa | 0V | 00:00:00 | 00:00:00 | 00:00:00 | |
| POL1PZ | 2026-09-03 14:49:50 | 50.74525 | 16.32273 | 127° | 106km/h | 12150m | 3.1m/s | 0°C | 0% | 0hPa | 0V | 00:00:00 | 00:00:00 | 00:00:00 | |
| SP6BVK | 2026-09-03 14:49:49 | 50.74542 | 16.32240 | 134° | 108km/h | 12146m | 3.8m/s | 0°C | 0% | 0hPa | 0V | 00:00:00 | 00:00:00 | 00:00:00 | |
| OE3JTB-15 | 2026-09-03 14:49:48 | 50.74563 | 16.32210 | 141° | 106km/h | 12144m | 0.8m/s | 0°C | 0% | 0hPa | 0V | 00:00:00 | 00:00:00 | 00:00:00 | |
| OK1SLM-15 | 2026-09-03 14:49:47 | 50.74582 | 16.32179 | 128° | 108km/h | 12141m | 5.2m/s | 0°C | 0% | 0hPa | 0V | 00:00:00 | 00:00:00 | 00:00:00 | |
| SQ6EMJ | 2026-09-03 14:49:44 | 50.74640 | 16.32085 | 132° | 104km/h | 12132m | 4.9m/s | 0°C | 0% | 0hPa | 0V | 00:00:00 | 00:00:00 | 00:00:00 | |
| SQ6EMJ | 2026-09-03 14:49:39 | 50.74736 | 16.31928 | 136° | 111km/h | 12115m | 3.6m/s | 0°C | 0% | 0hPa | 0V | 00:00:00 | 00:00:00 | 00:00:00 | |
| EDDB2-12 | 2026-09-03 14:49:38 | 50.74776 | 16.31866 | 132° | 104km/h | 12109m | 3.6m/s | 0°C | -1.0% | -1.0hPa | 0V | 00:00:00 | 00:00:00 | 00:00:00 | |
| SQ6EMJ | 2026-09-03 14:49:35 | 50.74834 | 16.31771 | 136° | 110km/h | 12099m | 3.8m/s | 0°C | 0% | 0hPa | 0V | 00:00:00 | 00:00:00 | 00:00:00 | |
| POL2MAQ | 2026-09-03 14:49:33 | 50.74852 | 16.31741 | 133° | 97km/h | 12096m | 2.0m/s | 0°C | 0% | 0hPa | 0V | 00:00:00 | 00:00:00 | 00:00:00 | |
| POL1PZ | 2026-09-03 14:49:30 | 50.74909 | 16.31647 | 135° | 97km/h | 12088m | 3.6m/s | 0°C | 0% | 0hPa | 0V | 00:00:00 | 00:00:00 | 00:00:00 | |
| SQ6EMJ | 2026-09-03 14:49:29 | 50.74927 | 16.31618 | 135° | 104km/h | 12084m | 3.2m/s | 0°C | 0% | 0hPa | 0V | 00:00:00 | 00:00:00 | 00:00:00 | |
| SP6BVK | 2026-09-03 14:49:28 | 50.74946 | 16.31586 | 133° | 120km/h | 12082m | 2.4m/s | 0°C | 0% | 0hPa | 0V | 00:00:00 | 00:00:00 | 00:00:00 | |
| OK1ALN | 2026-09-03 14:49:25 | 50.75002 | 16.31492 | 135° | 122km/h | 12072m | 4.2m/s | 0°C | 0% | 0hPa | 0V | 00:00:00 | 00:00:00 | 00:00:00 | |
| SP3BTT-10 | 2026-09-03 14:49:23 | 50.75041 | 16.31430 | 138° | 110km/h | 12066m | 1.7m/s | 0°C | 0% | 0hPa | 0V | 00:00:00 | 00:00:00 | 00:00:00 | |
| EDDB2-11 | 2026-09-03 14:49:22 | 50.75081 | 16.31366 | 134° | 113km/h | 12059m | 3.3m/s | 0°C | -1.0% | -1.0hPa | 0V | 00:00:00 | 00:00:00 | 00:00:00 | |
| PETON7-10 | 2026-09-03 14:49:21 | 50.75081 | 16.31366 | 135° | 111km/h | 12059m | 3.3m/s | 0°C | 0% | 0hPa | 0V | 00:00:00 | 00:00:00 | 00:00:00 | |
| OE3JTB-15 | 2026-09-03 14:49:19 | 50.75119 | 16.31308 | 136° | 113km/h | 12053m | 3.5m/s | 0°C | 0% | 0hPa | 0V | 00:00:00 | 00:00:00 | 00:00:00 | |
| SQ6EMJ | 2026-09-03 14:49:18 | 50.75138 | 16.31275 | 133° | 120km/h | 12050m | 1.1m/s | 0°C | 0% | 0hPa | 0V | 00:00:00 | 00:00:00 | 00:00:00 | |
| SONDE2-11 | 2026-09-03 14:49:17 | 50.75178 | 16.31217 | 133° | 106km/h | 12043m | 3.7m/s | 0°C | -1.0% | -1.0hPa | 0V | 00:00:00 | 00:00:00 | 00:00:00 | |
| POL2MAQ | 2026-09-03 14:49:13 | 50.75238 | 16.31126 | 135° | 106km/h | 12034m | 3.3m/s | 0°C | 0% | 0hPa | 0V | 00:00:00 | 00:00:00 | 00:00:00 | |
| SQ6EMJ | 2026-09-03 14:49:12 | 50.75258 | 16.31094 | 138° | 122km/h | 12031m | 2.0m/s | 0°C | 0% | 0hPa | 0V | 00:00:00 | 00:00:00 | 00:00:00 | |
| SP6BVK | 2026-09-03 14:49:08 | 50.75339 | 16.30974 | 133° | 97km/h | 12019m | 1.7m/s | 0°C | 0% | 0hPa | 0V | 00:00:00 | 00:00:00 | 00:00:00 | |
| SQ6EMJ | 2026-09-03 14:49:06 | 50.75381 | 16.30913 | 134° | 115km/h | 12011m | 4.7m/s | 0°C | 0% | 0hPa | 0V | 00:00:00 | 00:00:00 | 00:00:00 | |
| SQ6EMJ | 2026-09-03 14:49:01 | 50.75482 | 16.30760 | 134° | 115km/h | 11995m | 2.0m/s | 0°C | 0% | 0hPa | 0V | 00:00:00 | 00:00:00 | 00:00:00 | |
| EDDB2-11 | 2026-09-03 14:48:51 | 50.75710 | 16.30424 | 136° | 111km/h | 11959m | 3.5m/s | 0°C | -1.0% | -1.0hPa | 0V | 00:00:00 | 00:00:00 | 00:00:00 | |
| OE3JTB-15 | 2026-09-03 14:48:50 | 50.75710 | 16.30424 | 137° | 117km/h | 11959m | 3.5m/s | 0°C | 0% | 0hPa | 0V | 00:00:00 | 00:00:00 | 00:00:00 | |
| SQ6EMJ | 2026-09-03 14:48:49 | 50.75731 | 16.30395 | 144° | 110km/h | 11956m | 1.3m/s | 0°C | 0% | 0hPa | 0V | 00:00:00 | 00:00:00 | 00:00:00 | |
| SP6BVK | 2026-09-03 14:48:46 | 50.75793 | 16.30304 | 141° | 110km/h | 11945m | 2.1m/s | 0°C | 0% | 0hPa | 0V | 00:00:00 | 00:00:00 | 00:00:00 | |
| SQ6EMJ | 2026-09-03 14:48:43 | 50.75858 | 16.30213 | 139° | 113km/h | 11936m | 4.8m/s | 0°C | 0% | 0hPa | 0V | 00:00:00 | 00:00:00 | 00:00:00 | |
| PETON7-10 | 2026-09-03 14:48:42 | 50.75879 | 16.30182 | 137° | 115km/h | 11932m | 2.1m/s | 0°C | 0% | 0hPa | 0V | 00:00:00 | 00:00:00 | 00:00:00 | |
| SP3BTT-10 | 2026-09-03 14:48:39 | 50.75942 | 16.30095 | 137° | 111km/h | 11922m | 3.7m/s | 0°C | 0% | 0hPa | 0V | 00:00:00 | 00:00:00 | 00:00:00 | |
| SQ6EMJ | 2026-09-03 14:48:37 | 50.75984 | 16.30038 | 132° | 110km/h | 11916m | 4.4m/s | 0°C | 0% | 0hPa | 0V | 00:00:00 | 00:00:00 | 00:00:00 | |
| EDDB2-12 | 2026-09-03 14:48:36 | 50.76026 | 16.29979 | 141° | 108km/h | 11909m | 1.9m/s | 0°C | -1.0% | -1.0hPa | 0V | 00:00:00 | 00:00:00 | 00:00:00 | |
| POL2MAQ | 2026-09-03 14:48:32 | 50.76088 | 16.29890 | 140° | 108km/h | 11898m | 3.8m/s | 0°C | 0% | 0hPa | 0V | 00:00:00 | 00:00:00 | 00:00:00 | |
| SP6BVK | 2026-09-03 14:48:26 | 50.76214 | 16.29709 | 139° | 128km/h | 11881m | 2.7m/s | 0°C | 0% | 0hPa | 0V | 00:00:00 | 00:00:00 | 00:00:00 | |
| POL1PZ | 2026-09-03 14:48:22 | 50.76298 | 16.29593 | 135° | 100km/h | 11868m | 1.0m/s | 0°C | 0% | 0hPa | 0V | 00:00:00 | 00:00:00 | 00:00:00 | |
| EDDB2-11 | 2026-09-03 14:48:20 | 50.76363 | 16.29501 | 133° | 111km/h | 11857m | 1.4m/s | 0°C | -1.0% | -1.0hPa | 0V | 00:00:00 | 00:00:00 | 00:00:00 | |
| SQ6EMJ | 2026-09-03 14:48:19 | 50.76363 | 16.29501 | 135° | 113km/h | 11857m | 1.4m/s | 0°C | 0% | 0hPa | 0V | 00:00:00 | 00:00:00 | 00:00:00 | |
| SONDE2-11 | 2026-09-03 14:48:15 | 50.76449 | 16.29379 | 139° | 110km/h | 11844m | 1.7m/s | 0°C | -1.0% | -1.0hPa | 0V | 00:00:00 | 00:00:00 | 00:00:00 | |
| SQ6EMJ | 2026-09-03 14:48:14 | 50.76470 | 16.29346 | 132° | 120km/h | 11842m | 3.0m/s | 0°C | 0% | 0hPa | 0V | 00:00:00 | 00:00:00 | 00:00:00 | |
| POL2MAQ | 2026-09-03 14:48:11 | 50.76534 | 16.29253 | 137° | 120km/h | 11830m | 2.1m/s | 0°C | 0% | 0hPa | 0V | 00:00:00 | 00:00:00 | 00:00:00 | |
| SQ6EMJ | 2026-09-03 14:48:09 | 50.76577 | 16.29194 | 134° | 124km/h | 11825m | 3.4m/s | 0°C | 0% | 0hPa | 0V | 00:00:00 | 00:00:00 | 00:00:00 | |
| EDDB2-12 | 2026-09-03 14:48:05 | 50.76682 | 16.29036 | 134° | 119km/h | 11806m | 5.5m/s | 0°C | -1.0% | -1.0hPa | 0V | 00:00:00 | 00:00:00 | 00:00:00 | |
| SQ6EMJ | 2026-09-03 14:48:04 | 50.76703 | 16.29002 | 136° | 117km/h | 11802m | 3.4m/s | 0°C | 0% | 0hPa | 0V | 00:00:00 | 00:00:00 | 00:00:00 | |
| PETON7-10 | 2026-09-03 14:47:58 | 50.76805 | 16.28847 | 134° | 115km/h | 11785m | 1.3m/s | 0°C | 0% | 0hPa | 0V | 00:00:00 | 00:00:00 | 00:00:00 | |
| SQ6EMJ | 2026-09-03 14:47:57 | 50.76826 | 16.28818 | 145° | 99km/h | 11783m | 2.2m/s | 0°C | 0% | 0hPa | 0V | 00:00:00 | 00:00:00 | 00:00:00 | |
| SP3BTT-10 | 2026-09-03 14:47:55 | 50.76867 | 16.28757 | 135° | 117km/h | 11774m | 2.8m/s | 0°C | 0% | 0hPa | 0V | 00:00:00 | 00:00:00 | 00:00:00 | |
| SQ6EMJ | 2026-09-03 14:47:52 | 50.76928 | 16.28666 | 143° | 108km/h | 11766m | 5.2m/s | 0°C | 0% | 0hPa | 0V | 00:00:00 | 00:00:00 | 00:00:00 | |
| POL2MAQ | 2026-09-03 14:47:50 | 50.76970 | 16.28608 | 135° | 111km/h | 11758m | 1.6m/s | 0°C | 0% | 0hPa | 0V | 00:00:00 | 00:00:00 | 00:00:00 | |
| SQ6EMJ | 2026-09-03 14:47:47 | 50.77032 | 16.28518 | 138° | 113km/h | 11747m | 4.1m/s | 0°C | 0% | 0hPa | 0V | 00:00:00 | 00:00:00 | 00:00:00 | |
| SP6BVK | 2026-09-03 14:47:44 | 50.77095 | 16.28425 | 145° | 111km/h | 11739m | 5.2m/s | 0°C | 0% | 0hPa | 0V | 00:00:00 | 00:00:00 | 00:00:00 | |
| POL1PZ | 2026-09-03 14:47:42 | 50.77138 | 16.28364 | 136° | 115km/h | 11730m | 1.8m/s | 0°C | 0% | 0hPa | 0V | 00:00:00 | 00:00:00 | 00:00:00 | |
| SQ6EMJ | 2026-09-03 14:47:41 | 50.77160 | 16.28336 | 147° | 113km/h | 11728m | 2.2m/s | 0°C | 0% | 0hPa | 0V | 00:00:00 | 00:00:00 | 00:00:00 | |
| PETON7-10 | 2026-09-03 14:47:37 | 50.77245 | 16.28212 | 131° | 122km/h | 11713m | 1.4m/s | 0°C | 0% | 0hPa | 0V | 00:00:00 | 00:00:00 | 00:00:00 | |
| SQ6EMJ | 2026-09-03 14:47:36 | 50.77267 | 16.28181 | 146° | 119km/h | 11710m | 3.7m/s | 0°C | 0% | 0hPa | 0V | 00:00:00 | 00:00:00 | 00:00:00 | |
| POL2MAQ | 2026-09-03 14:47:29 | 50.77419 | 16.27960 | 136° | 111km/h | 11686m | 1.1m/s | 0°C | 0% | 0hPa | 0V | 00:00:00 | 00:00:00 | 00:00:00 | |
| SP6BVK | 2026-09-03 14:47:24 | 50.77529 | 16.27798 | 137° | 106km/h | 11671m | 1.8m/s | 0°C | 0% | 0hPa | 0V | 00:00:00 | 00:00:00 | 00:00:00 | |
| PETON7-10 | 2026-09-03 14:47:21 | 50.77595 | 16.27700 | 137° | 120km/h | 11659m | 0.8m/s | 0°C | 0% | 0hPa | 0V | 00:00:00 | 00:00:00 | 00:00:00 | |
| SQ6EMJ | 2026-09-03 14:47:17 | 50.77685 | 16.27564 | 136° | 130km/h | 11645m | 1.8m/s | 0°C | 0% | 0hPa | 0V | 00:00:00 | 00:00:00 | 00:00:00 | |
| SONDE2-11 | 2026-09-03 14:47:13 | 50.77797 | 16.27392 | 134° | 137km/h | 11628m | 2.2m/s | 0°C | -1.0% | -1.0hPa | 0V | 00:00:00 | 00:00:00 | 00:00:00 | |
| SQ6EMJ | 2026-09-03 14:47:12 | 50.77819 | 16.27357 | 138° | 111km/h | 11626m | 2.8m/s | 0°C | 0% | 0hPa | 0V | 00:00:00 | 00:00:00 | 00:00:00 | |
| SP3BTT-10 | 2026-09-03 14:47:11 | 50.77819 | 16.27357 | 138° | 117km/h | 11626m | 2.7m/s | 0°C | 0% | 0hPa | 0V | 00:00:00 | 00:00:00 | 00:00:00 | |
| POL2MAQ | 2026-09-03 14:47:08 | 50.77887 | 16.27254 | 138° | 119km/h | 11615m | 1.9m/s | 0°C | 0% | 0hPa | 0V | 00:00:00 | 00:00:00 | 00:00:00 | |
| SQ6EMJ | 2026-09-03 14:47:04 | 50.77981 | 16.27111 | 137° | 133km/h | 11600m | 2.0m/s | 0°C | 0% | 0hPa | 0V | 00:00:00 | 00:00:00 | 00:00:00 | |
| SP6BVK | 2026-09-03 14:47:03 | 50.78004 | 16.27077 | 139° | 113km/h | 11597m | 2.9m/s | 0°C | 0% | 0hPa | 0V | 00:00:00 | 00:00:00 | 00:00:00 | |
| POL1PZ | 2026-09-03 14:47:00 | 50.78073 | 16.26973 | 138° | 120km/h | 11585m | 2.2m/s | 0°C | 0% | 0hPa | 0V | 00:00:00 | 00:00:00 | 00:00:00 | |
| EDDB2-11 | 2026-09-03 14:46:47 | 50.78431 | 16.26423 | 136° | 113km/h | 11527m | 1.7m/s | 0°C | -1.0% | -1.0hPa | 0V | 00:00:00 | 00:00:00 | 00:00:00 | |
| SP6BVK | 2026-09-03 14:46:43 | 50.78453 | 16.26387 | 133° | 131km/h | 11525m | 1.0m/s | 0°C | 0% | 0hPa | 0V | 00:00:00 | 00:00:00 | 00:00:00 | |
| SONDE2-11 | 2026-09-03 14:46:42 | 50.78518 | 16.26290 | 133° | 126km/h | 11514m | 1.0m/s | 0°C | -1.0% | -1.0hPa | 0V | 00:00:00 | 00:00:00 | 00:00:00 | |
| SQ6EMJ | 2026-09-03 14:46:41 | 50.78518 | 16.26290 | 135° | 128km/h | 11514m | 1.0m/s | 0°C | 0% | 0hPa | 0V | 00:00:00 | 00:00:00 | 00:00:00 | |
| POL1PZ | 2026-09-03 14:46:40 | 50.78518 | 16.26290 | 135° | 128km/h | 11514m | 1.0m/s | 0°C | 0% | 0hPa | 0V | 00:00:00 | 00:00:00 | 00:00:00 | |
| SQ6EMJ | 2026-09-03 14:46:34 | 50.78646 | 16.26086 | 136° | 108km/h | 11496m | 5.5m/s | 0°C | 0% | 0hPa | 0V | 00:00:00 | 00:00:00 | 00:00:00 | |
| SP3BTT-10 | 2026-09-03 14:46:28 | 50.78768 | 16.25889 | 135° | 115km/h | 11474m | 2.7m/s | 0°C | 0% | 0hPa | 0V | 00:00:00 | 00:00:00 | 00:00:00 | |
| SQ6EMJ | 2026-09-03 14:46:27 | 50.78789 | 16.25854 | 131° | 128km/h | 11471m | 1.2m/s | 0°C | 0% | 0hPa | 0V | 00:00:00 | 00:00:00 | 00:00:00 | |
| POL2MAQ | 2026-09-03 14:46:24 | 50.78848 | 16.25753 | 132° | 119km/h | 11460m | 2.9m/s | 0°C | 0% | 0hPa | 0V | 00:00:00 | 00:00:00 | 00:00:00 | |
| SP6BVK | 2026-09-03 14:46:22 | 50.78886 | 16.25688 | 130° | 128km/h | 11456m | 4.2m/s | 0°C | 0% | 0hPa | 0V | 00:00:00 | 00:00:00 | 00:00:00 | |
| SQ6EMJ | 2026-09-03 14:46:21 | 50.78906 | 16.25651 | 133° | 111km/h | 11451m | 6.0m/s | 0°C | 0% | 0hPa | 0V | 00:00:00 | 00:00:00 | 00:00:00 | |
| POL1PZ | 2026-09-03 14:46:19 | 50.78946 | 16.25582 | 130° | 126km/h | 11444m | 1.5m/s | 0°C | 0% | 0hPa | 0V | 00:00:00 | 00:00:00 | 00:00:00 | |
| EDDB2-11 | 2026-09-03 14:46:16 | 50.79026 | 16.25448 | 135° | 104km/h | 11430m | 1.2m/s | 0°C | -1.0% | -1.0hPa | 0V | 00:00:00 | 00:00:00 | 00:00:00 | |
| SQ6EMJ | 2026-09-03 14:46:15 | 50.79025 | 16.25448 | 137° | 104km/h | 11430m | 1.2m/s | 0°C | 0% | 0hPa | 0V | 00:00:00 | 00:00:00 | 00:00:00 | |
| SQ6EMJ | 2026-09-03 14:46:10 | 50.79128 | 16.25273 | 136° | 104km/h | 11414m | 5.6m/s | 0°C | 0% | 0hPa | 0V | 00:00:00 | 00:00:00 | 00:00:00 | |
| SQ6EMJ | 2026-09-03 14:46:04 | 50.79252 | 16.25071 | 135° | 115km/h | 11392m | 2.3m/s | 0°C | 0% | 0hPa | 0V | 00:00:00 | 00:00:00 | 00:00:00 | |
| POL2MAQ | 2026-09-03 14:46:03 | 50.79274 | 16.25036 | 137° | 133km/h | 11390m | 2.3m/s | 0°C | 0% | 0hPa | 0V | 00:00:00 | 00:00:00 | 00:00:00 | |
| SP6BVK | 2026-09-03 14:46:02 | 50.79296 | 16.25002 | 133° | 104km/h | 11387m | 3.7m/s | 0°C | 0% | 0hPa | 0V | 00:00:00 | 00:00:00 | 00:00:00 | |
| EDDB2-12 | 2026-09-03 14:46:01 | 50.79357 | 16.24902 | 133° | 102km/h | 11376m | 2.4m/s | 0°C | -1.0% | -1.0hPa | 0V | 00:00:00 | 00:00:00 | 00:00:00 | |
| EDDB2-11 | 2026-09-03 14:45:45 | 50.79673 | 16.24374 | 130° | 115km/h | 11323m | 3.4m/s | 0°C | -1.0% | -1.0hPa | 0V | 00:00:00 | 00:00:00 | 00:00:00 | |
| SP3BTT-10 | 2026-09-03 14:45:43 | 50.79694 | 16.24339 | 138° | 122km/h | 11320m | 1.9m/s | 0°C | 0% | 0hPa | 0V | 00:00:00 | 00:00:00 | 00:00:00 | |
| POL2MAQ | 2026-09-03 14:45:42 | 50.79715 | 16.24303 | 129° | 115km/h | 11318m | 1.9m/s | 0°C | 0% | 0hPa | 0V | 00:00:00 | 00:00:00 | 00:00:00 | |
| SP6BVK | 2026-09-03 14:45:41 | 50.79736 | 16.24268 | 137° | 128km/h | 11314m | 6.1m/s | 0°C | 0% | 0hPa | 0V | 00:00:00 | 00:00:00 | 00:00:00 | |
| SONDE2-11 | 2026-09-03 14:45:40 | 50.79779 | 16.24198 | 131° | 113km/h | 11307m | 1.7m/s | 0°C | -1.0% | -1.0hPa | 0V | 00:00:00 | 00:00:00 | 00:00:00 | |
| SQ6EMJ | 2026-09-03 14:45:36 | 50.79842 | 16.24090 | 132° | 124km/h | 11296m | 4.2m/s | 0°C | 0% | 0hPa | 0V | 00:00:00 | 00:00:00 | 00:00:00 | |
| POL1PZ | 2026-09-03 14:45:34 | 50.79884 | 16.24018 | 128° | 115km/h | 11290m | 2.4m/s | 0°C | 0% | 0hPa | 0V | 00:00:00 | 00:00:00 | 00:00:00 | |
| EDDB2-12 | 2026-09-03 14:45:30 | 50.80035 | 16.23764 | 134° | 122km/h | 11266m | 4.1m/s | 0°C | -1.0% | -1.0hPa | 0V | 00:00:00 | 00:00:00 | 00:00:00 | |
| SQ6EMJ | 2026-09-03 14:45:25 | 50.80078 | 16.23692 | 142° | 119km/h | 11262m | 2.7m/s | 0°C | 0% | 0hPa | 0V | 00:00:00 | 00:00:00 | 00:00:00 | |
| POL2MAQ | 2026-09-03 14:45:22 | 50.80142 | 16.23584 | 136° | 120km/h | 11250m | 1.8m/s | 0°C | 0% | 0hPa | 0V | 00:00:00 | 00:00:00 | 00:00:00 | |
| SP6BVK | 2026-09-03 14:45:21 | 50.80164 | 16.23545 | 129° | 137km/h | 11248m | 1.9m/s | 0°C | 0% | 0hPa | 0V | 00:00:00 | 00:00:00 | 00:00:00 | |
| SQ6EMJ | 2026-09-03 14:45:18 | 50.80229 | 16.23436 | 134° | 130km/h | 11236m | 2.2m/s | 0°C | 0% | 0hPa | 0V | 00:00:00 | 00:00:00 | 00:00:00 | |
| EDDB2-11 | 2026-09-03 14:45:14 | 50.80336 | 16.23254 | 133° | 135km/h | 11220m | 0.1m/s | 0°C | -1.0% | -1.0hPa | 0V | 00:00:00 | 00:00:00 | 00:00:00 | |
| SQ6EMJ | 2026-09-03 14:45:12 | 50.80358 | 16.23219 | 136° | 108km/h | 11218m | 4.1m/s | 0°C | 0% | 0hPa | 0V | 00:00:00 | 00:00:00 | 00:00:00 | |
| SONDE2-11 | 2026-09-03 14:45:09 | 50.80490 | 16.23003 | 132° | 124km/h | 11196m | 3.6m/s | 0°C | -1.0% | -1.0hPa | 0V | 00:00:00 | 00:00:00 | 00:00:00 | |
| SQ6EMJ | 2026-09-03 14:45:06 | 50.80490 | 16.23003 | 133° | 124km/h | 11196m | 3.6m/s | 0°C | 0% | 0hPa | 0V | 00:00:00 | 00:00:00 | 00:00:00 | |
| OE3JTB-15 | 2026-09-03 14:45:01 | 50.80600 | 16.22818 | 132° | 130km/h | 11180m | 1.5m/s | 0°C | 0% | 0hPa | 0V | 00:00:00 | 00:00:00 | 00:00:00 | |
| SP6BVK | 2026-09-03 14:45:00 | 50.80624 | 16.22782 | 141° | 139km/h | 11178m | 2.3m/s | 0°C | 0% | 0hPa | 0V | 00:00:00 | 00:00:00 | 00:00:00 | |
| EDDB2-12 | 2026-09-03 14:44:59 | 50.80669 | 16.22707 | 134° | 130km/h | 11169m | 3.8m/s | 0°C | -1.0% | -1.0hPa | 0V | 00:00:00 | 00:00:00 | 00:00:00 | |
| SP3BTT-10 | 2026-09-03 14:44:57 | 50.80692 | 16.22671 | 137° | 128km/h | 11166m | 2.6m/s | 0°C | 0% | 0hPa | 0V | 00:00:00 | 00:00:00 | 00:00:00 | |
| SQ6EMJ | 2026-09-03 14:44:55 | 50.80738 | 16.22595 | 141° | 135km/h | 11161m | 4.5m/s | 0°C | 0% | 0hPa | 0V | 00:00:00 | 00:00:00 | 00:00:00 | |
| SQ6EMJ | 2026-09-03 14:44:49 | 50.80874 | 16.22370 | 136° | 133km/h | 11140m | 3.4m/s | 0°C | 0% | 0hPa | 0V | 00:00:00 | 00:00:00 | 00:00:00 | |
| POL1PZ | 2026-09-03 14:44:44 | 50.80988 | 16.22181 | 136° | 137km/h | 11124m | 1.9m/s | 0°C | 0% | 0hPa | 0V | 00:00:00 | 00:00:00 | 00:00:00 | |
| SQ6EMJ | 2026-09-03 14:44:43 | 50.81010 | 16.22144 | 131° | 117km/h | 11122m | 1.7m/s | 0°C | 0% | 0hPa | 0V | 00:00:00 | 00:00:00 | 00:00:00 | |
| POL2MAQ | 2026-09-03 14:44:41 | 50.81056 | 16.22067 | 133° | 131km/h | 11114m | 5.0m/s | 0°C | 0% | 0hPa | 0V | 00:00:00 | 00:00:00 | 00:00:00 | |
| SP6BVK | 2026-09-03 14:44:39 | 50.81103 | 16.21990 | 137° | 148km/h | 11108m | 2.7m/s | 0°C | 0% | 0hPa | 0V | 00:00:00 | 00:00:00 | 00:00:00 | |
| SONDE2-11 | 2026-09-03 14:44:38 | 50.81149 | 16.21914 | 134° | 133km/h | 11101m | 5.1m/s | 0°C | -1.0% | -1.0hPa | 0V | 00:00:00 | 00:00:00 | 00:00:00 | |
| SQ6EMJ | 2026-09-03 14:44:36 | 50.81172 | 16.21874 | 133° | 137km/h | 11097m | 2.7m/s | 0°C | 0% | 0hPa | 0V | 00:00:00 | 00:00:00 | 00:00:00 | |
| SQ6EMJ | 2026-09-03 14:44:30 | 50.81309 | 16.21640 | 129° | 119km/h | 11079m | 3.8m/s | 0°C | 0% | 0hPa | 0V | 00:00:00 | 00:00:00 | 00:00:00 | |
| EDDB2-12 | 2026-09-03 14:44:28 | 50.81376 | 16.21523 | 126° | 128km/h | 11067m | 2.3m/s | 0°C | -1.0% | -1.0hPa | 0V | 00:00:00 | 00:00:00 | 00:00:00 | |
| SQ6EMJ | 2026-09-03 14:44:24 | 50.81443 | 16.21408 | 133° | 126km/h | 11056m | 2.0m/s | 0°C | 0% | 0hPa | 0V | 00:00:00 | 00:00:00 | 00:00:00 | |
| POL2MAQ | 2026-09-03 14:44:20 | 50.81533 | 16.21260 | 136° | 128km/h | 11042m | 2.7m/s | 0°C | 0% | 0hPa | 0V | 00:00:00 | 00:00:00 | 00:00:00 | |
| SP6BVK | 2026-09-03 14:44:18 | 50.81576 | 16.21186 | 140° | 131km/h | 11037m | 5.2m/s | 0°C | 0% | 0hPa | 0V | 00:00:00 | 00:00:00 | 00:00:00 | |
| SP3BTT-10 | 2026-09-03 14:44:15 | 50.81643 | 16.21075 | 138° | 117km/h | 11026m | 0.8m/s | 0°C | 0% | 0hPa | 0V | 00:00:00 | 00:00:00 | 00:00:00 | |
| EDDB2-11 | 2026-09-03 14:44:12 | 50.81728 | 16.20925 | 127° | 122km/h | 11012m | 0.9m/s | 0°C | -1.0% | -1.0hPa | 0V | 00:00:00 | 00:00:00 | 00:00:00 | |
| SONDE2-11 | 2026-09-03 14:44:07 | 50.81879 | 16.20672 | 131° | 126km/h | 10987m | 2.9m/s | 0°C | -1.0% | -1.0hPa | 0V | 00:00:00 | 00:00:00 | 00:00:00 | |
| POL1PZ | 2026-09-03 14:44:03 | 50.81899 | 16.20637 | 136° | 111km/h | 10984m | 1.7m/s | 0°C | 0% | 0hPa | 0V | 00:00:00 | 00:00:00 | 00:00:00 | |
| SQ6EMJ | 2026-09-03 14:44:01 | 50.81942 | 16.20562 | 134° | 115km/h | 10977m | 5.2m/s | 0°C | 0% | 0hPa | 0V | 00:00:00 | 00:00:00 | 00:00:00 | |
| EDDB2-12 | 2026-09-03 14:43:57 | 50.82045 | 16.20387 | 132° | 120km/h | 10960m | 4.0m/s | 0°C | -1.0% | -1.0hPa | 0V | 00:00:00 | 00:00:00 | 00:00:00 | |
| SQ6EMJ | 2026-09-03 14:43:56 | 50.82045 | 16.20387 | 133° | 120km/h | 10960m | 4.0m/s | 0°C | 0% | 0hPa | 0V | 00:00:00 | 00:00:00 | 00:00:00 | |
| SQ6EMJ | 2026-09-03 14:43:50 | 50.82172 | 16.20178 | 139° | 131km/h | 10940m | 1.2m/s | 0°C | 0% | 0hPa | 0V | 00:00:00 | 00:00:00 | 00:00:00 | |
| SQ6EMJ | 2026-09-03 14:43:45 | 50.82275 | 16.20009 | 137° | 131km/h | 10924m | 2.5m/s | 0°C | 0% | 0hPa | 0V | 00:00:00 | 00:00:00 | 00:00:00 | |
| OE3JTB-15 | 2026-09-03 14:43:42 | 50.82337 | 16.19910 | 141° | 111km/h | 10912m | 1.6m/s | 0°C | 0% | 0hPa | 0V | 00:00:00 | 00:00:00 | 00:00:00 | |
| EDDB2-11 | 2026-09-03 14:43:41 | 50.82399 | 16.19811 | 134° | 113km/h | 10901m | 3.6m/s | 0°C | -1.0% | -1.0hPa | 0V | 00:00:00 | 00:00:00 | 00:00:00 | |
| POL2MAQ | 2026-09-03 14:43:39 | 50.82399 | 16.19810 | 136° | 115km/h | 10901m | 3.6m/s | 0°C | 0% | 0hPa | 0V | 00:00:00 | 00:00:00 | 00:00:00 | |
| SP6BVK | 2026-09-03 14:43:37 | 50.82439 | 16.19742 | 139° | 111km/h | 10895m | 1.8m/s | 0°C | 0% | 0hPa | 0V | 00:00:00 | 00:00:00 | 00:00:00 | |
| SONDE2-11 | 2026-09-03 14:43:36 | 50.82501 | 16.19640 | 135° | 110km/h | 10883m | 1.9m/s | 0°C | -1.0% | -1.0hPa | 0V | 00:00:00 | 00:00:00 | 00:00:00 | |
| SQ6EMJ | 2026-09-03 14:43:34 | 50.82501 | 16.19640 | 136° | 111km/h | 10883m | 1.9m/s | 0°C | 0% | 0hPa | 0V | 00:00:00 | 00:00:00 | 00:00:00 | |
| EDDB2-12 | 2026-09-03 14:43:26 | 50.82686 | 16.19337 | 135° | 120km/h | 10850m | 2.6m/s | 0°C | -1.0% | -1.0hPa | 0V | 00:00:00 | 00:00:00 | 00:00:00 | |
| SQ6EMJ | 2026-09-03 14:43:23 | 50.82725 | 16.19271 | 136° | 126km/h | 10844m | 4.9m/s | 0°C | 0% | 0hPa | 0V | 00:00:00 | 00:00:00 | 00:00:00 | |
| POL1PZ | 2026-09-03 14:43:20 | 50.82785 | 16.19170 | 135° | 122km/h | 10831m | 1.6m/s | 0°C | 0% | 0hPa | 0V | 00:00:00 | 00:00:00 | 00:00:00 | |
| POL2MAQ | 2026-09-03 14:43:19 | 50.82804 | 16.19137 | 131° | 99km/h | 10829m | 3.4m/s | 0°C | 0% | 0hPa | 0V | 00:00:00 | 00:00:00 | 00:00:00 | |
| SQ6EMJ | 2026-09-03 14:43:17 | 50.82843 | 16.19071 | 134° | 117km/h | 10819m | 4.6m/s | 0°C | 0% | 0hPa | 0V | 00:00:00 | 00:00:00 | 00:00:00 | |
| OK1ALN | 2026-09-03 14:43:12 | 50.82940 | 16.18906 | 133° | 117km/h | 10799m | 2.5m/s | 0°C | 0% | 0hPa | 0V | 00:00:00 | 00:00:00 | 00:00:00 | |
| SQ6EMJ | 2026-09-03 14:43:11 | 50.82958 | 16.18875 | 136° | 95km/h | 10797m | 2.4m/s | 0°C | 0% | 0hPa | 0V | 00:00:00 | 00:00:00 | 00:00:00 | |
| EDDB2-11 | 2026-09-03 14:43:10 | 50.83036 | 16.18745 | 131° | 122km/h | 10781m | 1.7m/s | 0°C | -1.0% | -1.0hPa | 0V | 00:00:00 | 00:00:00 | 00:00:00 | |
| SQ6EMJ | 2026-09-03 14:43:06 | 50.83055 | 16.18713 | 137° | 99km/h | 10779m | 1.9m/s | 0°C | 0% | 0hPa | 0V | 00:00:00 | 00:00:00 | 00:00:00 | |
| SONDE2-11 | 2026-09-03 14:43:05 | 50.83112 | 16.18616 | 137° | 102km/h | 10767m | 2.3m/s | 0°C | -1.0% | -1.0hPa | 0V | 00:00:00 | 00:00:00 | 00:00:00 | |
| SQ6EMJ | 2026-09-03 14:43:00 | 50.83168 | 16.18523 | 136° | 111km/h | 10756m | 5.2m/s | 0°C | 0% | 0hPa | 0V | 00:00:00 | 00:00:00 | 00:00:00 | |
| EDDB2-12 | 2026-09-03 14:42:55 | 50.83282 | 16.18332 | 126° | 100km/h | 10734m | 1.4m/s | 0°C | -1.0% | -1.0hPa | 0V | 00:00:00 | 00:00:00 | 00:00:00 | |
| SP6BVK | 2026-09-03 14:42:54 | 50.83282 | 16.18332 | 128° | 100km/h | 10734m | 1.4m/s | 0°C | 0% | 0hPa | 0V | 00:00:00 | 00:00:00 | 00:00:00 | |
| SQ6EMJ | 2026-09-03 14:42:49 | 50.83375 | 16.18172 | 130° | 99km/h | 10716m | 2.5m/s | 0°C | 0% | 0hPa | 0V | 00:00:00 | 00:00:00 | 00:00:00 | |
| SQ6EMJ | 2026-09-03 14:42:44 | 50.83471 | 16.18012 | 132° | 97km/h | 10697m | 4.4m/s | 0°C | 0% | 0hPa | 0V | 00:00:00 | 00:00:00 | 00:00:00 | |
| SQ6EMJ | 2026-09-03 14:42:38 | 50.83583 | 16.17825 | 132° | 104km/h | 10671m | 4.6m/s | 0°C | 0% | 0hPa | 0V | 00:00:00 | 00:00:00 | 00:00:00 | |
| POL2MAQ | 2026-09-03 14:42:37 | 50.83603 | 16.17794 | 137° | 113km/h | 10668m | 1.2m/s | 0°C | 0% | 0hPa | 0V | 00:00:00 | 00:00:00 | 00:00:00 | |
| SONDE2-11 | 2026-09-03 14:42:34 | 50.83675 | 16.17672 | 130° | 100km/h | 10652m | 2.1m/s | 0°C | -1.0% | -1.0hPa | 0V | 00:00:00 | 00:00:00 | 00:00:00 | |
| SQ6EMJ | 2026-09-03 14:42:32 | 50.83694 | 16.17643 | 143° | 113km/h | 10650m | 1.9m/s | 0°C | 0% | 0hPa | 0V | 00:00:00 | 00:00:00 | 00:00:00 | |
| SP3BTT-10 | 2026-09-03 14:42:28 | 50.83767 | 16.17524 | 129° | 102km/h | 10633m | 1.7m/s | 0°C | 0% | 0hPa | 0V | 00:00:00 | 00:00:00 | 00:00:00 | |
| SQ6EMJ | 2026-09-03 14:42:26 | 50.83805 | 16.17465 | 131° | 97km/h | 10626m | 6.1m/s | 0°C | 0% | 0hPa | 0V | 00:00:00 | 00:00:00 | 00:00:00 | |
| EDDB2-12 | 2026-09-03 14:42:24 | 50.83857 | 16.17377 | 126° | 93km/h | 10615m | 2.1m/s | 0°C | -1.0% | -1.0hPa | 0V | 00:00:00 | 00:00:00 | 00:00:00 | |
| SQ6EMJ | 2026-09-03 14:42:20 | 50.83912 | 16.17289 | 134° | 99km/h | 10602m | 2.7m/s | 0°C | 0% | 0hPa | 0V | 00:00:00 | 00:00:00 | 00:00:00 | |
| POL1PZ | 2026-09-03 14:42:16 | 50.83986 | 16.17174 | 135° | 106km/h | 10588m | 3.5m/s | 0°C | 0% | 0hPa | 0V | 00:00:00 | 00:00:00 | 00:00:00 | |
| POL2MAQ | 2026-09-03 14:42:15 | 50.84004 | 16.17147 | 139° | 91km/h | 10584m | 1.7m/s | 0°C | 0% | 0hPa | 0V | 00:00:00 | 00:00:00 | 00:00:00 | |
| SP6BVK | 2026-09-03 14:42:14 | 50.84023 | 16.17118 | 134° | 119km/h | 10582m | 3.9m/s | 0°C | 0% | 0hPa | 0V | 00:00:00 | 00:00:00 | 00:00:00 | |
| EDDB2-11 | 2026-09-03 14:42:08 | 50.84153 | 16.16917 | 138° | 108km/h | 10553m | 2.5m/s | 0°C | -1.0% | -1.0hPa | 0V | 00:00:00 | 00:00:00 | 00:00:00 | |
| SONDE2-11 | 2026-09-03 14:42:03 | 50.84245 | 16.16775 | 143° | 99km/h | 10536m | 1.8m/s | 0°C | -1.0% | -1.0hPa | 0V | 00:00:00 | 00:00:00 | 00:00:00 | |
| SQ6EMJ | 2026-09-03 14:42:02 | 50.84245 | 16.16775 | 145° | 99km/h | 10536m | 1.8m/s | 0°C | 0% | 0hPa | 0V | 00:00:00 | 00:00:00 | 00:00:00 | |
| EDDB2-12 | 2026-09-03 14:41:53 | 50.84441 | 16.16449 | 133° | 95km/h | 10492m | 2.1m/s | 0°C | -1.0% | -1.0hPa | 0V | 00:00:00 | 00:00:00 | 00:00:00 | |
| SQ6EMJ | 2026-09-03 14:41:50 | 50.84460 | 16.16419 | 136° | 117km/h | 10491m | 0.6m/s | 0°C | 0% | 0hPa | 0V | 00:00:00 | 00:00:00 | 00:00:00 | |
| POL1PZ | 2026-09-03 14:41:47 | 50.84512 | 16.16328 | 137° | 102km/h | 10477m | 3.2m/s | 0°C | 0% | 0hPa | 0V | 00:00:00 | 00:00:00 | 00:00:00 | |
| SQ6EMJ | 2026-09-03 14:41:43 | 50.84582 | 16.16206 | 132° | 108km/h | 10462m | 4.0m/s | 0°C | 0% | 0hPa | 0V | 00:00:00 | 00:00:00 | 00:00:00 | |
| SQ6EMJ | 2026-09-03 14:41:38 | 50.84671 | 16.16051 | 130° | 110km/h | 10442m | 1.4m/s | 0°C | 0% | 0hPa | 0V | 00:00:00 | 00:00:00 | 00:00:00 | |
| EDDB2-11 | 2026-09-03 14:41:37 | 50.84707 | 16.15993 | 128° | 106km/h | 10435m | 5.1m/s | 0°C | -1.0% | -1.0hPa | 0V | 00:00:00 | 00:00:00 | 00:00:00 | |
| SP6BVK | 2026-09-03 14:41:33 | 50.84759 | 16.15899 | 126° | 108km/h | 10424m | 2.2m/s | 0°C | 0% | 0hPa | 0V | 00:00:00 | 00:00:00 | 00:00:00 | |
| SONDE2-11 | 2026-09-03 14:41:32 | 50.84831 | 16.15774 | 135° | 104km/h | 10408m | 2.2m/s | 0°C | -1.0% | -1.0hPa | 0V | 00:00:00 | 00:00:00 | 00:00:00 | |
| SP3BTT-10 | 2026-09-03 14:41:25 | 50.84900 | 16.15647 | 128° | 108km/h | 10393m | 3.1m/s | 0°C | 0% | 0hPa | 0V | 00:00:00 | 00:00:00 | 00:00:00 | |
| EDDB2-12 | 2026-09-03 14:41:22 | 50.84971 | 16.15520 | 132° | 108km/h | 10377m | 3.8m/s | 0°C | -1.0% | -1.0hPa | 0V | 00:00:00 | 00:00:00 | 00:00:00 | |
| POL1PZ | 2026-09-03 14:41:21 | 50.84970 | 16.15520 | 133° | 108km/h | 10377m | 3.8m/s | 0°C | 0% | 0hPa | 0V | 00:00:00 | 00:00:00 | 00:00:00 | |
| SQ6EMJ | 2026-09-03 14:41:20 | 50.84987 | 16.15488 | 129° | 102km/h | 10374m | 2.0m/s | 0°C | 0% | 0hPa | 0V | 00:00:00 | 00:00:00 | 00:00:00 | |
| SQ6EMJ | 2026-09-03 14:41:14 | 50.85090 | 16.15295 | 137° | 115km/h | 10353m | 5.2m/s | 0°C | 0% | 0hPa | 0V | 00:00:00 | 00:00:00 | 00:00:00 | |
| SP6BVK | 2026-09-03 14:41:12 | 50.85125 | 16.15231 | 133° | 100km/h | 10344m | 3.1m/s | 0°C | 0% | 0hPa | 0V | 00:00:00 | 00:00:00 | 00:00:00 | |
| SQ6EMJ | 2026-09-03 14:41:08 | 50.85194 | 16.15101 | 129° | 108km/h | 10331m | 5.1m/s | 0°C | 0% | 0hPa | 0V | 00:00:00 | 00:00:00 | 00:00:00 | |
| EDDB2-11 | 2026-09-03 14:41:06 | 50.85263 | 16.14971 | 129° | 108km/h | 10316m | 5.4m/s | 0°C | -1.0% | -1.0hPa | 0V | 00:00:00 | 00:00:00 | 00:00:00 | |
| SQ6EMJ | 2026-09-03 14:41:02 | 50.85297 | 16.14905 | 135° | 97km/h | 10310m | 1.4m/s | 0°C | 0% | 0hPa | 0V | 00:00:00 | 00:00:00 | 00:00:00 | |
| SONDE2-11 | 2026-09-03 14:41:01 | 50.85348 | 16.14804 | 129° | 104km/h | 10297m | 4.2m/s | 0°C | -1.0% | -1.0hPa | 0V | 00:00:00 | 00:00:00 | 00:00:00 | |
| EDDB2-12 | 2026-09-03 14:40:51 | 50.85504 | 16.14498 | 126° | 110km/h | 10262m | 3.6m/s | 0°C | -1.0% | -1.0hPa | 0V | 00:00:00 | 00:00:00 | 00:00:00 | |
| SQ6EMJ | 2026-09-03 14:40:50 | 50.85504 | 16.14498 | 127° | 110km/h | 10262m | 3.6m/s | 0°C | 0% | 0hPa | 0V | 00:00:00 | 00:00:00 | 00:00:00 | |
| SQ6EMJ | 2026-09-03 14:40:44 | 50.85611 | 16.14291 | 134° | 111km/h | 10241m | 1.1m/s | 0°C | 0% | 0hPa | 0V | 00:00:00 | 00:00:00 | 00:00:00 | |
| SQ6EMJ | 2026-09-03 14:40:39 | 50.85696 | 16.14113 | 135° | 120km/h | 10224m | 3.7m/s | 0°C | 0% | 0hPa | 0V | 00:00:00 | 00:00:00 | 00:00:00 | |
| SQ6EMJ | 2026-09-03 14:40:32 | 50.85818 | 16.13869 | 129° | 108km/h | 10196m | 3.3m/s | 0°C | 0% | 0hPa | 0V | 00:00:00 | 00:00:00 | 00:00:00 | |
| SP6BVK | 2026-09-03 14:40:31 | 50.85836 | 16.13832 | 131° | 122km/h | 10193m | 2.0m/s | 0°C | 0% | 0hPa | 0V | 00:00:00 | 00:00:00 | 00:00:00 | |
| SONDE2-11 | 2026-09-03 14:40:30 | 50.85871 | 16.13762 | 129° | 120km/h | 10187m | 4.6m/s | 0°C | -1.0% | -1.0hPa | 0V | 00:00:00 | 00:00:00 | 00:00:00 | |
| SQ6EMJ | 2026-09-03 14:40:27 | 50.85906 | 16.13690 | 127° | 110km/h | 10180m | 2.4m/s | 0°C | 0% | 0hPa | 0V | 00:00:00 | 00:00:00 | 00:00:00 | |
| SP3BTT-10 | 2026-09-03 14:40:26 | 50.85924 | 16.13654 | 132° | 111km/h | 10177m | 2.7m/s | 0°C | 0% | 0hPa | 0V | 00:00:00 | 00:00:00 | 00:00:00 | |
| SQ6EMJ | 2026-09-03 14:40:21 | 50.86012 | 16.13475 | 130° | 126km/h | 10161m | 3.3m/s | 0°C | 0% | 0hPa | 0V | 00:00:00 | 00:00:00 | 00:00:00 | |
| EDDB2-12 | 2026-09-03 14:40:20 | 50.86046 | 16.13404 | 129° | 110km/h | 10151m | 4.0m/s | 0°C | -1.0% | -1.0hPa | 0V | 00:00:00 | 00:00:00 | 00:00:00 | |
| SQ6EMJ | 2026-09-03 14:40:15 | 50.86114 | 16.13259 | 127° | 108km/h | 10138m | 6.2m/s | 0°C | 0% | 0hPa | 0V | 00:00:00 | 00:00:00 | 00:00:00 | |
| SP6BVK | 2026-09-03 14:40:10 | 50.86198 | 16.13077 | 125° | 108km/h | 10120m | 4.7m/s | 0°C | 0% | 0hPa | 0V | 00:00:00 | 00:00:00 | 00:00:00 | |
| SQ6EMJ | 2026-09-03 14:40:09 | 50.86215 | 16.13041 | 130° | 113km/h | 10117m | 1.4m/s | 0°C | 0% | 0hPa | 0V | 00:00:00 | 00:00:00 | 00:00:00 | |
| SQ6EMJ | 2026-09-03 14:40:04 | 50.86297 | 16.12859 | 131° | 120km/h | 10099m | 1.6m/s | 0°C | 0% | 0hPa | 0V | 00:00:00 | 00:00:00 | 00:00:00 | |
| EDDB2-11 | 2026-09-03 14:40:03 | 50.86362 | 16.12715 | 125° | 100km/h | 10087m | 1.2m/s | 0°C | -1.0% | -1.0hPa | 0V | 00:00:00 | 00:00:00 | 00:00:00 | |
| SONDE2-11 | 2026-09-03 14:39:59 | 50.86427 | 16.12571 | 123° | 115km/h | 10073m | 1.5m/s | 0°C | -1.0% | -1.0hPa | 0V | 00:00:00 | 00:00:00 | 00:00:00 | |
| EDDB2-12 | 2026-09-03 14:39:48 | 50.86552 | 16.12283 | 123° | 110km/h | 10046m | 3.8m/s | 0°C | -1.0% | -1.0hPa | 0V | 00:00:00 | 00:00:00 | 00:00:00 | |
| SQ6EMJ | 2026-09-03 14:39:45 | 50.86600 | 16.12174 | 127° | 99km/h | 10038m | 4.5m/s | 0°C | 0% | 0hPa | 0V | 00:00:00 | 00:00:00 | 00:00:00 | |
| SQ6EMJ | 2026-09-03 14:39:38 | 50.86707 | 16.11923 | 124° | 113km/h | 10012m | 1.4m/s | 0°C | 0% | 0hPa | 0V | 00:00:00 | 00:00:00 | 00:00:00 | |
| SQ6EMJ | 2026-09-03 14:39:32 | 50.86798 | 16.11715 | 128° | 91km/h | 9994m | 3.3m/s | 0°C | 0% | 0hPa | 0V | 00:00:00 | 00:00:00 | 00:00:00 | |
| SP3BTT-10 | 2026-09-03 14:39:31 | 50.86812 | 16.11681 | 124° | 104km/h | 9990m | 4.9m/s | 0°C | 0% | 0hPa | 0V | 00:00:00 | 00:00:00 | 00:00:00 | |
| SP6BVK | 2026-09-03 14:39:30 | 50.86828 | 16.11645 | 126° | 110km/h | 9986m | 3.5m/s | 0°C | 0% | 0hPa | 0V | 00:00:00 | 00:00:00 | 00:00:00 | |
| SONDE2-11 | 2026-09-03 14:39:28 | 50.86904 | 16.11469 | 125° | 108km/h | 9968m | 3.1m/s | 0°C | -1.0% | -1.0hPa | 0V | 00:00:00 | 00:00:00 | 00:00:00 | |
| SQ6EMJ | 2026-09-03 14:39:25 | 50.86904 | 16.11469 | 127° | 110km/h | 9969m | 3.1m/s | 0°C | 0% | 0hPa | 0V | 00:00:00 | 00:00:00 | 00:00:00 | |
| OE3JTB-15 | 2026-09-03 14:39:24 | 50.86918 | 16.11434 | 120° | 104km/h | 9966m | 1.5m/s | 0°C | 0% | 0hPa | 0V | 00:00:00 | 00:00:00 | 00:00:00 | |
| SQ6EMJ | 2026-09-03 14:39:19 | 50.86992 | 16.11258 | 119° | 100km/h | 9950m | 1.1m/s | 0°C | 0% | 0hPa | 0V | 00:00:00 | 00:00:00 | 00:00:00 | |
| EDDB2-12 | 2026-09-03 14:39:17 | 50.87038 | 16.11152 | 121° | 104km/h | 9938m | 2.7m/s | 0°C | -1.0% | -1.0hPa | 0V | 00:00:00 | 00:00:00 | 00:00:00 | |
| SQ6EMJ | 2026-09-03 14:39:13 | 50.87083 | 16.11046 | 130° | 108km/h | 9931m | 5.2m/s | 0°C | 0% | 0hPa | 0V | 00:00:00 | 00:00:00 | 00:00:00 | |
| SP6BVK | 2026-09-03 14:39:09 | 50.87144 | 16.10908 | 119° | 108km/h | 9919m | 3.2m/s | 0°C | 0% | 0hPa | 0V | 00:00:00 | 00:00:00 | 00:00:00 | |
| SQ6EMJ | 2026-09-03 14:39:07 | 50.87174 | 16.10839 | 127° | 108km/h | 9911m | 3.4m/s | 0°C | 0% | 0hPa | 0V | 00:00:00 | 00:00:00 | 00:00:00 | |
| SQ6EMJ | 2026-09-03 14:39:01 | 50.87264 | 16.10630 | 121° | 108km/h | 9891m | 1.3m/s | 0°C | 0% | 0hPa | 0V | 00:00:00 | 00:00:00 | 00:00:00 | |
| SONDE2-11 | 2026-09-03 14:38:57 | 50.87352 | 16.10422 | 131° | 99km/h | 9873m | 2.6m/s | 0°C | -1.0% | -1.0hPa | 0V | 00:00:00 | 00:00:00 | 00:00:00 | |
| SQ6EMJ | 2026-09-03 14:38:56 | 50.87337 | 16.10457 | 117° | 111km/h | 9876m | 1.4m/s | 0°C | 0% | 0hPa | 0V | 00:00:00 | 00:00:00 | 00:00:00 | |
| OE3JTB-15 | 2026-09-03 14:38:52 | 50.87395 | 16.10318 | 127° | 102km/h | 9863m | 0.4m/s | 0°C | 0% | 0hPa | 0V | 00:00:00 | 00:00:00 | 00:00:00 | |
| SQ6EMJ | 2026-09-03 14:38:51 | 50.87409 | 16.10283 | 115° | 97km/h | 9862m | 2.0m/s | 0°C | 0% | 0hPa | 0V | 00:00:00 | 00:00:00 | 00:00:00 | |
| SP6BVK | 2026-09-03 14:38:48 | 50.87452 | 16.10179 | 122° | 99km/h | 9850m | 2.0m/s | 0°C | 0% | 0hPa | 0V | 00:00:00 | 00:00:00 | 00:00:00 | |
| SQ6EMJ | 2026-09-03 14:38:46 | 50.87482 | 16.10110 | 118° | 95km/h | 9847m | 3.1m/s | 0°C | 0% | 0hPa | 0V | 00:00:00 | 00:00:00 | 00:00:00 | |
| OK1SLM-15 | 2026-09-03 14:38:43 | 50.87524 | 16.10007 | 121° | 95km/h | 9836m | 2.1m/s | 0°C | 0% | 0hPa | 0V | 00:00:00 | 00:00:00 | 00:00:00 | |
| SQ6EMJ | 2026-09-03 14:38:40 | 50.87567 | 16.09904 | 125° | 102km/h | 9825m | 4.2m/s | 0°C | 0% | 0hPa | 0V | 00:00:00 | 00:00:00 | 00:00:00 | |
| OK1SLM-15 | 2026-09-03 14:38:37 | 50.87609 | 16.09801 | 124° | 117km/h | 9818m | 3.2m/s | 0°C | 0% | 0hPa | 0V | 00:00:00 | 00:00:00 | 00:00:00 | |
| SQ6EMJ | 2026-09-03 14:38:34 | 50.87651 | 16.09697 | 121° | 108km/h | 9807m | 1.2m/s | 0°C | 0% | 0hPa | 0V | 00:00:00 | 00:00:00 | 00:00:00 | |
| SQ6EMJ | 2026-09-03 14:38:29 | 50.87721 | 16.09525 | 118° | 111km/h | 9794m | 1.7m/s | 0°C | 0% | 0hPa | 0V | 00:00:00 | 00:00:00 | 00:00:00 | |
| SP6BVK | 2026-09-03 14:38:27 | 50.87750 | 16.09458 | 122° | 108km/h | 9788m | 4.1m/s | 0°C | 0% | 0hPa | 0V | 00:00:00 | 00:00:00 | 00:00:00 | |
| SP3BTT-10 | 2026-09-03 14:38:25 | 50.87777 | 16.09390 | 128° | 102km/h | 9782m | 1.1m/s | 0°C | 0% | 0hPa | 0V | 00:00:00 | 00:00:00 | 00:00:00 | |
| OE3JTB-15 | 2026-09-03 14:38:20 | 50.87847 | 16.09220 | 131° | 100km/h | 9765m | 2.3m/s | 0°C | 0% | 0hPa | 0V | 00:00:00 | 00:00:00 | 00:00:00 | |
| SQ6EMJ | 2026-09-03 14:38:19 | 50.87862 | 16.09187 | 119° | 99km/h | 9763m | 1.1m/s | 0°C | 0% | 0hPa | 0V | 00:00:00 | 00:00:00 | 00:00:00 | |
| SQ6EMJ | 2026-09-03 14:38:13 | 50.87947 | 16.08988 | 128° | 99km/h | 9744m | 4.3m/s | 0°C | 0% | 0hPa | 0V | 00:00:00 | 00:00:00 | 00:00:00 | |
| EDDB2-11 | 2026-09-03 14:37:59 | 50.88161 | 16.08489 | 126° | 100km/h | 9698m | 2.4m/s | 0°C | -1.0% | -1.0hPa | 0V | 00:00:00 | 00:00:00 | 00:00:00 | |
| SONDE2-11 | 2026-09-03 14:37:54 | 50.88217 | 16.08353 | 121° | 97km/h | 9687m | 4.4m/s | 0°C | -1.0% | -1.0hPa | 0V | 00:00:00 | 00:00:00 | 00:00:00 | |
| SQ6EMJ | 2026-09-03 14:37:49 | 50.88286 | 16.08183 | 124° | 97km/h | 9673m | 3.6m/s | 0°C | 0% | 0hPa | 0V | 00:00:00 | 00:00:00 | 00:00:00 | |
| OE3JTB-15 | 2026-09-03 14:37:47 | 50.88314 | 16.08116 | 119° | 97km/h | 9669m | 1.5m/s | 0°C | 0% | 0hPa | 0V | 00:00:00 | 00:00:00 | 00:00:00 | |
| SP6BVK | 2026-09-03 14:37:46 | 50.88327 | 16.08082 | 128° | 111km/h | 9666m | 4.2m/s | 0°C | 0% | 0hPa | 0V | 00:00:00 | 00:00:00 | 00:00:00 | |
| SQ6EMJ | 2026-09-03 14:37:44 | 50.88356 | 16.08014 | 123° | 97km/h | 9657m | 2.6m/s | 0°C | 0% | 0hPa | 0V | 00:00:00 | 00:00:00 | 00:00:00 | |
| SP3BTT-10 | 2026-09-03 14:37:43 | 50.88370 | 16.07981 | 127° | 102km/h | 9655m | 0.6m/s | 0°C | 0% | 0hPa | 0V | 00:00:00 | 00:00:00 | 00:00:00 | |
| SQ6EMJ | 2026-09-03 14:37:39 | 50.88423 | 16.07849 | 123° | 93km/h | 9643m | 2.6m/s | 0°C | 0% | 0hPa | 0V | 00:00:00 | 00:00:00 | 00:00:00 | |
| SQ6EMJ | 2026-09-03 14:37:34 | 50.88489 | 16.07685 | 121° | 91km/h | 9629m | 1.1m/s | 0°C | 0% | 0hPa | 0V | 00:00:00 | 00:00:00 | 00:00:00 | |
| SQ6EMJ | 2026-09-03 14:37:28 | 50.88569 | 16.07484 | 123° | 113km/h | 9612m | 2.4m/s | 0°C | 0% | 0hPa | 0V | 00:00:00 | 00:00:00 | 00:00:00 | |
| SP6BVK | 2026-09-03 14:37:25 | 50.88608 | 16.07384 | 120° | 106km/h | 9600m | 1.6m/s | 0°C | 0% | 0hPa | 0V | 00:00:00 | 00:00:00 | 00:00:00 | |
| SQ6EMJ | 2026-09-03 14:37:22 | 50.88647 | 16.07282 | 122° | 95km/h | 9592m | 4.2m/s | 0°C | 0% | 0hPa | 0V | 00:00:00 | 00:00:00 | 00:00:00 | |
| SQ6EMJ | 2026-09-03 14:37:16 | 50.88725 | 16.07084 | 126° | 91km/h | 9575m | 2.1m/s | 0°C | 0% | 0hPa | 0V | 00:00:00 | 00:00:00 | 00:00:00 | |
| EDDB2-12 | 2026-09-03 14:37:13 | 50.88775 | 16.06951 | 121° | 99km/h | 9566m | 4.1m/s | 0°C | -1.0% | -1.0hPa | 0V | 00:00:00 | 00:00:00 | 00:00:00 | |
| OE3JTB-15 | 2026-09-03 14:37:10 | 50.88800 | 16.06883 | 115° | 78km/h | 9562m | 0.9m/s | 0°C | 0% | 0hPa | 0V | 00:00:00 | 00:00:00 | 00:00:00 | |
| SP6BVK | 2026-09-03 14:37:05 | 50.88864 | 16.06716 | 118° | 111km/h | 9549m | 1.9m/s | 0°C | 0% | 0hPa | 0V | 00:00:00 | 00:00:00 | 00:00:00 | |
| EDDB2-11 | 2026-09-03 14:36:57 | 50.89017 | 16.06319 | 118° | 97km/h | 9509m | 2.5m/s | 0°C | -1.0% | -1.0hPa | 0V | 00:00:00 | 00:00:00 | 00:00:00 | |
| SONDE2-11 | 2026-09-03 14:36:52 | 50.89043 | 16.06252 | 112° | 95km/h | 9505m | 2.5m/s | 0°C | -1.0% | -1.0hPa | 0V | 00:00:00 | 00:00:00 | 00:00:00 | |
| SQ6EMJ | 2026-09-03 14:36:46 | 50.89109 | 16.06084 | 117° | 89km/h | 9491m | 4.2m/s | 0°C | 0% | 0hPa | 0V | 00:00:00 | 00:00:00 | 00:00:00 | |
| SP6BVK | 2026-09-03 14:36:45 | 50.89121 | 16.06053 | 127° | 97km/h | 9486m | 3.9m/s | 0°C | 0% | 0hPa | 0V | 00:00:00 | 00:00:00 | 00:00:00 | |
| EDDB2-12 | 2026-09-03 14:36:42 | 50.89173 | 16.05918 | 120° | 89km/h | 9476m | 4.6m/s | 0°C | -1.0% | -1.0hPa | 0V | 00:00:00 | 00:00:00 | 00:00:00 | |
| SQ6EMJ | 2026-09-03 14:36:41 | 50.89173 | 16.05918 | 122° | 89km/h | 9476m | 4.6m/s | 0°C | 0% | 0hPa | 0V | 00:00:00 | 00:00:00 | 00:00:00 | |
| SP3BTT-10 | 2026-09-03 14:36:39 | 50.89197 | 16.05851 | 115° | 99km/h | 9470m | 0.6m/s | 0°C | 0% | 0hPa | 0V | 00:00:00 | 00:00:00 | 00:00:00 | |
| SQ6EMJ | 2026-09-03 14:36:36 | 50.89235 | 16.05749 | 121° | 93km/h | 9461m | 4.0m/s | 0°C | 0% | 0hPa | 0V | 00:00:00 | 00:00:00 | 00:00:00 | |
| SQ6EMJ | 2026-09-03 14:36:30 | 50.89309 | 16.05547 | 119° | 108km/h | 9442m | 1.3m/s | 0°C | 0% | 0hPa | 0V | 00:00:00 | 00:00:00 | 00:00:00 | |
| SQ6EMJ | 2026-09-03 14:36:25 | 50.89371 | 16.05376 | 116° | 108km/h | 9428m | 0.6m/s | 0°C | 0% | 0hPa | 0V | 00:00:00 | 00:00:00 | 00:00:00 | |
| SP6BVK | 2026-09-03 14:36:24 | 50.89383 | 16.05342 | 127° | 89km/h | 9426m | 4.0m/s | 0°C | 0% | 0hPa | 0V | 00:00:00 | 00:00:00 | 00:00:00 | |
| SONDE2-11 | 2026-09-03 14:36:21 | 50.89420 | 16.05241 | 122° | 91km/h | 9415m | 1.6m/s | 0°C | -1.0% | -1.0hPa | 0V | 00:00:00 | 00:00:00 | 00:00:00 | |
| SQ6EMJ | 2026-09-03 14:36:19 | 50.89445 | 16.05172 | 127° | 89km/h | 9410m | 4.8m/s | 0°C | 0% | 0hPa | 0V | 00:00:00 | 00:00:00 | 00:00:00 | |
| SQ6EMJ | 2026-09-03 14:36:13 | 50.89520 | 16.04969 | 120° | 97km/h | 9389m | 3.8m/s | 0°C | 0% | 0hPa | 0V | 00:00:00 | 00:00:00 | 00:00:00 | |
| EDDB2-12 | 2026-09-03 14:36:11 | 50.89594 | 16.04766 | 115° | 104km/h | 9371m | 0.5m/s | 0°C | -1.0% | -1.0hPa | 0V | 00:00:00 | 00:00:00 | 00:00:00 | |
| SQ6EMJ | 2026-09-03 14:36:07 | 50.89594 | 16.04766 | 117° | 106km/h | 9371m | 0.5m/s | 0°C | 0% | 0hPa | 0V | 00:00:00 | 00:00:00 | 00:00:00 | |
| SP6BVK | 2026-09-03 14:36:04 | 50.89630 | 16.04664 | 119° | 95km/h | 9361m | 4.7m/s | 0°C | 0% | 0hPa | 0V | 00:00:00 | 00:00:00 | 00:00:00 | |
| SQ6EMJ | 2026-09-03 14:36:02 | 50.89654 | 16.04595 | 112° | 97km/h | 9356m | 1.4m/s | 0°C | 0% | 0hPa | 0V | 00:00:00 | 00:00:00 | 00:00:00 | |
| EDDB2-11 | 2026-09-03 14:35:55 | 50.89754 | 16.04329 | 120° | 95km/h | 9330m | 2.9m/s | 0°C | -1.0% | -1.0hPa | 0V | 00:00:00 | 00:00:00 | 00:00:00 | |
| SONDE2-11 | 2026-09-03 14:35:50 | 50.89805 | 16.04193 | 122° | 99km/h | 9318m | 3.0m/s | 0°C | -1.0% | -1.0hPa | 0V | 00:00:00 | 00:00:00 | 00:00:00 | |
| SQ6EMJ | 2026-09-03 14:35:46 | 50.89855 | 16.04061 | 123° | 93km/h | 9306m | 4.0m/s | 0°C | 0% | 0hPa | 0V | 00:00:00 | 00:00:00 | 00:00:00 | |
| SP6BVK | 2026-09-03 14:35:44 | 50.89880 | 16.03997 | 128° | 82km/h | 9301m | 1.3m/s | 0°C | 0% | 0hPa | 0V | 00:00:00 | 00:00:00 | 00:00:00 | |
| EDDB2-12 | 2026-09-03 14:35:40 | 50.89984 | 16.03735 | 125° | 99km/h | 9274m | 2.1m/s | 0°C | -1.0% | -1.0hPa | 0V | 00:00:00 | 00:00:00 | 00:00:00 | |
| SQ6EMJ | 2026-09-03 14:35:34 | 50.90010 | 16.03668 | 132° | 97km/h | 9271m | 3.1m/s | 0°C | 0% | 0hPa | 0V | 00:00:00 | 00:00:00 | 00:00:00 | |
| SQ6EMJ | 2026-09-03 14:35:27 | 50.90102 | 16.03435 | 121° | 100km/h | 9247m | 1.6m/s | 0°C | 0% | 0hPa | 0V | 00:00:00 | 00:00:00 | 00:00:00 | |
| EDDB2-11 | 2026-09-03 14:35:24 | 50.90155 | 16.03302 | 124° | 99km/h | 9235m | 3.0m/s | 0°C | -1.0% | -1.0hPa | 0V | 00:00:00 | 00:00:00 | 00:00:00 | |
| SP6BVK | 2026-09-03 14:35:23 | 50.90155 | 16.03302 | 126° | 99km/h | 9235m | 3.0m/s | 0°C | 0% | 0hPa | 0V | 00:00:00 | 00:00:00 | 00:00:00 | |
| SQ6EMJ | 2026-09-03 14:35:21 | 50.90182 | 16.03236 | 131° | 102km/h | 9231m | 2.7m/s | 0°C | 0% | 0hPa | 0V | 00:00:00 | 00:00:00 | 00:00:00 | |
| SONDE2-11 | 2026-09-03 14:35:19 | 50.90222 | 16.03133 | 123° | 104km/h | 9220m | 1.8m/s | 0°C | -1.0% | -1.0hPa | 0V | 00:00:00 | 00:00:00 | 00:00:00 | |
| SQ6EMJ | 2026-09-03 14:35:14 | 50.90273 | 16.02998 | 124° | 95km/h | 9208m | 4.7m/s | 0°C | 0% | 0hPa | 0V | 00:00:00 | 00:00:00 | 00:00:00 | |
| SP3BTT-10 | 2026-09-03 14:35:09 | 50.90338 | 16.02832 | 124° | 100km/h | 9192m | 4.1m/s | 0°C | 0% | 0hPa | 0V | 00:00:00 | 00:00:00 | 00:00:00 | |
| SQ6EMJ | 2026-09-03 14:35:08 | 50.90352 | 16.02798 | 123° | 106km/h | 9190m | 1.1m/s | 0°C | 0% | 0hPa | 0V | 00:00:00 | 00:00:00 | 00:00:00 | |
| SP6BVK | 2026-09-03 14:35:03 | 50.90419 | 16.02636 | 119° | 99km/h | 9174m | 1.0m/s | 0°C | 0% | 0hPa | 0V | 00:00:00 | 00:00:00 | 00:00:00 | |
| SQ6EMJ | 2026-09-03 14:35:02 | 50.90433 | 16.02604 | 135° | 97km/h | 9172m | 2.5m/s | 0°C | 0% | 0hPa | 0V | 00:00:00 | 00:00:00 | 00:00:00 | |
| EDDB2-11 | 2026-09-03 14:34:53 | 50.90596 | 16.02216 | 126° | 93km/h | 9129m | 2.8m/s | 0°C | -1.0% | -1.0hPa | 0V | 00:00:00 | 00:00:00 | 00:00:00 | |
| SQ6EMJ | 2026-09-03 14:34:52 | 50.90569 | 16.02281 | 128° | 108km/h | 9139m | 4.4m/s | 0°C | 0% | 0hPa | 0V | 00:00:00 | 00:00:00 | 00:00:00 | |
| OK1ALN | 2026-09-03 14:34:49 | 50.90611 | 16.02183 | 124° | 108km/h | 9127m | 1.9m/s | 0°C | 0% | 0hPa | 0V | 00:00:00 | 00:00:00 | 00:00:00 | |
| SQ6EMJ | 2026-09-03 14:34:46 | 50.90653 | 16.02086 | 125° | 100km/h | 9117m | 3.4m/s | 0°C | 0% | 0hPa | 0V | 00:00:00 | 00:00:00 | 00:00:00 | |
| SP6BVK | 2026-09-03 14:34:43 | 50.90695 | 16.01991 | 127° | 80km/h | 9109m | 5.0m/s | 0°C | 0% | 0hPa | 0V | 00:00:00 | 00:00:00 | 00:00:00 | |
| SQ6EMJ | 2026-09-03 14:34:41 | 50.90723 | 16.01930 | 126° | 102km/h | 9101m | 2.1m/s | 0°C | 0% | 0hPa | 0V | 00:00:00 | 00:00:00 | 00:00:00 | |
| EDDB2-12 | 2026-09-03 14:34:38 | 50.90779 | 16.01803 | 123° | 95km/h | 9086m | 4.5m/s | 0°C | -1.0% | -1.0hPa | 0V | 00:00:00 | 00:00:00 | 00:00:00 | |
| SQ6EMJ | 2026-09-03 14:34:35 | 50.90806 | 16.01740 | 118° | 86km/h | 9082m | 1.6m/s | 0°C | 0% | 0hPa | 0V | 00:00:00 | 00:00:00 | 00:00:00 | |
| SQ6EMJ | 2026-09-03 14:34:28 | 50.90906 | 16.01525 | 128° | 91km/h | 9057m | 4.7m/s | 0°C | 0% | 0hPa | 0V | 00:00:00 | 00:00:00 | 00:00:00 | |
| SP6BVK | 2026-09-03 14:34:23 | 50.90977 | 16.01375 | 128° | 91km/h | 9040m | 3.4m/s | 0°C | 0% | 0hPa | 0V | 00:00:00 | 00:00:00 | 00:00:00 | |
| EDDB2-11 | 2026-09-03 14:34:22 | 50.91050 | 16.01223 | 124° | 91km/h | 9024m | 2.1m/s | 0°C | -1.0% | -1.0hPa | 0V | 00:00:00 | 00:00:00 | 00:00:00 | |
| SONDE2-11 | 2026-09-03 14:34:17 | 50.91080 | 16.01161 | 123° | 80km/h | 9019m | 2.6m/s | 0°C | -1.0% | -1.0hPa | 0V | 00:00:00 | 00:00:00 | 00:00:00 | |
| SQ6EMJ | 2026-09-03 14:34:16 | 50.91079 | 16.01161 | 124° | 82km/h | 9020m | 2.6m/s | 0°C | 0% | 0hPa | 0V | 00:00:00 | 00:00:00 | 00:00:00 | |
| POL1PZ | 2026-09-03 14:34:13 | 50.91123 | 16.01069 | 126° | 88km/h | 9008m | 1.5m/s | 0°C | 0% | 0hPa | 0V | 00:00:00 | 00:00:00 | 00:00:00 | |
| SQ6EMJ | 2026-09-03 14:34:10 | 50.91168 | 16.00976 | 129° | 95km/h | 8998m | 4.7m/s | 0°C | 0% | 0hPa | 0V | 00:00:00 | 00:00:00 | 00:00:00 | |
| SP3BTT-10 | 2026-09-03 14:34:08 | 50.91197 | 16.00915 | 131° | 100km/h | 8992m | 1.9m/s | 0°C | 0% | 0hPa | 0V | 00:00:00 | 00:00:00 | 00:00:00 | |
| EDDB2-12 | 2026-09-03 14:34:07 | 50.91243 | 16.00823 | 128° | 95km/h | 8981m | 3.2m/s | 0°C | -1.0% | -1.0hPa | 0V | 00:00:00 | 00:00:00 | 00:00:00 | |
| SQ6EMJ | 2026-09-03 14:34:04 | 50.91257 | 16.00792 | 126° | 97km/h | 8978m | 2.7m/s | 0°C | 0% | 0hPa | 0V | 00:00:00 | 00:00:00 | 00:00:00 | |
| SP6BVK | 2026-09-03 14:34:02 | 50.91288 | 16.00731 | 119° | 106km/h | 8974m | 3.8m/s | 0°C | 0% | 0hPa | 0V | 00:00:00 | 00:00:00 | 00:00:00 | |
| EDDB2-11 | 2026-09-03 14:33:51 | 50.91468 | 16.00357 | 124° | 106km/h | 8931m | 2.2m/s | 0°C | -1.0% | -1.0hPa | 0V | 00:00:00 | 00:00:00 | 00:00:00 | |
| SONDE2-11 | 2026-09-03 14:33:46 | 50.91544 | 16.00195 | 124° | 113km/h | 8916m | 2.3m/s | 0°C | -1.0% | -1.0hPa | 0V | 00:00:00 | 00:00:00 | 00:00:00 | |
| SQ6EMJ | 2026-09-03 14:33:45 | 50.91544 | 16.00195 | 125° | 113km/h | 8916m | 2.3m/s | 0°C | 0% | 0hPa | 0V | 00:00:00 | 00:00:00 | 00:00:00 | |
| SP6BVK | 2026-09-03 14:33:42 | 50.91591 | 16.00101 | 127° | 102km/h | 8904m | 3.4m/s | 0°C | 0% | 0hPa | 0V | 00:00:00 | 00:00:00 | 00:00:00 | |
| SQ6EMJ | 2026-09-03 14:33:40 | 50.91622 | 16.00036 | 125° | 115km/h | 8900m | 1.9m/s | 0°C | 0% | 0hPa | 0V | 00:00:00 | 00:00:00 | 00:00:00 | |
| EDDB2-12 | 2026-09-03 14:33:36 | 50.91700 | 15.99878 | 126° | 113km/h | 8883m | 3.2m/s | 0°C | -1.0% | -1.0hPa | 0V | 00:00:00 | 00:00:00 | 00:00:00 | |
| SQ6EMJ | 2026-09-03 14:33:33 | 50.91731 | 15.99816 | 128° | 99km/h | 8874m | 4.7m/s | 0°C | 0% | 0hPa | 0V | 00:00:00 | 00:00:00 | 00:00:00 | |
| SQ6EMJ | 2026-09-03 14:33:27 | 50.91825 | 15.99625 | 133° | 108km/h | 8854m | 1.9m/s | 0°C | 0% | 0hPa | 0V | 00:00:00 | 00:00:00 | 00:00:00 | |
| POL1PZ | 2026-09-03 14:33:22 | 50.91908 | 15.99465 | 133° | 113km/h | 8838m | 2.0m/s | 0°C | 0% | 0hPa | 0V | 00:00:00 | 00:00:00 | 00:00:00 | |
| SQ6EMJ | 2026-09-03 14:33:21 | 50.91923 | 15.99434 | 128° | 89km/h | 8836m | 2.0m/s | 0°C | 0% | 0hPa | 0V | 00:00:00 | 00:00:00 | 00:00:00 | |
| EDDB2-11 | 2026-09-03 14:33:20 | 50.91973 | 15.99339 | 129° | 97km/h | 8823m | 2.5m/s | 0°C | -1.0% | -1.0hPa | 0V | 00:00:00 | 00:00:00 | 00:00:00 | |
| SQ6EMJ | 2026-09-03 14:33:16 | 50.92006 | 15.99275 | 129° | 86km/h | 8820m | 3.0m/s | 0°C | 0% | 0hPa | 0V | 00:00:00 | 00:00:00 | 00:00:00 | |
| SONDE2-11 | 2026-09-03 14:33:15 | 50.92038 | 15.99212 | 127° | 102km/h | 8811m | 3.3m/s | 0°C | -1.0% | -1.0hPa | 0V | 00:00:00 | 00:00:00 | 00:00:00 | |
| OK1ALN | 2026-09-03 14:33:12 | 50.92071 | 15.99149 | 130° | 115km/h | 8806m | 2.1m/s | 0°C | 0% | 0hPa | 0V | 00:00:00 | 00:00:00 | 00:00:00 | |
| SQ6EMJ | 2026-09-03 14:33:09 | 50.92119 | 15.99054 | 129° | 104km/h | 8795m | 3.7m/s | 0°C | 0% | 0hPa | 0V | 00:00:00 | 00:00:00 | 00:00:00 | |
| SP3BTT-10 | 2026-09-03 14:33:08 | 50.92136 | 15.99023 | 131° | 100km/h | 8792m | 1.8m/s | 0°C | 0% | 0hPa | 0V | 00:00:00 | 00:00:00 | 00:00:00 | |
| EDDB2-12 | 2026-09-03 14:33:05 | 50.92215 | 15.98868 | 132° | 91km/h | 8777m | 1.6m/s | 0°C | -1.0% | -1.0hPa | 0V | 00:00:00 | 00:00:00 | 00:00:00 | |
| SQ6EMJ | 2026-09-03 14:33:03 | 50.92215 | 15.98868 | 133° | 93km/h | 8777m | 1.6m/s | 0°C | 0% | 0hPa | 0V | 00:00:00 | 00:00:00 | 00:00:00 | |
| SP6BVK | 2026-09-03 14:33:00 | 50.92262 | 15.98774 | 131° | 102km/h | 8767m | 4.6m/s | 0°C | 0% | 0hPa | 0V | 00:00:00 | 00:00:00 | 00:00:00 | |
| EDDB2-11 | 2026-09-03 14:32:49 | 50.92454 | 15.98408 | 125° | 108km/h | 8730m | 3.5m/s | 0°C | -1.0% | -1.0hPa | 0V | 00:00:00 | 00:00:00 | 00:00:00 | |
| SQ6EMJ | 2026-09-03 14:32:45 | 50.92504 | 15.98318 | 131° | 104km/h | 8718m | 1.5m/s | 0°C | 0% | 0hPa | 0V | 00:00:00 | 00:00:00 | 00:00:00 | |
| SONDE2-11 | 2026-09-03 14:32:44 | 50.92586 | 15.98168 | 132° | 108km/h | 8702m | 1.1m/s | 0°C | -1.0% | -1.0hPa | 0V | 00:00:00 | 00:00:00 | 00:00:00 | |
| SQ6EMJ | 2026-09-03 14:32:33 | 50.92697 | 15.97958 | 133° | 97km/h | 8680m | 6.1m/s | 0°C | 0% | 0hPa | 0V | 00:00:00 | 00:00:00 | 00:00:00 | |
| SQ6EMJ | 2026-09-03 14:32:28 | 50.92778 | 15.97810 | 133° | 95km/h | 8662m | 3.3m/s | 0°C | 0% | 0hPa | 0V | 00:00:00 | 00:00:00 | 00:00:00 | |
| POL1PZ | 2026-09-03 14:32:27 | 50.92795 | 15.97779 | 130° | 106km/h | 8659m | 1.1m/s | 0°C | 0% | 0hPa | 0V | 00:00:00 | 00:00:00 | 00:00:00 | |
| SQ6EMJ | 2026-09-03 14:32:22 | 50.92876 | 15.97628 | 127° | 106km/h | 8644m | 0.5m/s | 0°C | 0% | 0hPa | 0V | 00:00:00 | 00:00:00 | 00:00:00 | |
| SP6BVK | 2026-09-03 14:32:19 | 50.92925 | 15.97542 | 129° | 95km/h | 8632m | 3.0m/s | 0°C | 0% | 0hPa | 0V | 00:00:00 | 00:00:00 | 00:00:00 | |
| EDDB2-11 | 2026-09-03 14:32:18 | 50.92987 | 15.97421 | 129° | 99km/h | 8619m | 5.0m/s | 0°C | -1.0% | -1.0hPa | 0V | 00:00:00 | 00:00:00 | 00:00:00 | |
| SQ6EMJ | 2026-09-03 14:32:15 | 50.92987 | 15.97421 | 131° | 100km/h | 8619m | 5.0m/s | 0°C | 0% | 0hPa | 0V | 00:00:00 | 00:00:00 | 00:00:00 | |
| SONDE2-11 | 2026-09-03 14:32:13 | 50.93065 | 15.97272 | 129° | 97km/h | 8601m | 4.1m/s | 0°C | -1.0% | -1.0hPa | 0V | 00:00:00 | 00:00:00 | 00:00:00 | |
| SP3BTT-10 | 2026-09-03 14:32:09 | 50.93080 | 15.97242 | 128° | 93km/h | 8598m | 1.4m/s | 0°C | 0% | 0hPa | 0V | 00:00:00 | 00:00:00 | 00:00:00 | |
| SQ6EMJ | 2026-09-03 14:32:05 | 50.93158 | 15.97095 | 126° | 88km/h | 8582m | 0.7m/s | 0°C | 0% | 0hPa | 0V | 00:00:00 | 00:00:00 | 00:00:00 | |
| EDDB2-12 | 2026-09-03 14:32:03 | 50.93204 | 15.97004 | 126° | 95km/h | 8570m | 4.1m/s | 0°C | -1.0% | -1.0hPa | 0V | 00:00:00 | 00:00:00 | 00:00:00 | |
| POL1PZ | 2026-09-03 14:32:00 | 50.93219 | 15.96975 | 136° | 95km/h | 8567m | 2.1m/s | 0°C | 0% | 0hPa | 0V | 00:00:00 | 00:00:00 | 00:00:00 | |
| EDDB2-11 | 2026-09-03 14:31:47 | 50.93426 | 15.96563 | 129° | 95km/h | 8518m | 2.8m/s | 0°C | -1.0% | -1.0hPa | 0V | 00:00:00 | 00:00:00 | 00:00:00 | |
| SQ6EMJ | 2026-09-03 14:31:45 | 50.93439 | 15.96533 | 124° | 88km/h | 8516m | 2.0m/s | 0°C | 0% | 0hPa | 0V | 00:00:00 | 00:00:00 | 00:00:00 | |
| SONDE2-11 | 2026-09-03 14:31:42 | 50.93499 | 15.96416 | 131° | 95km/h | 8502m | 1.7m/s | 0°C | -1.0% | -1.0hPa | 0V | 00:00:00 | 00:00:00 | 00:00:00 | |
| SQ6EMJ | 2026-09-03 14:31:40 | 50.93512 | 15.96387 | 121° | 82km/h | 8500m | 2.3m/s | 0°C | 0% | 0hPa | 0V | 00:00:00 | 00:00:00 | 00:00:00 | |
| SP6BVK | 2026-09-03 14:31:38 | 50.93542 | 15.96330 | 130° | 91km/h | 8492m | 5.9m/s | 0°C | 0% | 0hPa | 0V | 00:00:00 | 00:00:00 | 00:00:00 | |
| POL1PZ | 2026-09-03 14:31:37 | 50.93556 | 15.96301 | 126° | 93km/h | 8487m | 2.4m/s | 0°C | 0% | 0hPa | 0V | 00:00:00 | 00:00:00 | 00:00:00 | |
| SQ6EMJ | 2026-09-03 14:31:33 | 50.93614 | 15.96183 | 131° | 91km/h | 8473m | 3.6m/s | 0°C | 0% | 0hPa | 0V | 00:00:00 | 00:00:00 | 00:00:00 | |
| EDDB2-12 | 2026-09-03 14:31:32 | 50.93645 | 15.96124 | 140° | 100km/h | 8469m | 3.8m/s | 0°C | -1.0% | -1.0hPa | 0V | 00:00:00 | 00:00:00 | 00:00:00 | |
| SQ6EMJ | 2026-09-03 14:31:28 | 50.93691 | 15.96036 | 133° | 93km/h | 8457m | 0.8m/s | 0°C | 0% | 0hPa | 0V | 00:00:00 | 00:00:00 | 00:00:00 | |
| SQ6EMJ | 2026-09-03 14:31:21 | 50.93791 | 15.95825 | 132° | 95km/h | 8434m | 5.4m/s | 0°C | 0% | 0hPa | 0V | 00:00:00 | 00:00:00 | 00:00:00 | |
| SP6BVK | 2026-09-03 14:31:17 | 50.93851 | 15.95708 | 123° | 102km/h | 8423m | 5.3m/s | 0°C | 0% | 0hPa | 0V | 00:00:00 | 00:00:00 | 00:00:00 | |
| EDDB2-11 | 2026-09-03 14:31:16 | 50.93880 | 15.95647 | 127° | 89km/h | 8413m | 2.8m/s | 0°C | -1.0% | -1.0hPa | 0V | 00:00:00 | 00:00:00 | 00:00:00 | |
| SQ6EMJ | 2026-09-03 14:31:15 | 50.93880 | 15.95647 | 129° | 89km/h | 8413m | 2.8m/s | 0°C | 0% | 0hPa | 0V | 00:00:00 | 00:00:00 | 00:00:00 | |
| POL1PZ | 2026-09-03 14:31:13 | 50.93909 | 15.95587 | 131° | 82km/h | 8409m | 1.6m/s | 0°C | 0% | 0hPa | 0V | 00:00:00 | 00:00:00 | 00:00:00 | |
| SP3BTT-10 | 2026-09-03 14:31:10 | 50.93953 | 15.95497 | 128° | 93km/h | 8396m | 2.2m/s | 0°C | 0% | 0hPa | 0V | 00:00:00 | 00:00:00 | 00:00:00 | |
| SQ6EMJ | 2026-09-03 14:31:09 | 50.93968 | 15.95465 | 127° | 106km/h | 8394m | 1.1m/s | 0°C | 0% | 0hPa | 0V | 00:00:00 | 00:00:00 | 00:00:00 | |
| OK1SLM-15 | 2026-09-03 14:31:05 | 50.94023 | 15.95351 | 131° | 86km/h | 8380m | 0.6m/s | 0°C | 0% | 0hPa | 0V | 00:00:00 | 00:00:00 | 00:00:00 | |
| EDDB2-12 | 2026-09-03 14:31:01 | 50.94095 | 15.95198 | 137° | 89km/h | 8361m | 2.1m/s | 0°C | -1.0% | -1.0hPa | 0V | 00:00:00 | 00:00:00 | 00:00:00 | |
| EDDB2-11 | 2026-09-03 14:30:45 | 50.94321 | 15.94679 | 122° | 89km/h | 8300m | 3.3m/s | 0°C | -1.0% | -1.0hPa | 0V | 00:00:00 | 00:00:00 | 00:00:00 | |
| SQ6EMJ | 2026-09-03 14:30:42 | 50.94335 | 15.94649 | 131° | 95km/h | 8297m | 2.6m/s | 0°C | 0% | 0hPa | 0V | 00:00:00 | 00:00:00 | 00:00:00 | |
| SONDE2-11 | 2026-09-03 14:30:40 | 50.94388 | 15.94528 | 120° | 89km/h | 8283m | 2.5m/s | 0°C | -1.0% | -1.0hPa | 0V | 00:00:00 | 00:00:00 | 00:00:00 | |
| SQ6EMJ | 2026-09-03 14:30:36 | 50.94414 | 15.94468 | 116° | 88km/h | 8278m | 3.6m/s | 0°C | 0% | 0hPa | 0V | 00:00:00 | 00:00:00 | 00:00:00 | |
| SP6BVK | 2026-09-03 14:30:35 | 50.94427 | 15.94438 | 130° | 93km/h | 8274m | 4.7m/s | 0°C | 0% | 0hPa | 0V | 00:00:00 | 00:00:00 | 00:00:00 | |
| OK1SLM-15 | 2026-09-03 14:30:32 | 50.94467 | 15.94347 | 131° | 100km/h | 8264m | 2.3m/s | 0°C | 0% | 0hPa | 0V | 00:00:00 | 00:00:00 | 00:00:00 | |
| SQ6EMJ | 2026-09-03 14:30:31 | 50.94480 | 15.94316 | 117° | 86km/h | 8262m | 1.9m/s | 0°C | 0% | 0hPa | 0V | 00:00:00 | 00:00:00 | 00:00:00 | |
| EDDB2-12 | 2026-09-03 14:30:30 | 50.94507 | 15.94255 | 123° | 93km/h | 8253m | 4.3m/s | 0°C | -1.0% | -1.0hPa | 0V | 00:00:00 | 00:00:00 | 00:00:00 | |
| POL1PZ | 2026-09-03 14:30:27 | 50.94532 | 15.94197 | 131° | 97km/h | 8248m | 0.7m/s | 0°C | 0% | 0hPa | 0V | 00:00:00 | 00:00:00 | 00:00:00 | |
| SQ6EMJ | 2026-09-03 14:30:24 | 50.94569 | 15.94106 | 127° | 88km/h | 8237m | 3.1m/s | 0°C | 0% | 0hPa | 0V | 00:00:00 | 00:00:00 | 00:00:00 | |
| OK1ALN | 2026-09-03 14:30:23 | 50.94581 | 15.94075 | 118° | 95km/h | 8234m | 1.7m/s | 0°C | 0% | 0hPa | 0V | 00:00:00 | 00:00:00 | 00:00:00 | |
| OK1SLM-15 | 2026-09-03 14:30:21 | 50.94608 | 15.94014 | 117° | 97km/h | 8228m | 5.6m/s | 0°C | 0% | 0hPa | 0V | 00:00:00 | 00:00:00 | 00:00:00 | |
| SQ6EMJ | 2026-09-03 14:30:18 | 50.94645 | 15.93920 | 122° | 106km/h | 8219m | 2.2m/s | 0°C | 0% | 0hPa | 0V | 00:00:00 | 00:00:00 | 00:00:00 | |
| OK1SLM-15 | 2026-09-03 14:30:15 | 50.94683 | 15.93828 | 127° | 93km/h | 8207m | 4.5m/s | 0°C | 0% | 0hPa | 0V | 00:00:00 | 00:00:00 | 00:00:00 | |
| EDDB2-11 | 2026-09-03 14:30:14 | 50.94709 | 15.93768 | 122° | 100km/h | 8201m | 1.5m/s | 0°C | -1.0% | -1.0hPa | 0V | 00:00:00 | 00:00:00 | 00:00:00 | |
| SQ6EMJ | 2026-09-03 14:30:13 | 50.94708 | 15.93768 | 124° | 102km/h | 8201m | 1.5m/s | 0°C | 0% | 0hPa | 0V | 00:00:00 | 00:00:00 | 00:00:00 | |
| SONDE2-11 | 2026-09-03 14:30:09 | 50.94772 | 15.93613 | 120° | 102km/h | 8183m | 1.7m/s | 0°C | -1.0% | -1.0hPa | 0V | 00:00:00 | 00:00:00 | 00:00:00 | |
| SP3BTT-10 | 2026-09-03 14:30:08 | 50.94772 | 15.93613 | 121° | 95km/h | 8183m | 1.6m/s | 0°C | 0% | 0hPa | 0V | 00:00:00 | 00:00:00 | 00:00:00 | |
| SQ6EMJ | 2026-09-03 14:30:07 | 50.94785 | 15.93583 | 128° | 80km/h | 8181m | 1.6m/s | 0°C | 0% | 0hPa | 0V | 00:00:00 | 00:00:00 | 00:00:00 | |
| POL1PZ | 2026-09-03 14:30:04 | 50.94823 | 15.93489 | 127° | 89km/h | 8170m | 2.2m/s | 0°C | 0% | 0hPa | 0V | 00:00:00 | 00:00:00 | 00:00:00 | |
| OK1SLM-15 | 2026-09-03 14:30:03 | 50.94834 | 15.93457 | 117° | 97km/h | 8168m | 0.7m/s | 0°C | 0% | 0hPa | 0V | 00:00:00 | 00:00:00 | 00:00:00 | |
| SQ6EMJ | 2026-09-03 14:30:00 | 50.94873 | 15.93364 | 121° | 91km/h | 8157m | 4.0m/s | 0°C | 0% | 0hPa | 0V | 00:00:00 | 00:00:00 | 00:00:00 | |
| EDDB2-12 | 2026-09-03 14:29:59 | 50.94898 | 15.93300 | 114° | 99km/h | 8152m | 1.9m/s | 0°C | -1.0% | -1.0hPa | 0V | 00:00:00 | 00:00:00 | 00:00:00 | |
| OK1SLM-15 | 2026-09-03 14:29:56 | 50.94925 | 15.93239 | 121° | 93km/h | 8145m | 6.4m/s | 0°C | 0% | 0hPa | 0V | 00:00:00 | 00:00:00 | 00:00:00 | |
| SQ6EMJ | 2026-09-03 14:29:55 | 50.94937 | 15.93207 | 123° | 97km/h | 8140m | 3.1m/s | 0°C | 0% | 0hPa | 0V | 00:00:00 | 00:00:00 | 00:00:00 | |
| SP6BVK | 2026-09-03 14:29:53 | 50.94963 | 15.93142 | 115° | 104km/h | 8136m | 1.8m/s | 0°C | 0% | 0hPa | 0V | 00:00:00 | 00:00:00 | 00:00:00 | |
| OK1SLM-15 | 2026-09-03 14:29:50 | 50.95003 | 15.93046 | 123° | 99km/h | 8124m | 3.1m/s | 0°C | 0% | 0hPa | 0V | 00:00:00 | 00:00:00 | 00:00:00 | |
| SQ6EMJ | 2026-09-03 14:29:49 | 50.95016 | 15.93015 | 127° | 88km/h | 8121m | 0.3m/s | 0°C | 0% | 0hPa | 0V | 00:00:00 | 00:00:00 | 00:00:00 | |
| POL1PZ | 2026-09-03 14:29:44 | 50.95081 | 15.92854 | 125° | 82km/h | 8105m | 1.4m/s | 0°C | 0% | 0hPa | 0V | 00:00:00 | 00:00:00 | 00:00:00 | |
| EDDB2-11 | 2026-09-03 14:29:43 | 50.95120 | 15.92759 | 122° | 93km/h | 8094m | 4.5m/s | 0°C | -1.0% | -1.0hPa | 0V | 00:00:00 | 00:00:00 | 00:00:00 | |
| SQ6EMJ | 2026-09-03 14:29:40 | 50.95134 | 15.92727 | 126° | 100km/h | 8091m | 1.3m/s | 0°C | 0% | 0hPa | 0V | 00:00:00 | 00:00:00 | 00:00:00 | |
| SONDE2-11 | 2026-09-03 14:29:38 | 50.95185 | 15.92599 | 120° | 95km/h | 8078m | 3.7m/s | 0°C | -1.0% | -1.0hPa | 0V | 00:00:00 | 00:00:00 | 00:00:00 | |
| SQ6EMJ | 2026-09-03 14:29:34 | 50.95210 | 15.92535 | 118° | 86km/h | 8073m | 2.0m/s | 0°C | 0% | 0hPa | 0V | 00:00:00 | 00:00:00 | 00:00:00 | |
| SP6BVK | 2026-09-03 14:29:33 | 50.95223 | 15.92503 | 127° | 104km/h | 8070m | 3.1m/s | 0°C | 0% | 0hPa | 0V | 00:00:00 | 00:00:00 | 00:00:00 | |
| SQ6EMJ | 2026-09-03 14:29:30 | 50.95275 | 15.92376 | 121° | 86km/h | 8058m | 0.8m/s | 0°C | 0% | 0hPa | 0V | 00:00:00 | 00:00:00 | 00:00:00 | |
| EDDB2-12 | 2026-09-03 14:29:28 | 50.95314 | 15.92280 | 123° | 91km/h | 8046m | 4.4m/s | 0°C | -1.0% | -1.0hPa | 0V | 00:00:00 | 00:00:00 | 00:00:00 | |
| SQ6EMJ | 2026-09-03 14:29:24 | 50.95339 | 15.92216 | 122° | 80km/h | 8041m | 1.6m/s | 0°C | 0% | 0hPa | 0V | 00:00:00 | 00:00:00 | 00:00:00 | |
| SP3BTT-10 | 2026-09-03 14:29:23 | 50.95351 | 15.92184 | 122° | 91km/h | 8039m | 3.4m/s | 0°C | 0% | 0hPa | 0V | 00:00:00 | 00:00:00 | 00:00:00 | |
| POL1PZ | 2026-09-03 14:29:20 | 50.95389 | 15.92087 | 124° | 100km/h | 8027m | 2.0m/s | 0°C | 0% | 0hPa | 0V | 00:00:00 | 00:00:00 | 00:00:00 | |
| SQ6EMJ | 2026-09-03 14:29:19 | 50.95401 | 15.92056 | 121° | 82km/h | 8025m | 1.8m/s | 0°C | 0% | 0hPa | 0V | 00:00:00 | 00:00:00 | 00:00:00 | |
| SP6BVK | 2026-09-03 14:29:13 | 50.95478 | 15.91864 | 131° | 88km/h | 8006m | 2.6m/s | 0°C | 0% | 0hPa | 0V | 00:00:00 | 00:00:00 | 00:00:00 | |
| SQ6EMJ | 2026-09-03 14:29:11 | 50.95503 | 15.91802 | 122° | 89km/h | 7997m | 2.8m/s | 0°C | 0% | 0hPa | 0V | 00:00:00 | 00:00:00 | 00:00:00 | |
| SONDE2-11 | 2026-09-03 14:29:07 | 50.95566 | 15.91645 | 121° | 88km/h | 7981m | 1.8m/s | 0°C | -1.0% | -1.0hPa | 0V | 00:00:00 | 00:00:00 | 00:00:00 | |
| SQ6EMJ | 2026-09-03 14:29:05 | 50.95580 | 15.91612 | 126° | 106km/h | 7980m | 2.1m/s | 0°C | 0% | 0hPa | 0V | 00:00:00 | 00:00:00 | 00:00:00 | |
| POL1PZ | 2026-09-03 14:29:00 | 50.95643 | 15.91454 | 125° | 100km/h | 7963m | 1.2m/s | 0°C | 0% | 0hPa | 0V | 00:00:00 | 00:00:00 | 00:00:00 | |
| EDDB2-12 | 2026-09-03 14:28:57 | 50.95691 | 15.91332 | 123° | 86km/h | 7949m | 2.7m/s | 0°C | -1.0% | -1.0hPa | 0V | 00:00:00 | 00:00:00 | 00:00:00 | |
| SP6BVK | 2026-09-03 14:28:52 | 50.95741 | 15.91204 | 123° | 91km/h | 7936m | 5.3m/s | 0°C | 0% | 0hPa | 0V | 00:00:00 | 00:00:00 | 00:00:00 | |
| SQ6EMJ | 2026-09-03 14:28:47 | 50.95802 | 15.91051 | 122° | 93km/h | 7918m | 3.6m/s | 0°C | 0% | 0hPa | 0V | 00:00:00 | 00:00:00 | 00:00:00 | |
| SQ6EMJ | 2026-09-03 14:28:42 | 50.95862 | 15.90897 | 123° | 95km/h | 7902m | 2.1m/s | 0°C | 0% | 0hPa | 0V | 00:00:00 | 00:00:00 | 00:00:00 | |
| EDDB2-11 | 2026-09-03 14:28:41 | 50.95886 | 15.90836 | 119° | 104km/h | 7897m | 3.0m/s | 0°C | -1.0% | -1.0hPa | 0V | 00:00:00 | 00:00:00 | 00:00:00 | |
| SONDE2-11 | 2026-09-03 14:28:36 | 50.95971 | 15.90623 | 119° | 82km/h | 7873m | 1.5m/s | 0°C | -1.0% | -1.0hPa | 0V | 00:00:00 | 00:00:00 | 00:00:00 | |
| POL1PZ | 2026-09-03 14:28:33 | 50.95971 | 15.90623 | 121° | 84km/h | 7874m | 1.5m/s | 0°C | 0% | 0hPa | 0V | 00:00:00 | 00:00:00 | 00:00:00 | |
| SP6BVK | 2026-09-03 14:28:31 | 50.95995 | 15.90561 | 121° | 75km/h | 7870m | 3.5m/s | 0°C | 0% | 0hPa | 0V | 00:00:00 | 00:00:00 | 00:00:00 | |
| SQ6EMJ | 2026-09-03 14:28:29 | 50.96019 | 15.90501 | 124° | 89km/h | 7862m | 3.3m/s | 0°C | 0% | 0hPa | 0V | 00:00:00 | 00:00:00 | 00:00:00 | |
| EDDB2-12 | 2026-09-03 14:28:26 | 50.96077 | 15.90347 | 120° | 91km/h | 7846m | 2.4m/s | 0°C | -1.0% | -1.0hPa | 0V | 00:00:00 | 00:00:00 | 00:00:00 | |
| SP3BTT-10 | 2026-09-03 14:28:23 | 50.96089 | 15.90318 | 126° | 88km/h | 7845m | 0.6m/s | 0°C | 0% | 0hPa | 0V | 00:00:00 | 00:00:00 | 00:00:00 | |
| SQ6EMJ | 2026-09-03 14:28:15 | 50.96183 | 15.90073 | 125° | 88km/h | 7818m | 3.8m/s | 0°C | 0% | 0hPa | 0V | 00:00:00 | 00:00:00 | 00:00:00 | |
| SP6BVK | 2026-09-03 14:28:11 | 50.96229 | 15.89951 | 124° | 82km/h | 7807m | 4.1m/s | 0°C | 0% | 0hPa | 0V | 00:00:00 | 00:00:00 | 00:00:00 | |
| POL1PZ | 2026-09-03 14:28:09 | 50.96252 | 15.89891 | 119° | 89km/h | 7800m | 1.7m/s | 0°C | 0% | 0hPa | 0V | 00:00:00 | 00:00:00 | 00:00:00 | |
| SONDE2-11 | 2026-09-03 14:28:05 | 50.96311 | 15.89739 | 117° | 89km/h | 7785m | 1.9m/s | 0°C | -1.0% | -1.0hPa | 0V | 00:00:00 | 00:00:00 | 00:00:00 | |
| SQ6EMJ | 2026-09-03 14:28:04 | 50.96311 | 15.89739 | 118° | 89km/h | 7785m | 1.9m/s | 0°C | 0% | 0hPa | 0V | 00:00:00 | 00:00:00 | 00:00:00 | |
| EDDB2-12 | 2026-09-03 14:27:55 | 50.96430 | 15.89435 | 117° | 95km/h | 7757m | 1.0m/s | 0°C | -1.0% | -1.0hPa | 0V | 00:00:00 | 00:00:00 | 00:00:00 | |
| SQ6EMJ | 2026-09-03 14:27:51 | 50.96464 | 15.89345 | 120° | 91km/h | 7747m | 2.6m/s | 0°C | 0% | 0hPa | 0V | 00:00:00 | 00:00:00 | 00:00:00 | |
| SP6BVK | 2026-09-03 14:27:50 | 50.96475 | 15.89315 | 120° | 82km/h | 7745m | 1.0m/s | 0°C | 0% | 0hPa | 0V | 00:00:00 | 00:00:00 | 00:00:00 | |
| SQ6EMJ | 2026-09-03 14:27:45 | 50.96534 | 15.89163 | 121° | 80km/h | 7732m | 1.2m/s | 0°C | 0% | 0hPa | 0V | 00:00:00 | 00:00:00 | 00:00:00 | |
| EDDB2-11 | 2026-09-03 14:27:39 | 50.96642 | 15.88892 | 126° | 89km/h | 7704m | 1.7m/s | 0°C | -1.0% | -1.0hPa | 0V | 00:00:00 | 00:00:00 | 00:00:00 | |
| POL1PZ | 2026-09-03 14:27:35 | 50.96653 | 15.88862 | 114° | 86km/h | 7701m | 2.1m/s | 0°C | 0% | 0hPa | 0V | 00:00:00 | 00:00:00 | 00:00:00 | |
| SONDE2-11 | 2026-09-03 14:27:34 | 50.96687 | 15.88770 | 122° | 89km/h | 7692m | 4.2m/s | 0°C | -1.0% | -1.0hPa | 0V | 00:00:00 | 00:00:00 | 00:00:00 | |
| SQ6EMJ | 2026-09-03 14:27:32 | 50.96687 | 15.88770 | 123° | 89km/h | 7692m | 4.2m/s | 0°C | 0% | 0hPa | 0V | 00:00:00 | 00:00:00 | 00:00:00 | |
| SP6BVK | 2026-09-03 14:27:29 | 50.96723 | 15.88682 | 129° | 100km/h | 7684m | 3.3m/s | 0°C | 0% | 0hPa | 0V | 00:00:00 | 00:00:00 | 00:00:00 | |
| SQ6EMJ | 2026-09-03 14:27:28 | 50.96746 | 15.88623 | 124° | 86km/h | 7676m | 2.2m/s | 0°C | 0% | 0hPa | 0V | 00:00:00 | 00:00:00 | 00:00:00 | |
| SP3BTT-10 | 2026-09-03 14:27:26 | 50.96758 | 15.88593 | 119° | 89km/h | 7674m | 1.1m/s | 0°C | 0% | 0hPa | 0V | 00:00:00 | 00:00:00 | 00:00:00 | |
| EDDB2-12 | 2026-09-03 14:27:24 | 50.96806 | 15.88476 | 125° | 89km/h | 7661m | 2.5m/s | 0°C | -1.0% | -1.0hPa | 0V | 00:00:00 | 00:00:00 | 00:00:00 | |
| SQ6EMJ | 2026-09-03 14:27:22 | 50.96806 | 15.88476 | 126° | 91km/h | 7662m | 2.5m/s | 0°C | 0% | 0hPa | 0V | 00:00:00 | 00:00:00 | 00:00:00 | |
| SQ6EMJ | 2026-09-03 14:27:17 | 50.96867 | 15.88325 | 125° | 84km/h | 7647m | 1.7m/s | 0°C | 0% | 0hPa | 0V | 00:00:00 | 00:00:00 | 00:00:00 | |
| OK1ALN | 2026-09-03 14:27:12 | 50.96928 | 15.88175 | 122° | 84km/h | 7632m | 1.7m/s | 0°C | 0% | 0hPa | 0V | 00:00:00 | 00:00:00 | 00:00:00 | |
| POL1PZ | 2026-09-03 14:27:11 | 50.96940 | 15.88144 | 126° | 100km/h | 7630m | 1.4m/s | 0°C | 0% | 0hPa | 0V | 00:00:00 | 00:00:00 | 00:00:00 | |
| SP6BVK | 2026-09-03 14:27:09 | 50.96964 | 15.88086 | 125° | 99km/h | 7625m | 4.9m/s | 0°C | 0% | 0hPa | 0V | 00:00:00 | 00:00:00 | 00:00:00 | |
| EDDB2-11 | 2026-09-03 14:27:08 | 50.96989 | 15.88026 | 120° | 84km/h | 7617m | 1.8m/s | 0°C | -1.0% | -1.0hPa | 0V | 00:00:00 | 00:00:00 | 00:00:00 | |
| SQ6EMJ | 2026-09-03 14:27:06 | 50.97002 | 15.87995 | 130° | 99km/h | 7616m | 1.0m/s | 0°C | 0% | 0hPa | 0V | 00:00:00 | 00:00:00 | 00:00:00 | |
| EDDB2-12 | 2026-09-03 14:26:53 | 50.97222 | 15.87470 | 117° | 77km/h | 7563m | 1.6m/s | 0°C | -1.0% | -1.0hPa | 0V | 00:00:00 | 00:00:00 | 00:00:00 | |
| SQ6EMJ | 2026-09-03 14:26:49 | 50.97210 | 15.87499 | 126° | 93km/h | 7565m | 1.9m/s | 0°C | 0% | 0hPa | 0V | 00:00:00 | 00:00:00 | 00:00:00 | |
| SP6BVK | 2026-09-03 14:26:48 | 50.97222 | 15.87469 | 119° | 78km/h | 7564m | 1.6m/s | 0°C | 0% | 0hPa | 0V | 00:00:00 | 00:00:00 | 00:00:00 | |
| POL1PZ | 2026-09-03 14:26:43 | 50.97282 | 15.87321 | 117° | 88km/h | 7549m | 0.7m/s | 0°C | 0% | 0hPa | 0V | 00:00:00 | 00:00:00 | 00:00:00 | |
| SP3BTT-10 | 2026-09-03 14:26:38 | 50.97341 | 15.87175 | 117° | 89km/h | 7534m | 0.7m/s | 0°C | 0% | 0hPa | 0V | 00:00:00 | 00:00:00 | 00:00:00 | |
| EDDB2-11 | 2026-09-03 14:26:36 | 50.97391 | 15.87059 | 127° | 93km/h | 7522m | 1.2m/s | 0°C | -1.0% | -1.0hPa | 0V | 00:00:00 | 00:00:00 | 00:00:00 | |
| SQ6EMJ | 2026-09-03 14:26:33 | 50.97403 | 15.87031 | 123° | 75km/h | 7521m | 0.3m/s | 0°C | 0% | 0hPa | 0V | 00:00:00 | 00:00:00 | 00:00:00 | |
| SONDE2-11 | 2026-09-03 14:26:32 | 50.97441 | 15.86944 | 127° | 80km/h | 7511m | 2.0m/s | 0°C | -1.0% | -1.0hPa | 0V | 00:00:00 | 00:00:00 | 00:00:00 | |
| SP6BVK | 2026-09-03 14:26:27 | 50.97478 | 15.86858 | 121° | 97km/h | 7504m | 4.2m/s | 0°C | 0% | 0hPa | 0V | 00:00:00 | 00:00:00 | 00:00:00 | |
| SQ6EMJ | 2026-09-03 14:26:26 | 50.97490 | 15.86828 | 123° | 82km/h | 7501m | 3.3m/s | 0°C | 0% | 0hPa | 0V | 00:00:00 | 00:00:00 | 00:00:00 | |
| EDDB2-12 | 2026-09-03 14:26:22 | 50.97549 | 15.86685 | 123° | 82km/h | 7488m | 3.5m/s | 0°C | -1.0% | -1.0hPa | 0V | 00:00:00 | 00:00:00 | 00:00:00 | |
| SQ6EMJ | 2026-09-03 14:26:21 | 50.97549 | 15.86685 | 124° | 84km/h | 7488m | 3.5m/s | 0°C | 0% | 0hPa | 0V | 00:00:00 | 00:00:00 | 00:00:00 | |
| POL1PZ | 2026-09-03 14:26:15 | 50.97621 | 15.86511 | 127° | 93km/h | 7470m | 1.9m/s | 0°C | 0% | 0hPa | 0V | 00:00:00 | 00:00:00 | 00:00:00 | |
| SQ6EMJ | 2026-09-03 14:26:10 | 50.97679 | 15.86362 | 121° | 91km/h | 7456m | 1.6m/s | 0°C | 0% | 0hPa | 0V | 00:00:00 | 00:00:00 | 00:00:00 | |
| SP6BVK | 2026-09-03 14:26:07 | 50.97714 | 15.86275 | 122° | 78km/h | 7448m | 4.5m/s | 0°C | 0% | 0hPa | 0V | 00:00:00 | 00:00:00 | 00:00:00 | |
| SQ6EMJ | 2026-09-03 14:26:05 | 50.97737 | 15.86217 | 119° | 89km/h | 7442m | 1.5m/s | 0°C | 0% | 0hPa | 0V | 00:00:00 | 00:00:00 | 00:00:00 | |
| SQ6EMJ | 2026-09-03 14:26:00 | 50.97795 | 15.86068 | 119° | 88km/h | 7427m | 2.1m/s | 0°C | 0% | 0hPa | 0V | 00:00:00 | 00:00:00 | 00:00:00 | |
| EDDB2-12 | 2026-09-03 14:25:51 | 50.97908 | 15.85775 | 120° | 77km/h | 7398m | 0.9m/s | 0°C | -1.0% | -1.0hPa | 0V | 00:00:00 | 00:00:00 | 00:00:00 | |
| OK1ALN | 2026-09-03 14:25:50 | 50.97908 | 15.85775 | 121° | 77km/h | 7398m | 0.9m/s | 0°C | 0% | 0hPa | 0V | 00:00:00 | 00:00:00 | 00:00:00 | |
| SQ6EMJ | 2026-09-03 14:25:49 | 50.97920 | 15.85744 | 124° | 100km/h | 7397m | 1.6m/s | 0°C | 0% | 0hPa | 0V | 00:00:00 | 00:00:00 | 00:00:00 | |
| SP6BVK | 2026-09-03 14:25:47 | 50.97942 | 15.85688 | 125° | 88km/h | 7389m | 5.3m/s | 0°C | 0% | 0hPa | 0V | 00:00:00 | 00:00:00 | 00:00:00 | |
| POL1PZ | 2026-09-03 14:25:45 | 50.97964 | 15.85629 | 125° | 75km/h | 7383m | 1.1m/s | 0°C | 0% | 0hPa | 0V | 00:00:00 | 00:00:00 | 00:00:00 | |
| SQ6EMJ | 2026-09-03 14:25:41 | 50.98009 | 15.85510 | 119° | 88km/h | 7369m | 2.7m/s | 0°C | 0% | 0hPa | 0V | 00:00:00 | 00:00:00 | 00:00:00 | |
| SP3BTT-10 | 2026-09-03 14:25:40 | 50.98021 | 15.85481 | 128° | 89km/h | 7367m | 1.2m/s | 0°C | 0% | 0hPa | 0V | 00:00:00 | 00:00:00 | 00:00:00 | |
| SQ6EMJ | 2026-09-03 14:25:36 | 50.98066 | 15.85360 | 120° | 88km/h | 7355m | 2.0m/s | 0°C | 0% | 0hPa | 0V | 00:00:00 | 00:00:00 | 00:00:00 | |
| EDDB2-11 | 2026-09-03 14:25:34 | 50.98090 | 15.85298 | 112° | 88km/h | 7351m | 1.1m/s | 0°C | -1.0% | -1.0hPa | 0V | 00:00:00 | 00:00:00 | 00:00:00 | |
| SQ6EMJ | 2026-09-03 14:25:30 | 50.98137 | 15.85179 | 130° | 91km/h | 7340m | 1.8m/s | 0°C | 0% | 0hPa | 0V | 00:00:00 | 00:00:00 | 00:00:00 | |
| SONDE2-11 | 2026-09-03 14:25:29 | 50.98149 | 15.85149 | 114° | 86km/h | 7336m | 4.7m/s | 0°C | -1.0% | -1.0hPa | 0V | 00:00:00 | 00:00:00 | 00:00:00 | |
| SQ6EMJ | 2026-09-03 14:25:25 | 50.98192 | 15.85027 | 118° | 86km/h | 7324m | 2.3m/s | 0°C | 0% | 0hPa | 0V | 00:00:00 | 00:00:00 | 00:00:00 | |
| SQ6EMJ | 2026-09-03 14:25:20 | 50.98250 | 15.84875 | 123° | 88km/h | 7311m | 2.3m/s | 0°C | 0% | 0hPa | 0V | 00:00:00 | 00:00:00 | 00:00:00 | |
| POL1PZ | 2026-09-03 14:25:19 | 50.98260 | 15.84843 | 112° | 89km/h | 7309m | 1.5m/s | 0°C | 0% | 0hPa | 0V | 00:00:00 | 00:00:00 | 00:00:00 | |
| SQ6EMJ | 2026-09-03 14:25:15 | 50.98303 | 15.84717 | 120° | 89km/h | 7298m | 3.2m/s | 0°C | 0% | 0hPa | 0V | 00:00:00 | 00:00:00 | 00:00:00 | |
| SQ6EMJ | 2026-09-03 14:25:09 | 50.98368 | 15.84528 | 117° | 88km/h | 7281m | 2.8m/s | 0°C | 0% | 0hPa | 0V | 00:00:00 | 00:00:00 | 00:00:00 | |
| SP6BVK | 2026-09-03 14:25:06 | 50.98399 | 15.84436 | 118° | 88km/h | 7272m | 3.7m/s | 0°C | 0% | 0hPa | 0V | 00:00:00 | 00:00:00 | 00:00:00 | |
| SQ6EMJ | 2026-09-03 14:25:04 | 50.98422 | 15.84375 | 113° | 84km/h | 7266m | 4.5m/s | 0°C | 0% | 0hPa | 0V | 00:00:00 | 00:00:00 | 00:00:00 | |
| EDDB2-11 | 2026-09-03 14:25:03 | 50.98431 | 15.84344 | 118° | 86km/h | 7262m | 3.0m/s | 0°C | -1.0% | -1.0hPa | 0V | 00:00:00 | 00:00:00 | 00:00:00 | |
| SONDE2-11 | 2026-09-03 14:24:58 | 50.98499 | 15.84162 | 126° | 84km/h | 7246m | 1.8m/s | 0°C | -1.0% | -1.0hPa | 0V | 00:00:00 | 00:00:00 | 00:00:00 | |
| EDDB2-12 | 2026-09-03 14:24:48 | 50.98600 | 15.83892 | 123° | 93km/h | 7217m | 1.6m/s | 0°C | -1.0% | -1.0hPa | 0V | 00:00:00 | 00:00:00 | 00:00:00 | |
| SP6BVK | 2026-09-03 14:24:46 | 50.98622 | 15.83834 | 122° | 102km/h | 7212m | 4.9m/s | 0°C | 0% | 0hPa | 0V | 00:00:00 | 00:00:00 | 00:00:00 | |
| SQ6EMJ | 2026-09-03 14:24:42 | 50.98668 | 15.83715 | 120° | 75km/h | 7198m | 1.0m/s | 0°C | 0% | 0hPa | 0V | 00:00:00 | 00:00:00 | 00:00:00 | |
| SQ6EMJ | 2026-09-03 14:24:33 | 50.98775 | 15.83457 | 125° | 97km/h | 7168m | 0.4m/s | 0°C | 0% | 0hPa | 0V | 00:00:00 | 00:00:00 | 00:00:00 | |
| EDDB2-11 | 2026-09-03 14:24:32 | 50.98811 | 15.83375 | 124° | 86km/h | 7157m | 3.1m/s | 0°C | -1.0% | -1.0hPa | 0V | 00:00:00 | 00:00:00 | 00:00:00 | |
| SQ6EMJ | 2026-09-03 14:24:27 | 50.98848 | 15.83290 | 123° | 73km/h | 7150m | 3.9m/s | 0°C | 0% | 0hPa | 0V | 00:00:00 | 00:00:00 | 00:00:00 | |
| SP6BVK | 2026-09-03 14:24:25 | 50.98873 | 15.83233 | 126° | 88km/h | 7141m | 4.8m/s | 0°C | 0% | 0hPa | 0V | 00:00:00 | 00:00:00 | 00:00:00 | |
| SQ6EMJ | 2026-09-03 14:24:20 | 50.98935 | 15.83092 | 124° | 80km/h | 7126m | 4.4m/s | 0°C | 0% | 0hPa | 0V | 00:00:00 | 00:00:00 | 00:00:00 | |
| EDDB2-12 | 2026-09-03 14:24:17 | 50.98972 | 15.83009 | 134° | 77km/h | 7118m | 1.8m/s | 0°C | -1.0% | -1.0hPa | 0V | 00:00:00 | 00:00:00 | 00:00:00 | |
| SQ6EMJ | 2026-09-03 14:24:14 | 50.99009 | 15.82924 | 129° | 88km/h | 7106m | 3.1m/s | 0°C | 0% | 0hPa | 0V | 00:00:00 | 00:00:00 | 00:00:00 | |
| SQ6EMJ | 2026-09-03 14:24:09 | 50.99074 | 15.82785 | 124° | 89km/h | 7090m | 4.5m/s | 0°C | 0% | 0hPa | 0V | 00:00:00 | 00:00:00 | 00:00:00 | |
| SP6BVK | 2026-09-03 14:24:05 | 50.99125 | 15.82674 | 127° | 97km/h | 7079m | 5.2m/s | 0°C | 0% | 0hPa | 0V | 00:00:00 | 00:00:00 | 00:00:00 | |
| SQ6EMJ | 2026-09-03 14:24:04 | 50.99150 | 15.82617 | 127° | 82km/h | 7071m | 2.6m/s | 0°C | 0% | 0hPa | 0V | 00:00:00 | 00:00:00 | 00:00:00 | |
| EDDB2-11 | 2026-09-03 14:24:01 | 50.99215 | 15.82476 | 124° | 80km/h | 7055m | 2.7m/s | 0°C | -1.0% | -1.0hPa | 0V | 00:00:00 | 00:00:00 | 00:00:00 | |
| SONDE2-11 | 2026-09-03 14:23:56 | 50.99254 | 15.82393 | 130° | 95km/h | 7047m | 5.8m/s | 0°C | -1.0% | -1.0hPa | 0V | 00:00:00 | 00:00:00 | 00:00:00 | |
| EDDB2-12 | 2026-09-03 14:23:46 | 50.99381 | 15.82112 | 126° | 88km/h | 7013m | 3.6m/s | 0°C | -1.0% | -1.0hPa | 0V | 00:00:00 | 00:00:00 | 00:00:00 | |
| SP6BVK | 2026-09-03 14:23:45 | 50.99381 | 15.82112 | 128° | 89km/h | 7013m | 3.6m/s | 0°C | 0% | 0hPa | 0V | 00:00:00 | 00:00:00 | 00:00:00 | |
| SQ6EMJ | 2026-09-03 14:23:43 | 50.99407 | 15.82056 | 135° | 88km/h | 7009m | 0.9m/s | 0°C | 0% | 0hPa | 0V | 00:00:00 | 00:00:00 | 00:00:00 | |
| POL1PZ | 2026-09-03 14:23:39 | 50.99457 | 15.81942 | 122° | 91km/h | 6995m | 0.9m/s | 0°C | 0% | 0hPa | 0V | 00:00:00 | 00:00:00 | 00:00:00 | |
| SQ6EMJ | 2026-09-03 14:23:35 | 50.99509 | 15.81831 | 126° | 80km/h | 6981m | 2.7m/s | 0°C | 0% | 0hPa | 0V | 00:00:00 | 00:00:00 | 00:00:00 | |
| EDDB2-11 | 2026-09-03 14:23:30 | 50.99587 | 15.81665 | 129° | 95km/h | 6962m | 1.6m/s | 0°C | -1.0% | -1.0hPa | 0V | 00:00:00 | 00:00:00 | 00:00:00 | |
| SQ6EMJ | 2026-09-03 14:23:29 | 50.99586 | 15.81665 | 131° | 95km/h | 6962m | 1.6m/s | 0°C | 0% | 0hPa | 0V | 00:00:00 | 00:00:00 | 00:00:00 | |
| SONDE2-11 | 2026-09-03 14:23:25 | 50.99651 | 15.81530 | 134° | 80km/h | 6944m | 2.6m/s | 0°C | -1.0% | -1.0hPa | 0V | 00:00:00 | 00:00:00 | 00:00:00 | |
| SP6BVK | 2026-09-03 14:23:24 | 50.99651 | 15.81530 | 136° | 80km/h | 6945m | 2.6m/s | 0°C | 0% | 0hPa | 0V | 00:00:00 | 00:00:00 | 00:00:00 | |
| SQ6EMJ | 2026-09-03 14:23:19 | 50.99713 | 15.81398 | 128° | 71km/h | 6924m | 1.7m/s | 0°C | 0% | 0hPa | 0V | 00:00:00 | 00:00:00 | 00:00:00 | |
| EDDB2-12 | 2026-09-03 14:23:15 | 50.99763 | 15.81296 | 130° | 84km/h | 6906m | 4.2m/s | 0°C | -1.0% | -1.0hPa | 0V | 00:00:00 | 00:00:00 | 00:00:00 | |
| SQ6EMJ | 2026-09-03 14:23:13 | 50.99788 | 15.81245 | 133° | 89km/h | 6901m | 1.6m/s | 0°C | 0% | 0hPa | 0V | 00:00:00 | 00:00:00 | 00:00:00 | |
| SQ6EMJ | 2026-09-03 14:23:05 | 50.99886 | 15.81045 | 130° | 73km/h | 6870m | 4.4m/s | 0°C | 0% | 0hPa | 0V | 00:00:00 | 00:00:00 | 00:00:00 | |
| SP6BVK | 2026-09-03 14:23:03 | 50.99910 | 15.80996 | 139° | 75km/h | 6866m | 1.4m/s | 0°C | 0% | 0hPa | 0V | 00:00:00 | 00:00:00 | 00:00:00 | |
| SQ6EMJ | 2026-09-03 14:23:01 | 50.99947 | 15.80922 | 130° | 75km/h | 6852m | 5.2m/s | 0°C | 0% | 0hPa | 0V | 00:00:00 | 00:00:00 | 00:00:00 | |
| EDDB2-11 | 2026-09-03 14:22:59 | 51.00011 | 15.80801 | 130° | 75km/h | 6831m | 3.8m/s | 0°C | -1.0% | -1.0hPa | 0V | 00:00:00 | 00:00:00 | 00:00:00 | |
| SONDE2-11 | 2026-09-03 14:22:54 | 51.00036 | 15.80753 | 138° | 66km/h | 6828m | 1.5m/s | 0°C | -1.0% | -1.0hPa | 0V | 00:00:00 | 00:00:00 | 00:00:00 | |
| EDDB2-12 | 2026-09-03 14:22:44 | 51.00164 | 15.80513 | 133° | 69km/h | 6789m | 2.1m/s | 0°C | -1.0% | -1.0hPa | 0V | 00:00:00 | 00:00:00 | 00:00:00 | |
| SQ6EMJ | 2026-09-03 14:22:43 | 51.00164 | 15.80513 | 135° | 71km/h | 6789m | 2.1m/s | 0°C | 0% | 0hPa | 0V | 00:00:00 | 00:00:00 | 00:00:00 | |
| SP6BVK | 2026-09-03 14:22:41 | 51.00190 | 15.80462 | 135° | 66km/h | 6783m | 6.0m/s | 0°C | 0% | 0hPa | 0V | 00:00:00 | 00:00:00 | 00:00:00 | |
| SQ6EMJ | 2026-09-03 14:22:34 | 51.00278 | 15.80299 | 134° | 75km/h | 6757m | 3.5m/s | 0°C | 0% | 0hPa | 0V | 00:00:00 | 00:00:00 | 00:00:00 | |
| SQ6EMJ | 2026-09-03 14:22:29 | 51.00341 | 15.80179 | 131° | 73km/h | 6740m | 3.6m/s | 0°C | 0% | 0hPa | 0V | 00:00:00 | 00:00:00 | 00:00:00 | |
| EDDB2-11 | 2026-09-03 14:22:28 | 51.00368 | 15.80133 | 125° | 89km/h | 6733m | 4.0m/s | 0°C | -1.0% | -1.0hPa | 0V | 00:00:00 | 00:00:00 | 00:00:00 | |
| SQ6EMJ | 2026-09-03 14:22:23 | 51.00418 | 15.80035 | 132° | 82km/h | 6718m | 3.8m/s | 0°C | 0% | 0hPa | 0V | 00:00:00 | 00:00:00 | 00:00:00 | |
| SP6BVK | 2026-09-03 14:22:20 | 51.00456 | 15.79965 | 126° | 82km/h | 6708m | 2.1m/s | 0°C | 0% | 0hPa | 0V | 00:00:00 | 00:00:00 | 00:00:00 | |
| SQ6EMJ | 2026-09-03 14:22:18 | 51.00483 | 15.79922 | 132° | 75km/h | 6701m | 4.4m/s | 0°C | 0% | 0hPa | 0V | 00:00:00 | 00:00:00 | 00:00:00 | |
| EDDB2-12 | 2026-09-03 14:22:13 | 51.00559 | 15.79785 | 131° | 71km/h | 6679m | 3.6m/s | 0°C | -1.0% | -1.0hPa | 0V | 00:00:00 | 00:00:00 | 00:00:00 | |
| SQ6EMJ | 2026-09-03 14:22:12 | 51.00559 | 15.79784 | 132° | 73km/h | 6679m | 3.6m/s | 0°C | 0% | 0hPa | 0V | 00:00:00 | 00:00:00 | 00:00:00 | |
| SQ6EMJ | 2026-09-03 14:22:06 | 51.00634 | 15.79644 | 133° | 69km/h | 6659m | 1.9m/s | 0°C | 0% | 0hPa | 0V | 00:00:00 | 00:00:00 | 00:00:00 | |
| SP6BVK | 2026-09-03 14:22:00 | 51.00710 | 15.79508 | 141° | 64km/h | 6639m | 1.1m/s | 0°C | 0% | 0hPa | 0V | 00:00:00 | 00:00:00 | 00:00:00 | |
| EDDB2-11 | 2026-09-03 14:21:57 | 51.00759 | 15.79421 | 124° | 78km/h | 6625m | 6.1m/s | 0°C | -1.0% | -1.0hPa | 0V | 00:00:00 | 00:00:00 | 00:00:00 | |
| SONDE2-11 | 2026-09-03 14:21:52 | 51.00821 | 15.79311 | 141° | 75km/h | 6608m | 1.7m/s | 0°C | -1.0% | -1.0hPa | 0V | 00:00:00 | 00:00:00 | 00:00:00 | |
| SQ6EMJ | 2026-09-03 14:21:49 | 51.00857 | 15.79247 | 139° | 77km/h | 6596m | 2.4m/s | 0°C | 0% | 0hPa | 0V | 00:00:00 | 00:00:00 | 00:00:00 | |
| SQ6EMJ | 2026-09-03 14:21:43 | 51.00929 | 15.79119 | 124° | 64km/h | 6576m | 2.6m/s | 0°C | 0% | 0hPa | 0V | 00:00:00 | 00:00:00 | 00:00:00 | |
| EDDB2-12 | 2026-09-03 14:21:42 | 51.00941 | 15.79099 | 140° | 77km/h | 6573m | 2.8m/s | 0°C | -1.0% | -1.0hPa | 0V | 00:00:00 | 00:00:00 | 00:00:00 | |
| SP6BVK | 2026-09-03 14:21:39 | 51.00965 | 15.79056 | 132° | 71km/h | 6564m | 4.4m/s | 0°C | 0% | 0hPa | 0V | 00:00:00 | 00:00:00 | 00:00:00 | |
| SQ6EMJ | 2026-09-03 14:21:34 | 51.01025 | 15.78949 | 133° | 71km/h | 6547m | 4.8m/s | 0°C | 0% | 0hPa | 0V | 00:00:00 | 00:00:00 | 00:00:00 | |
| SQ6EMJ | 2026-09-03 14:21:28 | 51.01095 | 15.78827 | 134° | 71km/h | 6526m | 4.0m/s | 0°C | 0% | 0hPa | 0V | 00:00:00 | 00:00:00 | 00:00:00 | |
| EDDB2-11 | 2026-09-03 14:21:26 | 51.01130 | 15.78766 | 121° | 58km/h | 6517m | 4.5m/s | 0°C | -1.0% | -1.0hPa | 0V | 00:00:00 | 00:00:00 | 00:00:00 | |
| SQ6EMJ | 2026-09-03 14:21:22 | 51.01163 | 15.78705 | 126° | 60km/h | 6506m | 1.2m/s | 0°C | 0% | 0hPa | 0V | 00:00:00 | 00:00:00 | 00:00:00 | |
| SONDE2-11 | 2026-09-03 14:21:21 | 51.01187 | 15.78665 | 128° | 58km/h | 6498m | 5.3m/s | 0°C | -1.0% | -1.0hPa | 0V | 00:00:00 | 00:00:00 | 00:00:00 | |
| SP6BVK | 2026-09-03 14:21:19 | 51.01197 | 15.78645 | 132° | 66km/h | 6493m | 4.4m/s | 0°C | 0% | 0hPa | 0V | 00:00:00 | 00:00:00 | 00:00:00 | |
| SQ6EMJ | 2026-09-03 14:21:13 | 51.01264 | 15.78528 | 129° | 69km/h | 6473m | 3.0m/s | 0°C | 0% | 0hPa | 0V | 00:00:00 | 00:00:00 | 00:00:00 | |
| EDDB2-12 | 2026-09-03 14:21:11 | 51.01297 | 15.78470 | 141° | 57km/h | 6465m | 5.4m/s | 0°C | -1.0% | -1.0hPa | 0V | 00:00:00 | 00:00:00 | 00:00:00 | |
| SQ6EMJ | 2026-09-03 14:21:07 | 51.01330 | 15.78414 | 140° | 60km/h | 6454m | 2.2m/s | 0°C | 0% | 0hPa | 0V | 00:00:00 | 00:00:00 | 00:00:00 | |
| SQ6EMJ | 2026-09-03 14:21:01 | 51.01395 | 15.78298 | 123° | 69km/h | 6433m | 1.9m/s | 0°C | 0% | 0hPa | 0V | 00:00:00 | 00:00:00 | 00:00:00 | |
| EDDB2-11 | 2026-09-03 14:20:55 | 51.01493 | 15.78123 | 135° | 68km/h | 6400m | 2.7m/s | 0°C | -1.0% | -1.0hPa | 0V | 00:00:00 | 00:00:00 | 00:00:00 | |
| SONDE2-11 | 2026-09-03 14:20:50 | 51.01537 | 15.78043 | 138° | 62km/h | 6389m | 5.0m/s | 0°C | -1.0% | -1.0hPa | 0V | 00:00:00 | 00:00:00 | 00:00:00 | |
| SQ6EMJ | 2026-09-03 14:20:45 | 51.01571 | 15.77986 | 143° | 68km/h | 6379m | 1.6m/s | 0°C | 0% | 0hPa | 0V | 00:00:00 | 00:00:00 | 00:00:00 | |
| EDDB2-12 | 2026-09-03 14:20:40 | 51.01639 | 15.77868 | 120° | 62km/h | 6358m | 2.7m/s | 0°C | -1.0% | -1.0hPa | 0V | 00:00:00 | 00:00:00 | 00:00:00 | |
| SP6BVK | 2026-09-03 14:20:38 | 51.01650 | 15.77849 | 144° | 71km/h | 6355m | 4.2m/s | 0°C | 0% | 0hPa | 0V | 00:00:00 | 00:00:00 | 00:00:00 | |
| SQ6EMJ | 2026-09-03 14:20:35 | 51.01685 | 15.77790 | 141° | 69km/h | 6343m | 1.5m/s | 0°C | 0% | 0hPa | 0V | 00:00:00 | 00:00:00 | 00:00:00 | |
| SQ6EMJ | 2026-09-03 14:20:30 | 51.01743 | 15.77692 | 142° | 69km/h | 6326m | 1.5m/s | 0°C | 0% | 0hPa | 0V | 00:00:00 | 00:00:00 | 00:00:00 | |
| EDDB2-11 | 2026-09-03 14:20:24 | 51.01845 | 15.77515 | 134° | 60km/h | 6294m | 2.5m/s | 0°C | -1.0% | -1.0hPa | 0V | 00:00:00 | 00:00:00 | 00:00:00 | |
| SQ6EMJ | 2026-09-03 14:20:21 | 51.01845 | 15.77515 | 135° | 60km/h | 6294m | 2.5m/s | 0°C | 0% | 0hPa | 0V | 00:00:00 | 00:00:00 | 00:00:00 | |
| SP6BVK | 2026-09-03 14:20:18 | 51.01878 | 15.77457 | 133° | 78km/h | 6287m | 5.3m/s | 0°C | 0% | 0hPa | 0V | 00:00:00 | 00:00:00 | 00:00:00 | |
| SQ6EMJ | 2026-09-03 14:20:15 | 51.01913 | 15.77397 | 134° | 73km/h | 6274m | 2.3m/s | 0°C | 0% | 0hPa | 0V | 00:00:00 | 00:00:00 | 00:00:00 | |
| EDDB2-12 | 2026-09-03 14:20:09 | 51.01993 | 15.77264 | 127° | 77km/h | 6251m | 2.3m/s | 0°C | -1.0% | -1.0hPa | 0V | 00:00:00 | 00:00:00 | 00:00:00 | |
| SQ6EMJ | 2026-09-03 14:20:05 | 51.02027 | 15.77206 | 130° | 68km/h | 6239m | 3.3m/s | 0°C | 0% | 0hPa | 0V | 00:00:00 | 00:00:00 | 00:00:00 | |
| EDDB2-11 | 2026-09-03 14:19:53 | 51.02172 | 15.76951 | 140° | 71km/h | 6196m | 1.6m/s | 0°C | -1.0% | -1.0hPa | 0V | 00:00:00 | 00:00:00 | 00:00:00 | |
| SONDE2-11 | 2026-09-03 14:19:48 | 51.02229 | 15.76853 | 134° | 77km/h | 6180m | 1.4m/s | 0°C | -1.0% | -1.0hPa | 0V | 00:00:00 | 00:00:00 | 00:00:00 | |
| SQ6EMJ | 2026-09-03 14:19:47 | 51.02229 | 15.76853 | 135° | 78km/h | 6180m | 1.4m/s | 0°C | 0% | 0hPa | 0V | 00:00:00 | 00:00:00 | 00:00:00 | |
| EDDB2-12 | 2026-09-03 14:19:38 | 51.02342 | 15.76659 | 138° | 71km/h | 6146m | 1.6m/s | 0°C | -1.0% | -1.0hPa | 0V | 00:00:00 | 00:00:00 | 00:00:00 | |
| SP6BVK | 2026-09-03 14:19:37 | 51.02342 | 15.76659 | 140° | 71km/h | 6146m | 1.6m/s | 0°C | 0% | 0hPa | 0V | 00:00:00 | 00:00:00 | 00:00:00 | |
| SQ6EMJ | 2026-09-03 14:19:33 | 51.02386 | 15.76582 | 130° | 73km/h | 6131m | 3.1m/s | 0°C | 0% | 0hPa | 0V | 00:00:00 | 00:00:00 | 00:00:00 | |
| SQ6EMJ | 2026-09-03 14:19:27 | 51.02453 | 15.76466 | 134° | 57km/h | 6111m | 2.9m/s | 0°C | 0% | 0hPa | 0V | 00:00:00 | 00:00:00 | 00:00:00 | |
| EDDB2-11 | 2026-09-03 14:19:22 | 51.02520 | 15.76354 | 138° | 68km/h | 6091m | 1.1m/s | 0°C | -1.0% | -1.0hPa | 0V | 00:00:00 | 00:00:00 | 00:00:00 | |
| SQ6EMJ | 2026-09-03 14:19:21 | 51.02520 | 15.76353 | 140° | 69km/h | 6091m | 1.1m/s | 0°C | 0% | 0hPa | 0V | 00:00:00 | 00:00:00 | 00:00:00 | |
| SONDE2-11 | 2026-09-03 14:19:17 | 51.02574 | 15.76259 | 138° | 62km/h | 6073m | 1.9m/s | 0°C | -1.0% | -1.0hPa | 0V | 00:00:00 | 00:00:00 | 00:00:00 | |
| SP6BVK | 2026-09-03 14:19:16 | 51.02574 | 15.76258 | 139° | 64km/h | 6073m | 1.9m/s | 0°C | 0% | 0hPa | 0V | 00:00:00 | 00:00:00 | 00:00:00 | |
| SQ6EMJ | 2026-09-03 14:19:10 | 51.02637 | 15.76145 | 123° | 71km/h | 6055m | 1.8m/s | 0°C | 0% | 0hPa | 0V | 00:00:00 | 00:00:00 | 00:00:00 | |
| EDDB2-12 | 2026-09-03 14:19:07 | 51.02680 | 15.76071 | 128° | 57km/h | 6038m | 2.2m/s | 0°C | -1.0% | -1.0hPa | 0V | 00:00:00 | 00:00:00 | 00:00:00 | |
| SQ6EMJ | 2026-09-03 14:19:00 | 51.02744 | 15.75956 | 142° | 66km/h | 6019m | 1.5m/s | 0°C | 0% | 0hPa | 0V | 00:00:00 | 00:00:00 | 00:00:00 | |
| EDDB2-11 | 2026-09-03 14:18:51 | 51.02848 | 15.75766 | 138° | 60km/h | 5981m | 2.0m/s | 0°C | -1.0% | -1.0hPa | 0V | 00:00:00 | 00:00:00 | 00:00:00 | |
| SONDE2-11 | 2026-09-03 14:18:46 | 51.02902 | 15.75671 | 131° | 57km/h | 5964m | 2.8m/s | 0°C | -1.0% | -1.0hPa | 0V | 00:00:00 | 00:00:00 | 00:00:00 | |
| SQ6EMJ | 2026-09-03 14:18:44 | 51.02913 | 15.75651 | 133° | 75km/h | 5962m | 1.7m/s | 0°C | 0% | 0hPa | 0V | 00:00:00 | 00:00:00 | 00:00:00 | |
| EDDB2-12 | 2026-09-03 14:18:36 | 51.03010 | 15.75481 | 132° | 66km/h | 5929m | 5.2m/s | 0°C | -1.0% | -1.0hPa | 0V | 00:00:00 | 00:00:00 | 00:00:00 | |
| SP6BVK | 2026-09-03 14:18:34 | 51.03021 | 15.75463 | 137° | 62km/h | 5924m | 3.1m/s | 0°C | 0% | 0hPa | 0V | 00:00:00 | 00:00:00 | 00:00:00 | |
| SQ6EMJ | 2026-09-03 14:18:28 | 51.03084 | 15.75345 | 129° | 69km/h | 5906m | 1.7m/s | 0°C | 0% | 0hPa | 0V | 00:00:00 | 00:00:00 | 00:00:00 | |
| EDDB2-11 | 2026-09-03 14:18:20 | 51.03193 | 15.75159 | 126° | 64km/h | 5870m | 2.6m/s | 0°C | -1.0% | -1.0hPa | 0V | 00:00:00 | 00:00:00 | 00:00:00 | |
| SQ6EMJ | 2026-09-03 14:18:17 | 51.03203 | 15.75141 | 142° | 55km/h | 5868m | 2.5m/s | 0°C | 0% | 0hPa | 0V | 00:00:00 | 00:00:00 | 00:00:00 | |
| SONDE2-11 | 2026-09-03 14:18:15 | 51.03236 | 15.75084 | 144° | 68km/h | 5858m | 3.2m/s | 0°C | 0% | -1.0hPa | 0V | 00:00:00 | 00:00:00 | 00:00:00 | |
| SP6BVK | 2026-09-03 14:18:13 | 51.03247 | 15.75068 | 132° | 60km/h | 5854m | 4.6m/s | 0°C | 0% | 0hPa | 0V | 00:00:00 | 00:00:00 | 00:00:00 | |
| SQ6EMJ | 2026-09-03 14:18:12 | 51.03257 | 15.75048 | 126° | 64km/h | 5851m | 2.1m/s | 0°C | 0% | 0hPa | 0V | 00:00:00 | 00:00:00 | 00:00:00 | |
| SP3BTT-10 | 2026-09-03 14:18:11 | 51.03268 | 15.75030 | 146° | 57km/h | 5848m | 3.1m/s | 0°C | 0% | 0hPa | 0V | 00:00:00 | 00:00:00 | 00:00:00 | |
| EDDB2-12 | 2026-09-03 14:18:05 | 51.03339 | 15.74903 | 129° | 66km/h | 5822m | 2.4m/s | 0°C | -1.0% | -1.0hPa | 0V | 00:00:00 | 00:00:00 | 00:00:00 | |
| SQ6EMJ | 2026-09-03 14:18:04 | 51.03339 | 15.74903 | 131° | 68km/h | 5823m | 2.4m/s | 0°C | 0% | 0hPa | 0V | 00:00:00 | 00:00:00 | 00:00:00 | |
| EDDB2-11 | 2026-09-03 14:17:49 | 51.03500 | 15.74606 | 137° | 53km/h | 5764m | 2.2m/s | 0°C | -1.0% | -1.0hPa | 0V | 00:00:00 | 00:00:00 | 00:00:00 | |
| SONDE2-11 | 2026-09-03 14:17:44 | 51.03550 | 15.74517 | 134° | 58km/h | 5746m | 3.5m/s | 0°C | -1.0% | -1.0hPa | 0V | 00:00:00 | 00:00:00 | 00:00:00 | |
| SQ6EMJ | 2026-09-03 14:17:37 | 51.03608 | 15.74408 | 124° | 58km/h | 5725m | 1.5m/s | 0°C | 0% | 0hPa | 0V | 00:00:00 | 00:00:00 | 00:00:00 | |
| EDDB2-12 | 2026-09-03 14:17:34 | 51.03647 | 15.74339 | 136° | 57km/h | 5711m | 2.5m/s | 0°C | -1.0% | -1.0hPa | 0V | 00:00:00 | 00:00:00 | 00:00:00 | |
| SP6BVK | 2026-09-03 14:17:32 | 51.03656 | 15.74323 | 126° | 51km/h | 5709m | 1.5m/s | 0°C | 0% | 0hPa | 0V | 00:00:00 | 00:00:00 | 00:00:00 | |
| SQ6EMJ | 2026-09-03 14:17:26 | 51.03714 | 15.74217 | 139° | 66km/h | 5688m | 1.0m/s | 0°C | 0% | 0hPa | 0V | 00:00:00 | 00:00:00 | 00:00:00 | |
| SQ6EMJ | 2026-09-03 14:17:20 | 51.03769 | 15.74114 | 120° | 64km/h | 5669m | 2.6m/s | 0°C | 0% | 0hPa | 0V | 00:00:00 | 00:00:00 | 00:00:00 | |
| EDDB2-11 | 2026-09-03 14:17:18 | 51.03797 | 15.74061 | 128° | 58km/h | 5656m | 4.0m/s | 0°C | -1.0% | -1.0hPa | 0V | 00:00:00 | 00:00:00 | 00:00:00 | |
| SQ6EMJ | 2026-09-03 14:17:15 | 51.03815 | 15.74025 | 121° | 62km/h | 5651m | 1.4m/s | 0°C | 0% | 0hPa | 0V | 00:00:00 | 00:00:00 | 00:00:00 | |
| SONDE2-11 | 2026-09-03 14:17:13 | 51.03842 | 15.73972 | 127° | 55km/h | 5639m | 5.3m/s | 0°C | -1.0% | -1.0hPa | 0V | 00:00:00 | 00:00:00 | 00:00:00 | |
| SP6BVK | 2026-09-03 14:17:11 | 51.03850 | 15.73955 | 130° | 53km/h | 5635m | 3.1m/s | 0°C | 0% | 0hPa | 0V | 00:00:00 | 00:00:00 | 00:00:00 | |
| SQ6EMJ | 2026-09-03 14:17:09 | 51.03868 | 15.73919 | 139° | 47km/h | 5631m | 1.8m/s | 0°C | 0% | 0hPa | 0V | 00:00:00 | 00:00:00 | 00:00:00 | |
| SQ6EMJ | 2026-09-03 14:17:04 | 51.03911 | 15.73828 | 134° | 46km/h | 5614m | 1.6m/s | 0°C | 0% | 0hPa | 0V | 00:00:00 | 00:00:00 | 00:00:00 | |
| EDDB2-12 | 2026-09-03 14:17:03 | 51.03936 | 15.73775 | 126° | 53km/h | 5602m | 4.8m/s | 0°C | -1.0% | -1.0hPa | 0V | 00:00:00 | 00:00:00 | 00:00:00 | |
| EDDB2-11 | 2026-09-03 14:16:47 | 51.04078 | 15.73468 | 128° | 49km/h | 5546m | 1.8m/s | 0°C | -1.0% | -1.0hPa | 0V | 00:00:00 | 00:00:00 | 00:00:00 | |
| SQ6EMJ | 2026-09-03 14:16:45 | 51.04070 | 15.73485 | 127° | 55km/h | 5549m | 4.7m/s | 0°C | 0% | 0hPa | 0V | 00:00:00 | 00:00:00 | 00:00:00 | |
| SONDE2-11 | 2026-09-03 14:16:42 | 51.04114 | 15.73396 | 123° | 55km/h | 5533m | 4.0m/s | 0°C | -1.0% | -1.0hPa | 0V | 00:00:00 | 00:00:00 | 00:00:00 | |
| SQ6EMJ | 2026-09-03 14:16:39 | 51.04123 | 15.73378 | 135° | 55km/h | 5530m | 2.4m/s | 0°C | 0% | 0hPa | 0V | 00:00:00 | 00:00:00 | 00:00:00 | |
| SQ6EMJ | 2026-09-03 14:16:33 | 51.04172 | 15.73266 | 116° | 57km/h | 5510m | 2.4m/s | 0°C | 0% | 0hPa | 0V | 00:00:00 | 00:00:00 | 00:00:00 | |
| EDDB2-12 | 2026-09-03 14:16:32 | 51.04188 | 15.73229 | 111° | 57km/h | 5504m | 4.3m/s | 0°C | -1.0% | -1.0hPa | 0V | 00:00:00 | 00:00:00 | 00:00:00 | |
| SP6BVK | 2026-09-03 14:16:29 | 51.04205 | 15.73192 | 127° | 60km/h | 5496m | 4.0m/s | 0°C | 0% | 0hPa | 0V | 00:00:00 | 00:00:00 | 00:00:00 | |
| SQ6EMJ | 2026-09-03 14:16:28 | 51.04212 | 15.73172 | 122° | 55km/h | 5492m | 2.7m/s | 0°C | 0% | 0hPa | 0V | 00:00:00 | 00:00:00 | 00:00:00 | |
| SQ6EMJ | 2026-09-03 14:16:22 | 51.04263 | 15.73060 | 133° | 60km/h | 5472m | 2.5m/s | 0°C | 0% | 0hPa | 0V | 00:00:00 | 00:00:00 | 00:00:00 | |
| EDDB2-11 | 2026-09-03 14:16:16 | 51.04321 | 15.72931 | 135° | 64km/h | 5450m | 2.2m/s | 0°C | -1.0% | -1.0hPa | 0V | 00:00:00 | 00:00:00 | 00:00:00 | |
| SQ6EMJ | 2026-09-03 14:16:11 | 51.04353 | 15.72857 | 121° | 49km/h | 5436m | 1.5m/s | 0°C | 0% | 0hPa | 0V | 00:00:00 | 00:00:00 | 00:00:00 | |
| SP6BVK | 2026-09-03 14:16:08 | 51.04376 | 15.72802 | 130° | 60km/h | 5426m | 6.1m/s | 0°C | 0% | 0hPa | 0V | 00:00:00 | 00:00:00 | 00:00:00 | |
| SQ6EMJ | 2026-09-03 14:16:05 | 51.04401 | 15.72744 | 121° | 69km/h | 5416m | 1.3m/s | 0°C | 0% | 0hPa | 0V | 00:00:00 | 00:00:00 | 00:00:00 | |
| EDDB2-12 | 2026-09-03 14:16:01 | 51.04440 | 15.72654 | 121° | 66km/h | 5397m | 2.5m/s | 0°C | -1.0% | -1.0hPa | 0V | 00:00:00 | 00:00:00 | 00:00:00 | |
| EDDB2-11 | 2026-09-03 14:15:45 | 51.04563 | 15.72347 | 131° | 51km/h | 5342m | 2.0m/s | 0°C | -1.0% | -1.0hPa | 0V | 00:00:00 | 00:00:00 | 00:00:00 | |
| SQ6EMJ | 2026-09-03 14:15:41 | 51.04576 | 15.72309 | 119° | 57km/h | 5335m | 3.2m/s | 0°C | 0% | 0hPa | 0V | 00:00:00 | 00:00:00 | 00:00:00 | |
| SONDE2-11 | 2026-09-03 14:15:40 | 51.04592 | 15.72273 | 118° | 55km/h | 5329m | 4.1m/s | 0°C | -1.0% | -1.0hPa | 0V | 00:00:00 | 00:00:00 | 00:00:00 | |
| SP3BTT-10 | 2026-09-03 14:15:37 | 51.04607 | 15.72234 | 136° | 58km/h | 5324m | 3.2m/s | 0°C | 0% | 0hPa | 0V | 00:00:00 | 00:00:00 | 00:00:00 | |
| SQ6EMJ | 2026-09-03 14:15:36 | 51.04615 | 15.72216 | 116° | 53km/h | 5319m | 5.5m/s | 0°C | 0% | 0hPa | 0V | 00:00:00 | 00:00:00 | 00:00:00 | |
| EDDB2-12 | 2026-09-03 14:15:30 | 51.04667 | 15.72086 | 137° | 53km/h | 5298m | 2.4m/s | 0°C | -1.0% | -1.0hPa | 0V | 00:00:00 | 00:00:00 | 00:00:00 | |
| SP6BVK | 2026-09-03 14:15:27 | 51.04681 | 15.72048 | 130° | 58km/h | 5290m | 5.2m/s | 0°C | 0% | 0hPa | 0V | 00:00:00 | 00:00:00 | 00:00:00 | |
| SQ6EMJ | 2026-09-03 14:15:24 | 51.04705 | 15.71994 | 133° | 46km/h | 5279m | 2.0m/s | 0°C | 0% | 0hPa | 0V | 00:00:00 | 00:00:00 | 00:00:00 | |
| SQ6EMJ | 2026-09-03 14:15:18 | 51.04752 | 15.71882 | 124° | 64km/h | 5259m | 1.1m/s | 0°C | 0% | 0hPa | 0V | 00:00:00 | 00:00:00 | 00:00:00 | |
| EDDB2-11 | 2026-09-03 14:15:14 | 51.04792 | 15.71790 | 126° | 62km/h | 5241m | 2.0m/s | 0°C | -1.0% | -1.0hPa | 0V | 00:00:00 | 00:00:00 | 00:00:00 | |
| SQ6EMJ | 2026-09-03 14:15:13 | 51.04792 | 15.71790 | 128° | 64km/h | 5241m | 2.0m/s | 0°C | 0% | 0hPa | 0V | 00:00:00 | 00:00:00 | 00:00:00 | |
| SONDE2-11 | 2026-09-03 14:15:08 | 51.04831 | 15.71697 | 123° | 60km/h | 5223m | 2.8m/s | 0°C | -1.0% | -1.0hPa | 0V | 00:00:00 | 00:00:00 | 00:00:00 | |
| SQ6EMJ | 2026-09-03 14:15:07 | 51.04839 | 15.71679 | 128° | 47km/h | 5221m | 1.8m/s | 0°C | 0% | 0hPa | 0V | 00:00:00 | 00:00:00 | 00:00:00 | |
| SP6BVK | 2026-09-03 14:15:06 | 51.04847 | 15.71659 | 123° | 69km/h | 5219m | 2.3m/s | 0°C | 0% | 0hPa | 0V | 00:00:00 | 00:00:00 | 00:00:00 | |
| SQ6EMJ | 2026-09-03 14:15:01 | 51.04886 | 15.71564 | 120° | 69km/h | 5202m | 2.1m/s | 0°C | 0% | 0hPa | 0V | 00:00:00 | 00:00:00 | 00:00:00 | |
| SQ6EMJ | 2026-09-03 14:14:55 | 51.04934 | 15.71447 | 124° | 44km/h | 5183m | 2.4m/s | 0°C | 0% | 0hPa | 0V | 00:00:00 | 00:00:00 | 00:00:00 | |
| SQ6EMJ | 2026-09-03 14:14:50 | 51.04973 | 15.71351 | 117° | 51km/h | 5163m | 2.2m/s | 0°C | 0% | 0hPa | 0V | 00:00:00 | 00:00:00 | 00:00:00 | |
| SP6BVK | 2026-09-03 14:14:45 | 51.05014 | 15.71253 | 120° | 53km/h | 5146m | 2.4m/s | 0°C | 0% | 0hPa | 0V | 00:00:00 | 00:00:00 | 00:00:00 | |
| SQ6EMJ | 2026-09-03 14:14:44 | 51.05023 | 15.71234 | 133° | 66km/h | 5144m | 1.5m/s | 0°C | 0% | 0hPa | 0V | 00:00:00 | 00:00:00 | 00:00:00 | |
| EDDB2-11 | 2026-09-03 14:14:43 | 51.05048 | 15.71176 | 128° | 53km/h | 5133m | 4.6m/s | 0°C | -1.0% | -1.0hPa | 0V | 00:00:00 | 00:00:00 | 00:00:00 | |
| SQ6EMJ | 2026-09-03 14:14:39 | 51.05066 | 15.71138 | 136° | 57km/h | 5127m | 1.9m/s | 0°C | 0% | 0hPa | 0V | 00:00:00 | 00:00:00 | 00:00:00 | |
| SONDE2-11 | 2026-09-03 14:14:37 | 51.05082 | 15.71098 | 138° | 53km/h | 5122m | 4.8m/s | 0°C | -1.0% | -1.0hPa | 0V | 00:00:00 | 00:00:00 | 00:00:00 | |
| SQ6EMJ | 2026-09-03 14:14:33 | 51.05116 | 15.71023 | 119° | 64km/h | 5107m | 2.0m/s | 0°C | 0% | 0hPa | 0V | 00:00:00 | 00:00:00 | 00:00:00 | |
| SQ6EMJ | 2026-09-03 14:14:28 | 51.05159 | 15.70928 | 124° | 68km/h | 5089m | 2.0m/s | 0°C | 0% | 0hPa | 0V | 00:00:00 | 00:00:00 | 00:00:00 | |
| SP3BTT-10 | 2026-09-03 14:14:27 | 51.05167 | 15.70910 | 132° | 55km/h | 5087m | 2.0m/s | 0°C | 0% | 0hPa | 0V | 00:00:00 | 00:00:00 | 00:00:00 | |
| SP6BVK | 2026-09-03 14:14:24 | 51.05193 | 15.70853 | 122° | 60km/h | 5074m | 4.3m/s | 0°C | 0% | 0hPa | 0V | 00:00:00 | 00:00:00 | 00:00:00 | |
| SQ6EMJ | 2026-09-03 14:14:22 | 51.05210 | 15.70815 | 117° | 51km/h | 5068m | 2.0m/s | 0°C | 0% | 0hPa | 0V | 00:00:00 | 00:00:00 | 00:00:00 | |
| OE3JTB-15 | 2026-09-03 14:14:18 | 51.05244 | 15.70740 | 129° | 55km/h | 5052m | 3.5m/s | 0°C | 0% | 0hPa | 0V | 00:00:00 | 00:00:00 | 00:00:00 | |
| SQ6EMJ | 2026-09-03 14:14:16 | 51.05262 | 15.70702 | 138° | 49km/h | 5047m | 2.2m/s | 0°C | 0% | 0hPa | 0V | 00:00:00 | 00:00:00 | 00:00:00 | |
| EDDB2-11 | 2026-09-03 14:14:12 | 51.05303 | 15.70608 | 122° | 49km/h | 5027m | 2.1m/s | 0°C | -1.0% | -1.0hPa | 0V | 00:00:00 | 00:00:00 | 00:00:00 | |
| SQ6EMJ | 2026-09-03 14:14:06 | 51.05354 | 15.70494 | 136° | 58km/h | 5006m | 2.3m/s | 0°C | 0% | 0hPa | 0V | 00:00:00 | 00:00:00 | 00:00:00 | |
| SP6BVK | 2026-09-03 14:14:03 | 51.05371 | 15.70455 | 136° | 68km/h | 5001m | 3.1m/s | 0°C | 0% | 0hPa | 0V | 00:00:00 | 00:00:00 | 00:00:00 | |
| SQ6EMJ | 2026-09-03 14:13:59 | 51.05405 | 15.70378 | 118° | 62km/h | 4985m | 1.9m/s | 0°C | 0% | 0hPa | 0V | 00:00:00 | 00:00:00 | 00:00:00 | |
| SQ6EMJ | 2026-09-03 14:13:54 | 51.05444 | 15.70284 | 117° | 55km/h | 4968m | 1.8m/s | 0°C | 0% | 0hPa | 0V | 00:00:00 | 00:00:00 | 00:00:00 | |
| SQ6EMJ | 2026-09-03 14:13:43 | 51.05527 | 15.70075 | 129° | 62km/h | 4929m | 2.1m/s | 0°C | 0% | 0hPa | 0V | 00:00:00 | 00:00:00 | 00:00:00 | |
| SP6BVK | 2026-09-03 14:13:42 | 51.05534 | 15.70055 | 111° | 49km/h | 4927m | 1.7m/s | 0°C | 0% | 0hPa | 0V | 00:00:00 | 00:00:00 | 00:00:00 | |
| EDDB2-11 | 2026-09-03 14:13:41 | 51.05564 | 15.69979 | 123° | 57km/h | 4910m | 2.6m/s | 0°C | -1.0% | -1.0hPa | 0V | 00:00:00 | 00:00:00 | 00:00:00 | |
| SQ6EMJ | 2026-09-03 14:13:38 | 51.05564 | 15.69979 | 124° | 58km/h | 4910m | 2.6m/s | 0°C | 0% | 0hPa | 0V | 00:00:00 | 00:00:00 | 00:00:00 | |
| SONDE2-11 | 2026-09-03 14:13:35 | 51.05592 | 15.69902 | 120° | 46km/h | 4897m | 4.6m/s | 0°C | -1.0% | -1.0hPa | 0V | 00:00:00 | 00:00:00 | 00:00:00 | |
| SQ6EMJ | 2026-09-03 14:13:32 | 51.05604 | 15.69866 | 108° | 57km/h | 4890m | 2.0m/s | 0°C | 0% | 0hPa | 0V | 00:00:00 | 00:00:00 | 00:00:00 | |
| SP3BTT-10 | 2026-09-03 14:13:27 | 51.05636 | 15.69761 | 114° | 53km/h | 4870m | 1.8m/s | 0°C | 0% | 0hPa | 0V | 00:00:00 | 00:00:00 | 00:00:00 | |
| SP6BVK | 2026-09-03 14:13:22 | 51.05662 | 15.69659 | 108° | 58km/h | 4853m | 2.6m/s | 0°C | 0% | 0hPa | 0V | 00:00:00 | 00:00:00 | 00:00:00 | |
| SQ6EMJ | 2026-09-03 14:13:21 | 51.05667 | 15.69640 | 122° | 46km/h | 4851m | 1.3m/s | 0°C | 0% | 0hPa | 0V | 00:00:00 | 00:00:00 | 00:00:00 | |
| SQ6EMJ | 2026-09-03 14:13:15 | 51.05695 | 15.69519 | 98° | 53km/h | 4832m | 1.5m/s | 0°C | 0% | 0hPa | 0V | 00:00:00 | 00:00:00 | 00:00:00 | |
| SQ6EMJ | 2026-09-03 14:13:09 | 51.05725 | 15.69394 | 125° | 57km/h | 4812m | 3.2m/s | 0°C | 0% | 0hPa | 0V | 00:00:00 | 00:00:00 | 00:00:00 | |
| SQ6EMJ | 2026-09-03 14:13:04 | 51.05747 | 15.69289 | 123° | 51km/h | 4794m | 1.0m/s | 0°C | 0% | 0hPa | 0V | 00:00:00 | 00:00:00 | 00:00:00 | |
| SP6BVK | 2026-09-03 14:13:01 | 51.05761 | 15.69225 | 107° | 51km/h | 4781m | 4.8m/s | 0°C | 0% | 0hPa | 0V | 00:00:00 | 00:00:00 | 00:00:00 | |
| SQ6EMJ | 2026-09-03 14:12:58 | 51.05774 | 15.69159 | 107° | 71km/h | 4773m | 1.5m/s | 0°C | 0% | 0hPa | 0V | 00:00:00 | 00:00:00 | 00:00:00 | |
| OK1SLM-15 | 2026-09-03 14:12:54 | 51.05791 | 15.69075 | 109° | 49km/h | 4757m | 1.8m/s | 0°C | 0% | 0hPa | 0V | 00:00:00 | 00:00:00 | 00:00:00 | |
| SQ6EMJ | 2026-09-03 14:12:50 | 51.05809 | 15.68988 | 103° | 53km/h | 4744m | 4.6m/s | 0°C | 0% | 0hPa | 0V | 00:00:00 | 00:00:00 | 00:00:00 | |
| SQ6EMJ | 2026-09-03 14:12:44 | 51.05836 | 15.68858 | 109° | 60km/h | 4723m | 4.2m/s | 0°C | 0% | 0hPa | 0V | 00:00:00 | 00:00:00 | 00:00:00 | |
| SP6BVK | 2026-09-03 14:12:40 | 51.05853 | 15.68768 | 121° | 60km/h | 4713m | 3.9m/s | 0°C | 0% | 0hPa | 0V | 00:00:00 | 00:00:00 | 00:00:00 | |
| SQ6EMJ | 2026-09-03 14:12:38 | 51.05861 | 15.68724 | 105° | 57km/h | 4704m | 3.4m/s | 0°C | 0% | 0hPa | 0V | 00:00:00 | 00:00:00 | 00:00:00 | |
| SQ6EMJ | 2026-09-03 14:12:33 | 51.05882 | 15.68613 | 107° | 57km/h | 4689m | 5.1m/s | 0°C | 0% | 0hPa | 0V | 00:00:00 | 00:00:00 | 00:00:00 | |
| SQ6EMJ | 2026-09-03 14:12:27 | 51.05904 | 15.68478 | 106° | 62km/h | 4669m | 3.0m/s | 0°C | 0% | 0hPa | 0V | 00:00:00 | 00:00:00 | 00:00:00 | |
| SQ6EMJ | 2026-09-03 14:12:21 | 51.05927 | 15.68340 | 112° | 55km/h | 4649m | 2.8m/s | 0°C | 0% | 0hPa | 0V | 00:00:00 | 00:00:00 | 00:00:00 | |
| SP6BVK | 2026-09-03 14:12:19 | 51.05934 | 15.68295 | 110° | 42km/h | 4644m | 1.7m/s | 0°C | 0% | 0hPa | 0V | 00:00:00 | 00:00:00 | 00:00:00 | |
| SQ6EMJ | 2026-09-03 14:12:15 | 51.05947 | 15.68204 | 103° | 64km/h | 4627m | 1.4m/s | 0°C | 0% | 0hPa | 0V | 00:00:00 | 00:00:00 | 00:00:00 | |
| SQ6EMJ | 2026-09-03 14:12:09 | 51.05965 | 15.68067 | 87° | 53km/h | 4609m | 2.5m/s | 0°C | 0% | 0hPa | 0V | 00:00:00 | 00:00:00 | 00:00:00 | |
| SQ6EMJ | 2026-09-03 14:12:04 | 51.05980 | 15.67954 | 97° | 64km/h | 4590m | 1.9m/s | 0°C | 0% | 0hPa | 0V | 00:00:00 | 00:00:00 | 00:00:00 | |
| SONDE2-11 | 2026-09-03 14:12:02 | 51.05989 | 15.67884 | 112° | 51km/h | 4582m | 3.7m/s | 0°C | -1.0% | -1.0hPa | 0V | 00:00:00 | 00:00:00 | 00:00:00 | |
| SP6BVK | 2026-09-03 14:11:59 | 51.05995 | 15.67838 | 105° | 62km/h | 4574m | 2.7m/s | 0°C | 0% | 0hPa | 0V | 00:00:00 | 00:00:00 | 00:00:00 | |
| SQ6EMJ | 2026-09-03 14:11:54 | 51.06012 | 15.67722 | 105° | 58km/h | 4562m | 3.9m/s | 0°C | 0% | 0hPa | 0V | 00:00:00 | 00:00:00 | 00:00:00 | |
| SQ6EMJ | 2026-09-03 14:11:48 | 51.06032 | 15.67584 | 102° | 58km/h | 4547m | 2.1m/s | 0°C | 0% | 0hPa | 0V | 00:00:00 | 00:00:00 | 00:00:00 | |
| SQ6EMJ | 2026-09-03 14:11:43 | 51.06049 | 15.67469 | 103° | 62km/h | 4535m | 3.2m/s | 0°C | 0% | 0hPa | 0V | 00:00:00 | 00:00:00 | 00:00:00 | |
| SP6BVK | 2026-09-03 14:11:39 | 51.06063 | 15.67381 | 94° | 64km/h | 4528m | 3.7m/s | 0°C | 0% | 0hPa | 0V | 00:00:00 | 00:00:00 | 00:00:00 | |
| SQ6EMJ | 2026-09-03 14:11:37 | 51.06069 | 15.67334 | 106° | 55km/h | 4522m | 1.9m/s | 0°C | 0% | 0hPa | 0V | 00:00:00 | 00:00:00 | 00:00:00 | |
| SQ6EMJ | 2026-09-03 14:11:32 | 51.06087 | 15.67218 | 103° | 58km/h | 4514m | 3.9m/s | 0°C | 0% | 0hPa | 0V | 00:00:00 | 00:00:00 | 00:00:00 | |
| SONDE2-11 | 2026-09-03 14:11:31 | 51.06094 | 15.67173 | 110° | 53km/h | 4510m | 0.6m/s | 0°C | -1.0% | -1.0hPa | 0V | 00:00:00 | 00:00:00 | 00:00:00 | |
| SQ6EMJ | 2026-09-03 14:11:22 | 51.06125 | 15.66992 | 91° | 55km/h | 4495m | 1.1m/s | 0°C | 0% | 0hPa | 0V | 00:00:00 | 00:00:00 | 00:00:00 | |
| SP6BVK | 2026-09-03 14:11:18 | 51.06139 | 15.66898 | 103° | 64km/h | 4482m | 1.6m/s | 0°C | 0% | 0hPa | 0V | 00:00:00 | 00:00:00 | 00:00:00 | |
| SQ6EMJ | 2026-09-03 14:11:16 | 51.06147 | 15.66852 | 106° | 71km/h | 4478m | 2.6m/s | 0°C | 0% | 0hPa | 0V | 00:00:00 | 00:00:00 | 00:00:00 | |
| SQ6EMJ | 2026-09-03 14:11:11 | 51.06168 | 15.66740 | 108° | 69km/h | 4460m | 1.5m/s | 0°C | 0% | 0hPa | 0V | 00:00:00 | 00:00:00 | 00:00:00 | |
| SQ6EMJ | 2026-09-03 14:11:04 | 51.06194 | 15.66579 | 116° | 64km/h | 4437m | 0.9m/s | 0°C | 0% | 0hPa | 0V | 00:00:00 | 00:00:00 | 00:00:00 | |
| SONDE2-11 | 2026-09-03 14:11:00 | 51.06213 | 15.66462 | 110° | 62km/h | 4418m | 1.7m/s | 0°C | -1.0% | -1.0hPa | 0V | 00:00:00 | 00:00:00 | 00:00:00 | |
| SP6BVK | 2026-09-03 14:10:57 | 51.06221 | 15.66414 | 117° | 64km/h | 4415m | 1.5m/s | 0°C | 0% | 0hPa | 0V | 00:00:00 | 00:00:00 | 00:00:00 | |
| SQ6EMJ | 2026-09-03 14:10:51 | 51.06246 | 15.66277 | 106° | 55km/h | 4392m | 0.4m/s | 0°C | 0% | 0hPa | 0V | 00:00:00 | 00:00:00 | 00:00:00 | |
| SQ6EMJ | 2026-09-03 14:10:45 | 51.06273 | 15.66127 | 104° | 78km/h | 4371m | 1.2m/s | 0°C | 0% | 0hPa | 0V | 00:00:00 | 00:00:00 | 00:00:00 | |
| SP6BVK | 2026-09-03 14:10:37 | 51.06310 | 15.65925 | 111° | 60km/h | 4343m | 1.7m/s | 0°C | 0% | 0hPa | 0V | 00:00:00 | 00:00:00 | 00:00:00 | |
| SQ6EMJ | 2026-09-03 14:10:30 | 51.06347 | 15.65738 | 111° | 55km/h | 4314m | 3.3m/s | 0°C | 0% | 0hPa | 0V | 00:00:00 | 00:00:00 | 00:00:00 | |
| SONDE2-11 | 2026-09-03 14:10:29 | 51.06360 | 15.65685 | 106° | 62km/h | 4305m | 5.0m/s | 0°C | -1.0% | -1.0hPa | 0V | 00:00:00 | 00:00:00 | 00:00:00 | |
| SQ6EMJ | 2026-09-03 14:10:26 | 51.06375 | 15.65610 | 111° | 55km/h | 4296m | 1.2m/s | 0°C | 0% | 0hPa | 0V | 00:00:00 | 00:00:00 | 00:00:00 | |
| SP3BTT-10 | 2026-09-03 14:10:17 | 51.06415 | 15.65404 | 112° | 57km/h | 4267m | 3.3m/s | 0°C | 0% | 0hPa | 0V | 00:00:00 | 00:00:00 | 00:00:00 | |
| SQ6EMJ | 2026-09-03 14:10:16 | 51.06420 | 15.65378 | 100° | 75km/h | 4264m | 1.2m/s | 0°C | 0% | 0hPa | 0V | 00:00:00 | 00:00:00 | 00:00:00 | |
| SP6BVK | 2026-09-03 14:10:15 | 51.06425 | 15.65354 | 120° | 57km/h | 4263m | 1.2m/s | 0°C | 0% | 0hPa | 0V | 00:00:00 | 00:00:00 | 00:00:00 | |
| SQ6EMJ | 2026-09-03 14:10:11 | 51.06442 | 15.65256 | 106° | 66km/h | 4244m | 4.3m/s | 0°C | 0% | 0hPa | 0V | 00:00:00 | 00:00:00 | 00:00:00 | |
| SQ6EMJ | 2026-09-03 14:10:06 | 51.06464 | 15.65130 | 108° | 73km/h | 4231m | 2.3m/s | 0°C | 0% | 0hPa | 0V | 00:00:00 | 00:00:00 | 00:00:00 | |
| SONDE2-11 | 2026-09-03 14:09:58 | 51.06510 | 15.64903 | 115° | 62km/h | 4202m | 3.4m/s | 0°C | -1.0% | -1.0hPa | 0V | 00:00:00 | 00:00:00 | 00:00:00 | |
| SP6BVK | 2026-09-03 14:09:54 | 51.06527 | 15.64830 | 119° | 78km/h | 4193m | 2.4m/s | 0°C | 0% | 0hPa | 0V | 00:00:00 | 00:00:00 | 00:00:00 | |
| SQ6EMJ | 2026-09-03 14:09:53 | 51.06533 | 15.64804 | 104° | 60km/h | 4192m | 1.0m/s | 0°C | 0% | 0hPa | 0V | 00:00:00 | 00:00:00 | 00:00:00 | |
| SQ6EMJ | 2026-09-03 14:09:48 | 51.06569 | 15.64678 | 110° | 62km/h | 4176m | 1.1m/s | 0°C | 0% | 0hPa | 0V | 00:00:00 | 00:00:00 | 00:00:00 | |
| SQ6EMJ | 2026-09-03 14:09:42 | 51.06611 | 15.64537 | 118° | 73km/h | 4156m | 1.5m/s | 0°C | 0% | 0hPa | 0V | 00:00:00 | 00:00:00 | 00:00:00 | |
| SQ6EMJ | 2026-09-03 14:09:36 | 51.06655 | 15.64392 | 112° | 68km/h | 4137m | 2.2m/s | 0°C | 0% | 0hPa | 0V | 00:00:00 | 00:00:00 | 00:00:00 | |
| SP6BVK | 2026-09-03 14:09:34 | 51.06669 | 15.64343 | 111° | 78km/h | 4130m | 5.2m/s | 0°C | 0% | 0hPa | 0V | 00:00:00 | 00:00:00 | 00:00:00 | |
| SQ6EMJ | 2026-09-03 14:09:31 | 51.06689 | 15.64270 | 124° | 66km/h | 4118m | 5.0m/s | 0°C | 0% | 0hPa | 0V | 00:00:00 | 00:00:00 | 00:00:00 | |
| SQ6EMJ | 2026-09-03 14:09:23 | 51.06756 | 15.64072 | 125° | 75km/h | 4080m | 5.0m/s | 0°C | 0% | 0hPa | 0V | 00:00:00 | 00:00:00 | 00:00:00 | |
| SQ6EMJ | 2026-09-03 14:09:18 | 51.06797 | 15.63955 | 124° | 66km/h | 4059m | 3.5m/s | 0°C | 0% | 0hPa | 0V | 00:00:00 | 00:00:00 | 00:00:00 | |
| SP6BVK | 2026-09-03 14:09:14 | 51.06829 | 15.63863 | 117° | 53km/h | 4045m | 4.2m/s | 0°C | 0% | 0hPa | 0V | 00:00:00 | 00:00:00 | 00:00:00 | |
| SQ6EMJ | 2026-09-03 14:09:12 | 51.06842 | 15.63816 | 119° | 55km/h | 4038m | 4.7m/s | 0°C | 0% | 0hPa | 0V | 00:00:00 | 00:00:00 | 00:00:00 | |
| SQ6EMJ | 2026-09-03 14:09:07 | 51.06879 | 15.63698 | 122° | 64km/h | 4017m | 1.6m/s | 0°C | 0% | 0hPa | 0V | 00:00:00 | 00:00:00 | 00:00:00 | |
| SQ6EMJ | 2026-09-03 14:09:00 | 51.06928 | 15.63530 | 124° | 69km/h | 3991m | 0.8m/s | 0°C | 0% | 0hPa | 0V | 00:00:00 | 00:00:00 | 00:00:00 | |
| SQ6EMJ | 2026-09-03 14:08:47 | 51.07023 | 15.63216 | 108° | 60km/h | 3945m | 1.4m/s | 0°C | 0% | 0hPa | 0V | 00:00:00 | 00:00:00 | 00:00:00 | |
| SQ6EMJ | 2026-09-03 14:08:40 | 51.07073 | 15.63047 | 106° | 58km/h | 3920m | 1.3m/s | 0°C | 0% | 0hPa | 0V | 00:00:00 | 00:00:00 | 00:00:00 | |
| SQ6EMJ | 2026-09-03 14:08:34 | 51.07114 | 15.62903 | 128° | 69km/h | 3898m | 2.5m/s | 0°C | 0% | 0hPa | 0V | 00:00:00 | 00:00:00 | 00:00:00 | |
| SP6BVK | 2026-09-03 14:08:33 | 51.07121 | 15.62879 | 104° | 68km/h | 3894m | 5.5m/s | 0°C | 0% | 0hPa | 0V | 00:00:00 | 00:00:00 | 00:00:00 | |
| SQ6EMJ | 2026-09-03 14:08:27 | 51.07164 | 15.62729 | 128° | 62km/h | 3862m | 2.5m/s | 0°C | 0% | 0hPa | 0V | 00:00:00 | 00:00:00 | 00:00:00 | |
| SQ6EMJ | 2026-09-03 14:08:20 | 51.07213 | 15.62560 | 125° | 69km/h | 3830m | 2.7m/s | 0°C | 0% | 0hPa | 0V | 00:00:00 | 00:00:00 | 00:00:00 | |
| SP6BVK | 2026-09-03 14:08:13 | 51.07256 | 15.62396 | 117° | 77km/h | 3800m | 2.1m/s | 0°C | 0% | 0hPa | 0V | 00:00:00 | 00:00:00 | 00:00:00 | |
| SQ6EMJ | 2026-09-03 14:08:06 | 51.07301 | 15.62235 | 121° | 77km/h | 3773m | 3.0m/s | 0°C | 0% | 0hPa | 0V | 00:00:00 | 00:00:00 | 00:00:00 | |
| SQ6EMJ | 2026-09-03 14:08:00 | 51.07340 | 15.62094 | 105° | 62km/h | 3749m | 1.9m/s | 0°C | 0% | 0hPa | 0V | 00:00:00 | 00:00:00 | 00:00:00 | |
| SQ6EMJ | 2026-09-03 14:07:53 | 51.07384 | 15.61929 | 105° | 66km/h | 3723m | 1.3m/s | 0°C | 0% | 0hPa | 0V | 00:00:00 | 00:00:00 | 00:00:00 | |
| SP6BVK | 2026-09-03 14:07:52 | 51.07391 | 15.61907 | 128° | 62km/h | 3720m | 3.7m/s | 0°C | 0% | 0hPa | 0V | 00:00:00 | 00:00:00 | 00:00:00 | |
| SQ6EMJ | 2026-09-03 14:07:47 | 51.07423 | 15.61790 | 127° | 60km/h | 3702m | 1.9m/s | 0°C | 0% | 0hPa | 0V | 00:00:00 | 00:00:00 | 00:00:00 | |
| SQ6EMJ | 2026-09-03 14:07:42 | 51.07461 | 15.61652 | 110° | 69km/h | 3680m | 1.7m/s | 0°C | 0% | 0hPa | 0V | 00:00:00 | 00:00:00 | 00:00:00 | |
| SQ6EMJ | 2026-09-03 14:07:36 | 51.07499 | 15.61518 | 124° | 55km/h | 3659m | 1.4m/s | 0°C | 0% | 0hPa | 0V | 00:00:00 | 00:00:00 | 00:00:00 | |
| SP6BVK | 2026-09-03 14:07:31 | 51.07525 | 15.61427 | 115° | 60km/h | 3644m | 4.2m/s | 0°C | 0% | 0hPa | 0V | 00:00:00 | 00:00:00 | 00:00:00 | |
| SQ6EMJ | 2026-09-03 14:07:28 | 51.07545 | 15.61362 | 130° | 58km/h | 3637m | 2.1m/s | 0°C | 0% | 0hPa | 0V | 00:00:00 | 00:00:00 | 00:00:00 | |
| SQ6EMJ | 2026-09-03 14:07:22 | 51.07583 | 15.61230 | 105° | 66km/h | 3617m | 0.7m/s | 0°C | 0% | 0hPa | 0V | 00:00:00 | 00:00:00 | 00:00:00 | |
| SQ6EMJ | 2026-09-03 14:07:16 | 51.07623 | 15.61102 | 131° | 51km/h | 3595m | 2.7m/s | 0°C | 0% | 0hPa | 0V | 00:00:00 | 00:00:00 | 00:00:00 | |
| SQ6EMJ | 2026-09-03 14:07:10 | 51.07664 | 15.60976 | 115° | 68km/h | 3574m | 1.3m/s | 0°C | 0% | 0hPa | 0V | 00:00:00 | 00:00:00 | 00:00:00 | |
| SQ6EMJ | 2026-09-03 14:07:04 | 51.07702 | 15.60851 | 119° | 46km/h | 3555m | 1.8m/s | 0°C | 0% | 0hPa | 0V | 00:00:00 | 00:00:00 | 00:00:00 | |
| SQ6EMJ | 2026-09-03 14:06:57 | 51.07747 | 15.60707 | 131° | 51km/h | 3534m | 1.8m/s | 0°C | 0% | 0hPa | 0V | 00:00:00 | 00:00:00 | 00:00:00 | |
| SQ6EMJ | 2026-09-03 14:06:51 | 51.07784 | 15.60585 | 106° | 51km/h | 3512m | 1.2m/s | 0°C | 0% | 0hPa | 0V | 00:00:00 | 00:00:00 | 00:00:00 | |
| SP6BVK | 2026-09-03 14:06:49 | 51.07797 | 15.60545 | 106° | 53km/h | 3506m | 5.5m/s | 0°C | 0% | 0hPa | 0V | 00:00:00 | 00:00:00 | 00:00:00 | |
| SQ6EMJ | 2026-09-03 14:06:45 | 51.07821 | 15.60466 | 127° | 55km/h | 3492m | 1.1m/s | 0°C | 0% | 0hPa | 0V | 00:00:00 | 00:00:00 | 00:00:00 | |
| SQ6EMJ | 2026-09-03 14:06:38 | 51.07860 | 15.60326 | 132° | 51km/h | 3467m | 2.2m/s | 0°C | 0% | 0hPa | 0V | 00:00:00 | 00:00:00 | 00:00:00 | |
| SQ6EMJ | 2026-09-03 14:06:32 | 51.07895 | 15.60207 | 106° | 60km/h | 3447m | 1.4m/s | 0°C | 0% | 0hPa | 0V | 00:00:00 | 00:00:00 | 00:00:00 | |
| SP6BVK | 2026-09-03 14:06:28 | 51.07917 | 15.60128 | 117° | 58km/h | 3431m | 3.4m/s | 0°C | 0% | 0hPa | 0V | 00:00:00 | 00:00:00 | 00:00:00 | |
| SQ6EMJ | 2026-09-03 14:06:25 | 51.07934 | 15.60070 | 104° | 51km/h | 3425m | 1.1m/s | 0°C | 0% | 0hPa | 0V | 00:00:00 | 00:00:00 | 00:00:00 | |
| SQ6EMJ | 2026-09-03 14:06:20 | 51.07962 | 15.59976 | 106° | 51km/h | 3408m | 1.3m/s | 0°C | 0% | 0hPa | 0V | 00:00:00 | 00:00:00 | 00:00:00 | |
| SQ6EMJ | 2026-09-03 14:06:14 | 51.07996 | 15.59862 | 128° | 55km/h | 3388m | 1.6m/s | 0°C | 0% | 0hPa | 0V | 00:00:00 | 00:00:00 | 00:00:00 | |
| SQ6EMJ | 2026-09-03 14:06:09 | 51.08021 | 15.59768 | 121° | 55km/h | 3370m | 1.8m/s | 0°C | 0% | 0hPa | 0V | 00:00:00 | 00:00:00 | 00:00:00 | |
| SP6BVK | 2026-09-03 14:06:08 | 51.08025 | 15.59748 | 97° | 47km/h | 3368m | 1.1m/s | 0°C | 0% | 0hPa | 0V | 00:00:00 | 00:00:00 | 00:00:00 | |
| SQ6EMJ | 2026-09-03 14:06:03 | 51.08050 | 15.59658 | 104° | 46km/h | 3353m | 0.7m/s | 0°C | 0% | 0hPa | 0V | 00:00:00 | 00:00:00 | 00:00:00 | |
| SQ6EMJ | 2026-09-03 14:05:58 | 51.08075 | 15.59564 | 108° | 44km/h | 3338m | 1.7m/s | 0°C | 0% | 0hPa | 0V | 00:00:00 | 00:00:00 | 00:00:00 | |
| SQ6EMJ | 2026-09-03 14:05:52 | 51.08106 | 15.59458 | 122° | 51km/h | 3321m | 1.8m/s | 0°C | 0% | 0hPa | 0V | 00:00:00 | 00:00:00 | 00:00:00 | |
| SP6BVK | 2026-09-03 14:05:47 | 51.08130 | 15.59369 | 115° | 46km/h | 3306m | 3.3m/s | 0°C | 0% | 0hPa | 0V | 00:00:00 | 00:00:00 | 00:00:00 | |
| SQ6EMJ | 2026-09-03 14:05:46 | 51.08134 | 15.59351 | 106° | 47km/h | 3303m | 2.1m/s | 0°C | 0% | 0hPa | 0V | 00:00:00 | 00:00:00 | 00:00:00 | |
| SQ6EMJ | 2026-09-03 14:05:41 | 51.08156 | 15.59264 | 110° | 44km/h | 3288m | 2.8m/s | 0°C | 0% | 0hPa | 0V | 00:00:00 | 00:00:00 | 00:00:00 | |
| SQ6EMJ | 2026-09-03 14:05:33 | 51.08192 | 15.59129 | 130° | 47km/h | 3265m | 1.2m/s | 0°C | 0% | 0hPa | 0V | 00:00:00 | 00:00:00 | 00:00:00 | |
| SP6BVK | 2026-09-03 14:05:27 | 51.08220 | 15.59030 | 103° | 38km/h | 3248m | 1.1m/s | 0°C | 0% | 0hPa | 0V | 00:00:00 | 00:00:00 | 00:00:00 | |
| SQ6EMJ | 2026-09-03 14:05:13 | 51.08287 | 15.58808 | 130° | 40km/h | 3208m | 1.5m/s | 0°C | 0% | 0hPa | 0V | 00:00:00 | 00:00:00 | 00:00:00 | |
| SQ6EMJ | 2026-09-03 14:05:08 | 51.08311 | 15.58727 | 132° | 44km/h | 3194m | 1.5m/s | 0°C | 0% | 0hPa | 0V | 00:00:00 | 00:00:00 | 00:00:00 | |
| SP6BVK | 2026-09-03 14:05:06 | 51.08321 | 15.58695 | 129° | 44km/h | 3188m | 3.5m/s | 0°C | 0% | 0hPa | 0V | 00:00:00 | 00:00:00 | 00:00:00 | |
| SQ6EMJ | 2026-09-03 14:05:01 | 51.08345 | 15.58616 | 130° | 44km/h | 3174m | 1.2m/s | 0°C | 0% | 0hPa | 0V | 00:00:00 | 00:00:00 | 00:00:00 | |
| SQ6EMJ | 2026-09-03 14:04:56 | 51.08369 | 15.58536 | 126° | 38km/h | 3158m | 1.0m/s | 0°C | 0% | 0hPa | 0V | 00:00:00 | 00:00:00 | 00:00:00 | |
| SQ6EMJ | 2026-09-03 14:04:49 | 51.08403 | 15.58426 | 120° | 31km/h | 3137m | 1.4m/s | 0°C | 0% | 0hPa | 0V | 00:00:00 | 00:00:00 | 00:00:00 | |
| SP6BVK | 2026-09-03 14:04:46 | 51.08417 | 15.58380 | 117° | 42km/h | 3127m | 3.8m/s | 0°C | 0% | 0hPa | 0V | 00:00:00 | 00:00:00 | 00:00:00 | |
| SQ6EMJ | 2026-09-03 14:04:43 | 51.08431 | 15.58333 | 105° | 51km/h | 3119m | 1.5m/s | 0°C | 0% | 0hPa | 0V | 00:00:00 | 00:00:00 | 00:00:00 | |
| SQ6EMJ | 2026-09-03 14:04:37 | 51.08459 | 15.58243 | 134° | 38km/h | 3099m | 1.6m/s | 0°C | 0% | 0hPa | 0V | 00:00:00 | 00:00:00 | 00:00:00 | |
| SQ6EMJ | 2026-09-03 14:04:31 | 51.08485 | 15.58153 | 102° | 40km/h | 3080m | 1.5m/s | 0°C | 0% | 0hPa | 0V | 00:00:00 | 00:00:00 | 00:00:00 | |
| SP6BVK | 2026-09-03 14:04:26 | 51.08508 | 15.58079 | 112° | 44km/h | 3063m | 2.1m/s | 0°C | 0% | 0hPa | 0V | 00:00:00 | 00:00:00 | 00:00:00 | |
| SQ6EMJ | 2026-09-03 14:04:25 | 51.08512 | 15.58066 | 133° | 33km/h | 3061m | 1.4m/s | 0°C | 0% | 0hPa | 0V | 00:00:00 | 00:00:00 | 00:00:00 | |
| SQ6EMJ | 2026-09-03 14:04:19 | 51.08540 | 15.57980 | 104° | 47km/h | 3044m | 2.4m/s | 0°C | 0% | 0hPa | 0V | 00:00:00 | 00:00:00 | 00:00:00 | |
| SQ6EMJ | 2026-09-03 14:04:14 | 51.08561 | 15.57911 | 112° | 46km/h | 3028m | 1.5m/s | 0°C | 0% | 0hPa | 0V | 00:00:00 | 00:00:00 | 00:00:00 | |
| SQ6EMJ | 2026-09-03 14:04:08 | 51.08586 | 15.57830 | 107° | 35km/h | 3009m | 1.6m/s | 0°C | 0% | 0hPa | 0V | 00:00:00 | 00:00:00 | 00:00:00 | |
| SP6BVK | 2026-09-03 14:04:05 | 51.08599 | 15.57790 | 129° | 40km/h | 3002m | 5.4m/s | 0°C | 0% | 0hPa | 0V | 00:00:00 | 00:00:00 | 00:00:00 | |
| SQ6EMJ | 2026-09-03 14:04:02 | 51.08612 | 15.57751 | 120° | 42km/h | 2990m | 2.8m/s | 0°C | 0% | 0hPa | 0V | 00:00:00 | 00:00:00 | 00:00:00 | |
| SQ6EMJ | 2026-09-03 14:03:56 | 51.08637 | 15.57671 | 102° | 31km/h | 2973m | 2.1m/s | 0°C | 0% | 0hPa | 0V | 00:00:00 | 00:00:00 | 00:00:00 | |
| SQ6EMJ | 2026-09-03 14:03:50 | 51.08663 | 15.57590 | 131° | 40km/h | 2954m | 2.4m/s | 0°C | 0% | 0hPa | 0V | 00:00:00 | 00:00:00 | 00:00:00 | |
| SP6BVK | 2026-09-03 14:03:45 | 51.08688 | 15.57506 | 110° | 42km/h | 2933m | 2.7m/s | 0°C | 0% | 0hPa | 0V | 00:00:00 | 00:00:00 | 00:00:00 | |
| SQ6EMJ | 2026-09-03 14:03:43 | 51.08692 | 15.57492 | 128° | 35km/h | 2931m | 1.8m/s | 0°C | 0% | 0hPa | 0V | 00:00:00 | 00:00:00 | 00:00:00 | |
| SQ6EMJ | 2026-09-03 14:03:36 | 51.08720 | 15.57390 | 125° | 35km/h | 2907m | 1.5m/s | 0°C | 0% | 0hPa | 0V | 00:00:00 | 00:00:00 | 00:00:00 | |
| SP3BTT-10 | 2026-09-03 14:03:29 | 51.08746 | 15.57281 | 124° | 40km/h | 2884m | 1.9m/s | 0°C | 0% | 0hPa | 0V | 00:00:00 | 00:00:00 | 00:00:00 | |
| SP6BVK | 2026-09-03 14:03:24 | 51.08767 | 15.57200 | 117° | 42km/h | 2864m | 3.8m/s | 0°C | 0% | 0hPa | 0V | 00:00:00 | 00:00:00 | 00:00:00 | |
| SQ6EMJ | 2026-09-03 14:03:22 | 51.08775 | 15.57168 | 124° | 37km/h | 2859m | 1.4m/s | 0°C | 0% | 0hPa | 0V | 00:00:00 | 00:00:00 | 00:00:00 | |
| SQ6EMJ | 2026-09-03 14:03:09 | 51.08822 | 15.56951 | 103° | 44km/h | 2815m | 2.4m/s | 0°C | 0% | 0hPa | 0V | 00:00:00 | 00:00:00 | 00:00:00 | |
| SP6BVK | 2026-09-03 14:03:04 | 51.08842 | 15.56865 | 114° | 47km/h | 2799m | 5.6m/s | 0°C | 0% | 0hPa | 0V | 00:00:00 | 00:00:00 | 00:00:00 | |
| SQ6EMJ | 2026-09-03 14:03:01 | 51.08854 | 15.56813 | 117° | 55km/h | 2790m | 1.1m/s | 0°C | 0% | 0hPa | 0V | 00:00:00 | 00:00:00 | 00:00:00 | |
| SP6BVK | 2026-09-03 14:02:44 | 51.08909 | 15.56499 | 111° | 49km/h | 2732m | 1.7m/s | 0°C | 0% | 0hPa | 0V | 00:00:00 | 00:00:00 | 00:00:00 | |
| SP6BVK | 2026-09-03 14:02:23 | 51.08956 | 15.56094 | 100° | 37km/h | 2666m | 4.8m/s | 0°C | 0% | 0hPa | 0V | 00:00:00 | 00:00:00 | 00:00:00 | |
| SP6BVK | 2026-09-03 14:01:41 | 51.09008 | 15.55272 | 94° | 47km/h | 2527m | 3.7m/s | 0°C | 0% | 0hPa | 0V | 00:00:00 | 00:00:00 | 00:00:00 | |
| SP6BVK | 2026-09-03 14:01:20 | 51.09022 | 15.54861 | 83° | 53km/h | 2462m | 1.3m/s | 0°C | 0% | 0hPa | 0V | 00:00:00 | 00:00:00 | 00:00:00 | |
| SP6BVK | 2026-09-03 14:00:59 | 51.09034 | 15.54458 | 95° | 60km/h | 2392m | 5.0m/s | 0°C | 0% | 0hPa | 0V | 00:00:00 | 00:00:00 | 00:00:00 | |
| SP6BVK | 2026-09-03 14:00:39 | 51.09038 | 15.54075 | 79° | 55km/h | 2325m | 3.3m/s | 0°C | 0% | 0hPa | 0V | 00:00:00 | 00:00:00 | 00:00:00 | |
| SP6BVK | 2026-09-03 14:00:18 | 51.09048 | 15.53656 | 84° | 51km/h | 2257m | 4.9m/s | 0°C | 0% | 0hPa | 0V | 00:00:00 | 00:00:00 | 00:00:00 |